<?xml version="1.0" encoding="UTF-8" standalone="no" ?>
<gpx xmlns="http://www.topografix.com/GPX/1/1" xmlns:xsi="http://www.w3.org/2001/XMLSchema-instance" xsi:schemaLocation="http://www.topografix.com/GPX/1/1 http://www.topografix.com/GPX/1/1/gpx.xsd" version="1.1" creator="VisuGPX - https://www.visugpx.com">
  <metadata>
    <name>2018-09-22 13:29:45</name>
    <desc><![CDATA[assez peu technique sauf sur la fin ]]></desc>
  </metadata>
  <trk>
    <name><![CDATA[2018-09-22 13:29:45]]></name>
    <trkseg>
      <trkpt lat="45.97046" lon="6.44894">
        <ele>1320.35</ele>
        <time>2018-09-22T07:50:08Z</time>
      </trkpt>
      <trkpt lat="45.97046" lon="6.44894">
        <ele>1320.35</ele>
        <time>2018-09-22T07:50:09Z</time>
      </trkpt>
      <trkpt lat="45.97045" lon="6.44894">
        <ele>1269.2</ele>
        <time>2018-09-22T07:50:12Z</time>
      </trkpt>
      <trkpt lat="45.97045" lon="6.44894">
        <ele>1269.2</ele>
        <time>2018-09-22T07:50:13Z</time>
      </trkpt>
      <trkpt lat="45.97046" lon="6.44894">
        <ele>1268.68</ele>
        <time>2018-09-22T07:51:01Z</time>
      </trkpt>
      <trkpt lat="45.97046" lon="6.44892">
        <ele>1269.69</ele>
        <time>2018-09-22T07:51:57Z</time>
      </trkpt>
      <trkpt lat="45.97048" lon="6.4489">
        <ele>1269.83</ele>
        <time>2018-09-22T07:53:26Z</time>
      </trkpt>
      <trkpt lat="45.97048" lon="6.44892">
        <ele>1270.18</ele>
        <time>2018-09-22T07:55:00Z</time>
      </trkpt>
      <trkpt lat="45.97047" lon="6.44891">
        <ele>1269.42</ele>
        <time>2018-09-22T07:56:31Z</time>
      </trkpt>
      <trkpt lat="45.97048" lon="6.44891">
        <ele>1269.26</ele>
        <time>2018-09-22T07:57:30Z</time>
      </trkpt>
      <trkpt lat="45.97048" lon="6.44885">
        <ele>1269.33</ele>
        <time>2018-09-22T07:57:49Z</time>
      </trkpt>
      <trkpt lat="45.97049" lon="6.44885">
        <ele>1269.35</ele>
        <time>2018-09-22T07:58:29Z</time>
      </trkpt>
      <trkpt lat="45.97048" lon="6.44885">
        <ele>1269.49</ele>
        <time>2018-09-22T07:58:54Z</time>
      </trkpt>
      <trkpt lat="45.97048" lon="6.44881">
        <ele>1269.68</ele>
        <time>2018-09-22T07:59:39Z</time>
      </trkpt>
      <trkpt lat="45.97047" lon="6.44882">
        <ele>1270</ele>
        <time>2018-09-22T08:00:12Z</time>
      </trkpt>
      <trkpt lat="45.97047" lon="6.44884">
        <ele>1269.93</ele>
        <time>2018-09-22T08:00:44Z</time>
      </trkpt>
      <trkpt lat="45.97064" lon="6.4489">
        <ele>1270.75</ele>
        <time>2018-09-22T08:01:02Z</time>
      </trkpt>
      <trkpt lat="45.97121" lon="6.44926">
        <ele>1272.08</ele>
        <time>2018-09-22T08:01:21Z</time>
      </trkpt>
      <trkpt lat="45.97193" lon="6.44968">
        <ele>1272.85</ele>
        <time>2018-09-22T08:01:42Z</time>
      </trkpt>
      <trkpt lat="45.97248" lon="6.45026">
        <ele>1273.28</ele>
        <time>2018-09-22T08:02:00Z</time>
      </trkpt>
      <trkpt lat="45.97277" lon="6.4509">
        <ele>1275.7</ele>
        <time>2018-09-22T08:02:16Z</time>
      </trkpt>
      <trkpt lat="45.97301" lon="6.45146">
        <ele>1278.76</ele>
        <time>2018-09-22T08:02:31Z</time>
      </trkpt>
      <trkpt lat="45.97322" lon="6.452">
        <ele>1282.34</ele>
        <time>2018-09-22T08:02:46Z</time>
      </trkpt>
      <trkpt lat="45.97336" lon="6.45245">
        <ele>1285.53</ele>
        <time>2018-09-22T08:02:59Z</time>
      </trkpt>
      <trkpt lat="45.97345" lon="6.45317">
        <ele>1288.99</ele>
        <time>2018-09-22T08:03:17Z</time>
      </trkpt>
      <trkpt lat="45.97367" lon="6.45393">
        <ele>1290.69</ele>
        <time>2018-09-22T08:03:38Z</time>
      </trkpt>
      <trkpt lat="45.97381" lon="6.45462">
        <ele>1291.94</ele>
        <time>2018-09-22T08:03:56Z</time>
      </trkpt>
      <trkpt lat="45.97388" lon="6.45528">
        <ele>1293.58</ele>
        <time>2018-09-22T08:04:13Z</time>
      </trkpt>
      <trkpt lat="45.97391" lon="6.45544">
        <ele>1294.39</ele>
        <time>2018-09-22T08:04:20Z</time>
      </trkpt>
      <trkpt lat="45.97391" lon="6.45546">
        <ele>1294.27</ele>
        <time>2018-09-22T08:04:21Z</time>
      </trkpt>
      <trkpt lat="45.97391" lon="6.45549">
        <ele>1293.94</ele>
        <time>2018-09-22T08:04:22Z</time>
      </trkpt>
      <trkpt lat="45.97392" lon="6.45551">
        <ele>1294.1</ele>
        <time>2018-09-22T08:04:23Z</time>
      </trkpt>
      <trkpt lat="45.97394" lon="6.45553">
        <ele>1294.21</ele>
        <time>2018-09-22T08:04:24Z</time>
      </trkpt>
      <trkpt lat="45.97408" lon="6.45595">
        <ele>1295.76</ele>
        <time>2018-09-22T08:04:38Z</time>
      </trkpt>
      <trkpt lat="45.97429" lon="6.45661">
        <ele>1298.94</ele>
        <time>2018-09-22T08:04:57Z</time>
      </trkpt>
      <trkpt lat="45.97453" lon="6.45727">
        <ele>1302</ele>
        <time>2018-09-22T08:05:16Z</time>
      </trkpt>
      <trkpt lat="45.9748" lon="6.45786">
        <ele>1305.05</ele>
        <time>2018-09-22T08:05:34Z</time>
      </trkpt>
      <trkpt lat="45.97509" lon="6.45838">
        <ele>1306.24</ele>
        <time>2018-09-22T08:05:50Z</time>
      </trkpt>
      <trkpt lat="45.97539" lon="6.45892">
        <ele>1306.32</ele>
        <time>2018-09-22T08:06:06Z</time>
      </trkpt>
      <trkpt lat="45.97574" lon="6.45953">
        <ele>1307.48</ele>
        <time>2018-09-22T08:06:24Z</time>
      </trkpt>
      <trkpt lat="45.97625" lon="6.46011">
        <ele>1310.49</ele>
        <time>2018-09-22T08:06:45Z</time>
      </trkpt>
      <trkpt lat="45.97652" lon="6.4605">
        <ele>1312.54</ele>
        <time>2018-09-22T08:06:59Z</time>
      </trkpt>
      <trkpt lat="45.97681" lon="6.46058">
        <ele>1315.52</ele>
        <time>2018-09-22T08:07:13Z</time>
      </trkpt>
      <trkpt lat="45.97706" lon="6.46084">
        <ele>1317.17</ele>
        <time>2018-09-22T08:07:28Z</time>
      </trkpt>
      <trkpt lat="45.97703" lon="6.46104">
        <ele>1317.87</ele>
        <time>2018-09-22T08:07:42Z</time>
      </trkpt>
      <trkpt lat="45.97704" lon="6.46102">
        <ele>1317.49</ele>
        <time>2018-09-22T08:08:28Z</time>
      </trkpt>
      <trkpt lat="45.97694" lon="6.46122">
        <ele>1317.87</ele>
        <time>2018-09-22T08:08:50Z</time>
      </trkpt>
      <trkpt lat="45.97681" lon="6.46145">
        <ele>1320.9</ele>
        <time>2018-09-22T08:09:00Z</time>
      </trkpt>
      <trkpt lat="45.9768" lon="6.46148">
        <ele>1321.18</ele>
        <time>2018-09-22T08:09:01Z</time>
      </trkpt>
      <trkpt lat="45.97681" lon="6.46153">
        <ele>1322.11</ele>
        <time>2018-09-22T08:09:03Z</time>
      </trkpt>
      <trkpt lat="45.97682" lon="6.46154">
        <ele>1322.58</ele>
        <time>2018-09-22T08:09:04Z</time>
      </trkpt>
      <trkpt lat="45.97683" lon="6.46156">
        <ele>1322.67</ele>
        <time>2018-09-22T08:09:05Z</time>
      </trkpt>
      <trkpt lat="45.97692" lon="6.46168">
        <ele>1325.22</ele>
        <time>2018-09-22T08:09:13Z</time>
      </trkpt>
      <trkpt lat="45.97697" lon="6.46174">
        <ele>1326.97</ele>
        <time>2018-09-22T08:09:17Z</time>
      </trkpt>
      <trkpt lat="45.97709" lon="6.46195">
        <ele>1330.07</ele>
        <time>2018-09-22T08:09:29Z</time>
      </trkpt>
      <trkpt lat="45.9771" lon="6.46199">
        <ele>1330.54</ele>
        <time>2018-09-22T08:09:31Z</time>
      </trkpt>
      <trkpt lat="45.97725" lon="6.46226">
        <ele>1333.65</ele>
        <time>2018-09-22T08:09:47Z</time>
      </trkpt>
      <trkpt lat="45.97738" lon="6.46249">
        <ele>1336.75</ele>
        <time>2018-09-22T08:10:01Z</time>
      </trkpt>
      <trkpt lat="45.97752" lon="6.46271">
        <ele>1339.54</ele>
        <time>2018-09-22T08:10:15Z</time>
      </trkpt>
      <trkpt lat="45.9776" lon="6.46294">
        <ele>1342.65</ele>
        <time>2018-09-22T08:10:28Z</time>
      </trkpt>
      <trkpt lat="45.97763" lon="6.46331">
        <ele>1345.88</ele>
        <time>2018-09-22T08:10:47Z</time>
      </trkpt>
      <trkpt lat="45.97776" lon="6.46344">
        <ele>1348.9</ele>
        <time>2018-09-22T08:10:58Z</time>
      </trkpt>
      <trkpt lat="45.97783" lon="6.46345">
        <ele>1350.44</ele>
        <time>2018-09-22T08:11:03Z</time>
      </trkpt>
      <trkpt lat="45.97784" lon="6.46343">
        <ele>1350.71</ele>
        <time>2018-09-22T08:11:04Z</time>
      </trkpt>
      <trkpt lat="45.97786" lon="6.46337">
        <ele>1351.31</ele>
        <time>2018-09-22T08:11:08Z</time>
      </trkpt>
      <trkpt lat="45.97787" lon="6.46338">
        <ele>1351.41</ele>
        <time>2018-09-22T08:11:09Z</time>
      </trkpt>
      <trkpt lat="45.97788" lon="6.46339">
        <ele>1351.49</ele>
        <time>2018-09-22T08:11:10Z</time>
      </trkpt>
      <trkpt lat="45.97789" lon="6.46341">
        <ele>1351.64</ele>
        <time>2018-09-22T08:11:11Z</time>
      </trkpt>
      <trkpt lat="45.97789" lon="6.46343">
        <ele>1351.82</ele>
        <time>2018-09-22T08:11:12Z</time>
      </trkpt>
      <trkpt lat="45.97789" lon="6.46345">
        <ele>1351.85</ele>
        <time>2018-09-22T08:11:13Z</time>
      </trkpt>
      <trkpt lat="45.97789" lon="6.46347">
        <ele>1351.57</ele>
        <time>2018-09-22T08:11:14Z</time>
      </trkpt>
      <trkpt lat="45.97788" lon="6.46349">
        <ele>1351.67</ele>
        <time>2018-09-22T08:11:15Z</time>
      </trkpt>
      <trkpt lat="45.97788" lon="6.46354">
        <ele>1351.33</ele>
        <time>2018-09-22T08:11:17Z</time>
      </trkpt>
      <trkpt lat="45.97789" lon="6.46355">
        <ele>1351.5</ele>
        <time>2018-09-22T08:11:18Z</time>
      </trkpt>
      <trkpt lat="45.97789" lon="6.46357">
        <ele>1352.01</ele>
        <time>2018-09-22T08:11:30Z</time>
      </trkpt>
      <trkpt lat="45.97789" lon="6.46357">
        <ele>1351.54</ele>
        <time>2018-09-22T08:12:15Z</time>
      </trkpt>
      <trkpt lat="45.97789" lon="6.46358">
        <ele>1351.76</ele>
        <time>2018-09-22T08:12:32Z</time>
      </trkpt>
      <trkpt lat="45.97789" lon="6.4636">
        <ele>1351.83</ele>
        <time>2018-09-22T08:12:33Z</time>
      </trkpt>
      <trkpt lat="45.9779" lon="6.46362">
        <ele>1352.3</ele>
        <time>2018-09-22T08:12:34Z</time>
      </trkpt>
      <trkpt lat="45.9779" lon="6.46364">
        <ele>1351.57</ele>
        <time>2018-09-22T08:12:35Z</time>
      </trkpt>
      <trkpt lat="45.97791" lon="6.46367">
        <ele>1351.91</ele>
        <time>2018-09-22T08:12:36Z</time>
      </trkpt>
      <trkpt lat="45.97791" lon="6.46369">
        <ele>1352.33</ele>
        <time>2018-09-22T08:12:37Z</time>
      </trkpt>
      <trkpt lat="45.97791" lon="6.46372">
        <ele>1353</ele>
        <time>2018-09-22T08:12:38Z</time>
      </trkpt>
      <trkpt lat="45.97791" lon="6.46375">
        <ele>1353.23</ele>
        <time>2018-09-22T08:12:39Z</time>
      </trkpt>
      <trkpt lat="45.97793" lon="6.46397">
        <ele>1355.74</ele>
        <time>2018-09-22T08:12:48Z</time>
      </trkpt>
      <trkpt lat="45.97792" lon="6.46419">
        <ele>1358.96</ele>
        <time>2018-09-22T08:12:56Z</time>
      </trkpt>
      <trkpt lat="45.97796" lon="6.4644">
        <ele>1361.55</ele>
        <time>2018-09-22T08:13:05Z</time>
      </trkpt>
      <trkpt lat="45.97797" lon="6.46465">
        <ele>1364.62</ele>
        <time>2018-09-22T08:13:16Z</time>
      </trkpt>
      <trkpt lat="45.97797" lon="6.465">
        <ele>1367.77</ele>
        <time>2018-09-22T08:13:32Z</time>
      </trkpt>
      <trkpt lat="45.97797" lon="6.46524">
        <ele>1370.78</ele>
        <time>2018-09-22T08:13:44Z</time>
      </trkpt>
      <trkpt lat="45.97795" lon="6.46564">
        <ele>1372.86</ele>
        <time>2018-09-22T08:14:02Z</time>
      </trkpt>
      <trkpt lat="45.97793" lon="6.46592">
        <ele>1376.27</ele>
        <time>2018-09-22T08:14:16Z</time>
      </trkpt>
      <trkpt lat="45.97793" lon="6.46594">
        <ele>1376.37</ele>
        <time>2018-09-22T08:14:17Z</time>
      </trkpt>
      <trkpt lat="45.97797" lon="6.4662">
        <ele>1379.63</ele>
        <time>2018-09-22T08:14:30Z</time>
      </trkpt>
      <trkpt lat="45.97799" lon="6.46642">
        <ele>1383.27</ele>
        <time>2018-09-22T08:14:41Z</time>
      </trkpt>
      <trkpt lat="45.97798" lon="6.46661">
        <ele>1383.79</ele>
        <time>2018-09-22T08:14:57Z</time>
      </trkpt>
      <trkpt lat="45.97795" lon="6.46669">
        <ele>1383.44</ele>
        <time>2018-09-22T08:15:31Z</time>
      </trkpt>
      <trkpt lat="45.97786" lon="6.46718">
        <ele>1384.45</ele>
        <time>2018-09-22T08:15:49Z</time>
      </trkpt>
      <trkpt lat="45.97782" lon="6.46737">
        <ele>1384.85</ele>
        <time>2018-09-22T08:16:01Z</time>
      </trkpt>
      <trkpt lat="45.97779" lon="6.46752">
        <ele>1385.13</ele>
        <time>2018-09-22T08:16:16Z</time>
      </trkpt>
      <trkpt lat="45.97775" lon="6.46764">
        <ele>1386.07</ele>
        <time>2018-09-22T08:16:26Z</time>
      </trkpt>
      <trkpt lat="45.97774" lon="6.46765">
        <ele>1386.23</ele>
        <time>2018-09-22T08:16:27Z</time>
      </trkpt>
      <trkpt lat="45.97773" lon="6.46766">
        <ele>1386.26</ele>
        <time>2018-09-22T08:16:28Z</time>
      </trkpt>
      <trkpt lat="45.97772" lon="6.46767">
        <ele>1385.94</ele>
        <time>2018-09-22T08:16:29Z</time>
      </trkpt>
      <trkpt lat="45.97772" lon="6.46768">
        <ele>1385.96</ele>
        <time>2018-09-22T08:16:30Z</time>
      </trkpt>
      <trkpt lat="45.97768" lon="6.46783">
        <ele>1388.82</ele>
        <time>2018-09-22T08:16:43Z</time>
      </trkpt>
      <trkpt lat="45.97758" lon="6.46808">
        <ele>1391.38</ele>
        <time>2018-09-22T08:17:01Z</time>
      </trkpt>
      <trkpt lat="45.9775" lon="6.46832">
        <ele>1394.63</ele>
        <time>2018-09-22T08:17:20Z</time>
      </trkpt>
      <trkpt lat="45.97747" lon="6.46845">
        <ele>1395.41</ele>
        <time>2018-09-22T08:17:37Z</time>
      </trkpt>
      <trkpt lat="45.97748" lon="6.46854">
        <ele>1396.54</ele>
        <time>2018-09-22T08:17:52Z</time>
      </trkpt>
      <trkpt lat="45.9775" lon="6.46868">
        <ele>1399.64</ele>
        <time>2018-09-22T08:18:07Z</time>
      </trkpt>
      <trkpt lat="45.97751" lon="6.46884">
        <ele>1402.9</ele>
        <time>2018-09-22T08:18:21Z</time>
      </trkpt>
      <trkpt lat="45.97752" lon="6.46891">
        <ele>1404.17</ele>
        <time>2018-09-22T08:18:38Z</time>
      </trkpt>
      <trkpt lat="45.97752" lon="6.46904">
        <ele>1406.1</ele>
        <time>2018-09-22T08:18:50Z</time>
      </trkpt>
      <trkpt lat="45.97752" lon="6.46905">
        <ele>1406.59</ele>
        <time>2018-09-22T08:18:51Z</time>
      </trkpt>
      <trkpt lat="45.9775" lon="6.4692">
        <ele>1405.74</ele>
        <time>2018-09-22T08:19:07Z</time>
      </trkpt>
      <trkpt lat="45.97749" lon="6.46922">
        <ele>1406.31</ele>
        <time>2018-09-22T08:19:16Z</time>
      </trkpt>
      <trkpt lat="45.9774" lon="6.46949">
        <ele>1409.81</ele>
        <time>2018-09-22T08:19:30Z</time>
      </trkpt>
      <trkpt lat="45.97738" lon="6.46954">
        <ele>1410.12</ele>
        <time>2018-09-22T08:19:33Z</time>
      </trkpt>
      <trkpt lat="45.97738" lon="6.46956">
        <ele>1410.41</ele>
        <time>2018-09-22T08:19:34Z</time>
      </trkpt>
      <trkpt lat="45.97737" lon="6.46958">
        <ele>1410.56</ele>
        <time>2018-09-22T08:19:35Z</time>
      </trkpt>
      <trkpt lat="45.97737" lon="6.4696">
        <ele>1410.81</ele>
        <time>2018-09-22T08:19:36Z</time>
      </trkpt>
      <trkpt lat="45.97737" lon="6.46962">
        <ele>1410.87</ele>
        <time>2018-09-22T08:19:37Z</time>
      </trkpt>
      <trkpt lat="45.9773" lon="6.46992">
        <ele>1413</ele>
        <time>2018-09-22T08:19:52Z</time>
      </trkpt>
      <trkpt lat="45.97719" lon="6.47022">
        <ele>1415.78</ele>
        <time>2018-09-22T08:20:07Z</time>
      </trkpt>
      <trkpt lat="45.97709" lon="6.47055">
        <ele>1419.17</ele>
        <time>2018-09-22T08:20:23Z</time>
      </trkpt>
      <trkpt lat="45.97709" lon="6.47096">
        <ele>1421.83</ele>
        <time>2018-09-22T08:20:41Z</time>
      </trkpt>
      <trkpt lat="45.97714" lon="6.47129">
        <ele>1424.98</ele>
        <time>2018-09-22T08:20:56Z</time>
      </trkpt>
      <trkpt lat="45.97719" lon="6.47165">
        <ele>1428.23</ele>
        <time>2018-09-22T08:21:12Z</time>
      </trkpt>
      <trkpt lat="45.97721" lon="6.47202">
        <ele>1431.46</ele>
        <time>2018-09-22T08:21:30Z</time>
      </trkpt>
      <trkpt lat="45.97727" lon="6.47226">
        <ele>1434.58</ele>
        <time>2018-09-22T08:21:42Z</time>
      </trkpt>
      <trkpt lat="45.97731" lon="6.47256">
        <ele>1437.48</ele>
        <time>2018-09-22T08:21:59Z</time>
      </trkpt>
      <trkpt lat="45.97725" lon="6.47284">
        <ele>1440.63</ele>
        <time>2018-09-22T08:22:14Z</time>
      </trkpt>
      <trkpt lat="45.97722" lon="6.47299">
        <ele>1442.4</ele>
        <time>2018-09-22T08:22:22Z</time>
      </trkpt>
      <trkpt lat="45.97722" lon="6.47301">
        <ele>1442.86</ele>
        <time>2018-09-22T08:22:23Z</time>
      </trkpt>
      <trkpt lat="45.97722" lon="6.47303">
        <ele>1442.79</ele>
        <time>2018-09-22T08:22:24Z</time>
      </trkpt>
      <trkpt lat="45.97721" lon="6.47305">
        <ele>1443.38</ele>
        <time>2018-09-22T08:22:25Z</time>
      </trkpt>
      <trkpt lat="45.97721" lon="6.47306">
        <ele>1443.79</ele>
        <time>2018-09-22T08:22:26Z</time>
      </trkpt>
      <trkpt lat="45.9772" lon="6.47308">
        <ele>1443.5</ele>
        <time>2018-09-22T08:22:27Z</time>
      </trkpt>
      <trkpt lat="45.97719" lon="6.4731">
        <ele>1443.47</ele>
        <time>2018-09-22T08:22:28Z</time>
      </trkpt>
      <trkpt lat="45.97719" lon="6.47312">
        <ele>1443.79</ele>
        <time>2018-09-22T08:22:29Z</time>
      </trkpt>
      <trkpt lat="45.97718" lon="6.47314">
        <ele>1444.22</ele>
        <time>2018-09-22T08:22:30Z</time>
      </trkpt>
      <trkpt lat="45.97711" lon="6.47343">
        <ele>1447.16</ele>
        <time>2018-09-22T08:22:45Z</time>
      </trkpt>
      <trkpt lat="45.97706" lon="6.47361">
        <ele>1450.17</ele>
        <time>2018-09-22T08:22:54Z</time>
      </trkpt>
      <trkpt lat="45.97704" lon="6.47399">
        <ele>1452.29</ele>
        <time>2018-09-22T08:23:12Z</time>
      </trkpt>
      <trkpt lat="45.97703" lon="6.47406">
        <ele>1452.48</ele>
        <time>2018-09-22T08:23:16Z</time>
      </trkpt>
      <trkpt lat="45.97703" lon="6.47407">
        <ele>1452.71</ele>
        <time>2018-09-22T08:23:17Z</time>
      </trkpt>
      <trkpt lat="45.97703" lon="6.47408">
        <ele>1452.61</ele>
        <time>2018-09-22T08:23:30Z</time>
      </trkpt>
      <trkpt lat="45.97703" lon="6.47407">
        <ele>1453.08</ele>
        <time>2018-09-22T08:24:11Z</time>
      </trkpt>
      <trkpt lat="45.97704" lon="6.47405">
        <ele>1453.02</ele>
        <time>2018-09-22T08:25:04Z</time>
      </trkpt>
      <trkpt lat="45.97707" lon="6.47426">
        <ele>1455.06</ele>
        <time>2018-09-22T08:25:17Z</time>
      </trkpt>
      <trkpt lat="45.9771" lon="6.47466">
        <ele>1457.63</ele>
        <time>2018-09-22T08:25:33Z</time>
      </trkpt>
      <trkpt lat="45.97701" lon="6.47492">
        <ele>1460.79</ele>
        <time>2018-09-22T08:25:45Z</time>
      </trkpt>
      <trkpt lat="45.97703" lon="6.47533">
        <ele>1463.9</ele>
        <time>2018-09-22T08:26:03Z</time>
      </trkpt>
      <trkpt lat="45.97712" lon="6.47553">
        <ele>1467.21</ele>
        <time>2018-09-22T08:26:13Z</time>
      </trkpt>
      <trkpt lat="45.9772" lon="6.47589">
        <ele>1470.36</ele>
        <time>2018-09-22T08:26:29Z</time>
      </trkpt>
      <trkpt lat="45.97725" lon="6.47618">
        <ele>1470.67</ele>
        <time>2018-09-22T08:26:42Z</time>
      </trkpt>
      <trkpt lat="45.97719" lon="6.47667">
        <ele>1471.76</ele>
        <time>2018-09-22T08:27:00Z</time>
      </trkpt>
      <trkpt lat="45.97716" lon="6.47717">
        <ele>1474.57</ele>
        <time>2018-09-22T08:27:19Z</time>
      </trkpt>
      <trkpt lat="45.97715" lon="6.4776">
        <ele>1477.64</ele>
        <time>2018-09-22T08:27:36Z</time>
      </trkpt>
      <trkpt lat="45.97711" lon="6.47809">
        <ele>1479.5</ele>
        <time>2018-09-22T08:27:56Z</time>
      </trkpt>
      <trkpt lat="45.97705" lon="6.47852">
        <ele>1482.24</ele>
        <time>2018-09-22T08:28:14Z</time>
      </trkpt>
      <trkpt lat="45.97698" lon="6.47886">
        <ele>1485.25</ele>
        <time>2018-09-22T08:28:29Z</time>
      </trkpt>
      <trkpt lat="45.97699" lon="6.47927">
        <ele>1486.57</ele>
        <time>2018-09-22T08:28:47Z</time>
      </trkpt>
      <trkpt lat="45.97699" lon="6.47967">
        <ele>1488.42</ele>
        <time>2018-09-22T08:29:06Z</time>
      </trkpt>
      <trkpt lat="45.97699" lon="6.47969">
        <ele>1488.62</ele>
        <time>2018-09-22T08:29:07Z</time>
      </trkpt>
      <trkpt lat="45.97697" lon="6.48009">
        <ele>1491.02</ele>
        <time>2018-09-22T08:29:24Z</time>
      </trkpt>
      <trkpt lat="45.97692" lon="6.48065">
        <ele>1491.84</ele>
        <time>2018-09-22T08:29:45Z</time>
      </trkpt>
      <trkpt lat="45.97692" lon="6.4812">
        <ele>1494.14</ele>
        <time>2018-09-22T08:30:04Z</time>
      </trkpt>
      <trkpt lat="45.97686" lon="6.48181">
        <ele>1496.78</ele>
        <time>2018-09-22T08:30:26Z</time>
      </trkpt>
      <trkpt lat="45.97669" lon="6.48232">
        <ele>1499.39</ele>
        <time>2018-09-22T08:30:46Z</time>
      </trkpt>
      <trkpt lat="45.97655" lon="6.48293">
        <ele>1502.86</ele>
        <time>2018-09-22T08:31:09Z</time>
      </trkpt>
      <trkpt lat="45.9764" lon="6.48352">
        <ele>1504.05</ele>
        <time>2018-09-22T08:31:31Z</time>
      </trkpt>
      <trkpt lat="45.97626" lon="6.48409">
        <ele>1506.85</ele>
        <time>2018-09-22T08:31:51Z</time>
      </trkpt>
      <trkpt lat="45.97616" lon="6.48468">
        <ele>1508.02</ele>
        <time>2018-09-22T08:32:11Z</time>
      </trkpt>
      <trkpt lat="45.97609" lon="6.48517">
        <ele>1510.99</ele>
        <time>2018-09-22T08:32:28Z</time>
      </trkpt>
      <trkpt lat="45.976" lon="6.48573">
        <ele>1512.94</ele>
        <time>2018-09-22T08:32:48Z</time>
      </trkpt>
      <trkpt lat="45.97599" lon="6.48635">
        <ele>1515.88</ele>
        <time>2018-09-22T08:33:09Z</time>
      </trkpt>
      <trkpt lat="45.97602" lon="6.48675">
        <ele>1518.95</ele>
        <time>2018-09-22T08:33:24Z</time>
      </trkpt>
      <trkpt lat="45.97605" lon="6.48712">
        <ele>1521.98</ele>
        <time>2018-09-22T08:33:39Z</time>
      </trkpt>
      <trkpt lat="45.97604" lon="6.48741">
        <ele>1525.03</ele>
        <time>2018-09-22T08:33:51Z</time>
      </trkpt>
      <trkpt lat="45.97601" lon="6.48768">
        <ele>1528.05</ele>
        <time>2018-09-22T08:34:02Z</time>
      </trkpt>
      <trkpt lat="45.97597" lon="6.4881">
        <ele>1531.36</ele>
        <time>2018-09-22T08:34:20Z</time>
      </trkpt>
      <trkpt lat="45.97591" lon="6.4884">
        <ele>1534.65</ele>
        <time>2018-09-22T08:34:33Z</time>
      </trkpt>
      <trkpt lat="45.97582" lon="6.48866">
        <ele>1537.82</ele>
        <time>2018-09-22T08:34:45Z</time>
      </trkpt>
      <trkpt lat="45.97573" lon="6.4889">
        <ele>1541.23</ele>
        <time>2018-09-22T08:34:57Z</time>
      </trkpt>
      <trkpt lat="45.97564" lon="6.48917">
        <ele>1544.42</ele>
        <time>2018-09-22T08:35:11Z</time>
      </trkpt>
      <trkpt lat="45.97553" lon="6.48937">
        <ele>1547.45</ele>
        <time>2018-09-22T08:35:23Z</time>
      </trkpt>
      <trkpt lat="45.9754" lon="6.48945">
        <ele>1550.54</ele>
        <time>2018-09-22T08:35:33Z</time>
      </trkpt>
      <trkpt lat="45.97527" lon="6.48958">
        <ele>1553.57</ele>
        <time>2018-09-22T08:35:44Z</time>
      </trkpt>
      <trkpt lat="45.97514" lon="6.4897">
        <ele>1556.62</ele>
        <time>2018-09-22T08:35:55Z</time>
      </trkpt>
      <trkpt lat="45.97499" lon="6.48988">
        <ele>1559.78</ele>
        <time>2018-09-22T08:36:08Z</time>
      </trkpt>
      <trkpt lat="45.97483" lon="6.48999">
        <ele>1563.1</ele>
        <time>2018-09-22T08:36:21Z</time>
      </trkpt>
      <trkpt lat="45.97471" lon="6.49017">
        <ele>1566.41</ele>
        <time>2018-09-22T08:36:33Z</time>
      </trkpt>
      <trkpt lat="45.9746" lon="6.49052">
        <ele>1569.66</ele>
        <time>2018-09-22T08:36:51Z</time>
      </trkpt>
      <trkpt lat="45.97449" lon="6.49095">
        <ele>1571.28</ele>
        <time>2018-09-22T08:37:13Z</time>
      </trkpt>
      <trkpt lat="45.97437" lon="6.49128">
        <ele>1572.39</ele>
        <time>2018-09-22T08:37:31Z</time>
      </trkpt>
      <trkpt lat="45.97427" lon="6.49158">
        <ele>1575.95</ele>
        <time>2018-09-22T08:37:47Z</time>
      </trkpt>
      <trkpt lat="45.97411" lon="6.492">
        <ele>1578.21</ele>
        <time>2018-09-22T08:38:09Z</time>
      </trkpt>
      <trkpt lat="45.97401" lon="6.49223">
        <ele>1581.71</ele>
        <time>2018-09-22T08:38:21Z</time>
      </trkpt>
      <trkpt lat="45.97392" lon="6.49238">
        <ele>1581.7</ele>
        <time>2018-09-22T08:38:31Z</time>
      </trkpt>
      <trkpt lat="45.97391" lon="6.4924">
        <ele>1582.07</ele>
        <time>2018-09-22T08:38:32Z</time>
      </trkpt>
      <trkpt lat="45.97391" lon="6.49241">
        <ele>1581.98</ele>
        <time>2018-09-22T08:38:33Z</time>
      </trkpt>
      <trkpt lat="45.9739" lon="6.49242">
        <ele>1582.26</ele>
        <time>2018-09-22T08:38:34Z</time>
      </trkpt>
      <trkpt lat="45.97389" lon="6.49243">
        <ele>1582.6</ele>
        <time>2018-09-22T08:38:35Z</time>
      </trkpt>
      <trkpt lat="45.97389" lon="6.49244">
        <ele>1582.14</ele>
        <time>2018-09-22T08:38:36Z</time>
      </trkpt>
      <trkpt lat="45.9738" lon="6.4927">
        <ele>1583.8</ele>
        <time>2018-09-22T08:38:52Z</time>
      </trkpt>
      <trkpt lat="45.97374" lon="6.49307">
        <ele>1584.02</ele>
        <time>2018-09-22T08:39:10Z</time>
      </trkpt>
      <trkpt lat="45.97374" lon="6.49326">
        <ele>1584.07</ele>
        <time>2018-09-22T08:39:26Z</time>
      </trkpt>
      <trkpt lat="45.97374" lon="6.49325">
        <ele>1583.82</ele>
        <time>2018-09-22T08:40:12Z</time>
      </trkpt>
      <trkpt lat="45.97373" lon="6.49341">
        <ele>1583.73</ele>
        <time>2018-09-22T08:40:45Z</time>
      </trkpt>
      <trkpt lat="45.97357" lon="6.49387">
        <ele>1584.25</ele>
        <time>2018-09-22T08:41:02Z</time>
      </trkpt>
      <trkpt lat="45.97337" lon="6.49426">
        <ele>1586.81</ele>
        <time>2018-09-22T08:41:17Z</time>
      </trkpt>
      <trkpt lat="45.97322" lon="6.49469">
        <ele>1588.57</ele>
        <time>2018-09-22T08:41:34Z</time>
      </trkpt>
      <trkpt lat="45.9732" lon="6.49472">
        <ele>1588.32</ele>
        <time>2018-09-22T08:41:46Z</time>
      </trkpt>
      <trkpt lat="45.97318" lon="6.49473">
        <ele>1588.6</ele>
        <time>2018-09-22T08:41:59Z</time>
      </trkpt>
      <trkpt lat="45.97316" lon="6.49475">
        <ele>1588.66</ele>
        <time>2018-09-22T08:42:00Z</time>
      </trkpt>
      <trkpt lat="45.97314" lon="6.49476">
        <ele>1588.6</ele>
        <time>2018-09-22T08:42:01Z</time>
      </trkpt>
      <trkpt lat="45.97287" lon="6.4948">
        <ele>1589.41</ele>
        <time>2018-09-22T08:42:14Z</time>
      </trkpt>
      <trkpt lat="45.97272" lon="6.49454">
        <ele>1591.88</ele>
        <time>2018-09-22T08:42:28Z</time>
      </trkpt>
      <trkpt lat="45.97262" lon="6.49428">
        <ele>1595.02</ele>
        <time>2018-09-22T08:42:41Z</time>
      </trkpt>
      <trkpt lat="45.97255" lon="6.49397">
        <ele>1598.05</ele>
        <time>2018-09-22T08:42:56Z</time>
      </trkpt>
      <trkpt lat="45.97249" lon="6.49374">
        <ele>1599.08</ele>
        <time>2018-09-22T08:43:08Z</time>
      </trkpt>
      <trkpt lat="45.97248" lon="6.49372">
        <ele>1599.17</ele>
        <time>2018-09-22T08:43:09Z</time>
      </trkpt>
      <trkpt lat="45.97239" lon="6.49333">
        <ele>1601.17</ele>
        <time>2018-09-22T08:43:28Z</time>
      </trkpt>
      <trkpt lat="45.97234" lon="6.49289">
        <ele>1602.73</ele>
        <time>2018-09-22T08:43:47Z</time>
      </trkpt>
      <trkpt lat="45.97227" lon="6.49251">
        <ele>1605.06</ele>
        <time>2018-09-22T08:44:06Z</time>
      </trkpt>
      <trkpt lat="45.97217" lon="6.49235">
        <ele>1608.55</ele>
        <time>2018-09-22T08:44:16Z</time>
      </trkpt>
      <trkpt lat="45.97206" lon="6.49215">
        <ele>1611.7</ele>
        <time>2018-09-22T08:44:27Z</time>
      </trkpt>
      <trkpt lat="45.97197" lon="6.49197">
        <ele>1614.8</ele>
        <time>2018-09-22T08:44:37Z</time>
      </trkpt>
      <trkpt lat="45.97185" lon="6.49168">
        <ele>1618</ele>
        <time>2018-09-22T08:44:53Z</time>
      </trkpt>
      <trkpt lat="45.97177" lon="6.49139">
        <ele>1621.59</ele>
        <time>2018-09-22T08:45:08Z</time>
      </trkpt>
      <trkpt lat="45.97164" lon="6.4911">
        <ele>1623.21</ele>
        <time>2018-09-22T08:45:26Z</time>
      </trkpt>
      <trkpt lat="45.97148" lon="6.49085">
        <ele>1622.84</ele>
        <time>2018-09-22T08:45:42Z</time>
      </trkpt>
      <trkpt lat="45.97127" lon="6.49051">
        <ele>1622.78</ele>
        <time>2018-09-22T08:46:02Z</time>
      </trkpt>
      <trkpt lat="45.97109" lon="6.49015">
        <ele>1624.84</ele>
        <time>2018-09-22T08:46:21Z</time>
      </trkpt>
      <trkpt lat="45.971" lon="6.49002">
        <ele>1627.41</ele>
        <time>2018-09-22T08:46:29Z</time>
      </trkpt>
      <trkpt lat="45.9708" lon="6.48985">
        <ele>1630.59</ele>
        <time>2018-09-22T08:46:44Z</time>
      </trkpt>
      <trkpt lat="45.97069" lon="6.48979">
        <ele>1631.9</ele>
        <time>2018-09-22T08:46:52Z</time>
      </trkpt>
      <trkpt lat="45.97058" lon="6.4897">
        <ele>1633.22</ele>
        <time>2018-09-22T08:47:00Z</time>
      </trkpt>
      <trkpt lat="45.97056" lon="6.48969">
        <ele>1633.02</ele>
        <time>2018-09-22T08:47:01Z</time>
      </trkpt>
      <trkpt lat="45.97055" lon="6.48968">
        <ele>1633.37</ele>
        <time>2018-09-22T08:47:02Z</time>
      </trkpt>
      <trkpt lat="45.97053" lon="6.48967">
        <ele>1633.51</ele>
        <time>2018-09-22T08:47:03Z</time>
      </trkpt>
      <trkpt lat="45.97052" lon="6.48966">
        <ele>1633.59</ele>
        <time>2018-09-22T08:47:04Z</time>
      </trkpt>
      <trkpt lat="45.97036" lon="6.48948">
        <ele>1636.69</ele>
        <time>2018-09-22T08:47:17Z</time>
      </trkpt>
      <trkpt lat="45.97034" lon="6.48945">
        <ele>1636.68</ele>
        <time>2018-09-22T08:47:19Z</time>
      </trkpt>
      <trkpt lat="45.97033" lon="6.48943">
        <ele>1636.42</ele>
        <time>2018-09-22T08:47:20Z</time>
      </trkpt>
      <trkpt lat="45.97031" lon="6.48938">
        <ele>1637.01</ele>
        <time>2018-09-22T08:47:23Z</time>
      </trkpt>
      <trkpt lat="45.97029" lon="6.48936">
        <ele>1637.16</ele>
        <time>2018-09-22T08:47:24Z</time>
      </trkpt>
      <trkpt lat="45.97028" lon="6.48935">
        <ele>1637.26</ele>
        <time>2018-09-22T08:47:25Z</time>
      </trkpt>
      <trkpt lat="45.97027" lon="6.48934">
        <ele>1637.33</ele>
        <time>2018-09-22T08:47:26Z</time>
      </trkpt>
      <trkpt lat="45.97025" lon="6.48933">
        <ele>1636.61</ele>
        <time>2018-09-22T08:47:35Z</time>
      </trkpt>
      <trkpt lat="45.97026" lon="6.48934">
        <ele>1636.24</ele>
        <time>2018-09-22T08:48:29Z</time>
      </trkpt>
      <trkpt lat="45.97022" lon="6.48935">
        <ele>1637.04</ele>
        <time>2018-09-22T08:49:03Z</time>
      </trkpt>
      <trkpt lat="45.9702" lon="6.48935">
        <ele>1637.34</ele>
        <time>2018-09-22T08:49:04Z</time>
      </trkpt>
      <trkpt lat="45.97019" lon="6.48935">
        <ele>1637.5</ele>
        <time>2018-09-22T08:49:05Z</time>
      </trkpt>
      <trkpt lat="45.96995" lon="6.48958">
        <ele>1640.09</ele>
        <time>2018-09-22T08:49:23Z</time>
      </trkpt>
      <trkpt lat="45.96991" lon="6.4898">
        <ele>1643.03</ele>
        <time>2018-09-22T08:49:33Z</time>
      </trkpt>
      <trkpt lat="45.96992" lon="6.48982">
        <ele>1643.83</ele>
        <time>2018-09-22T08:49:34Z</time>
      </trkpt>
      <trkpt lat="45.96992" lon="6.48985">
        <ele>1643.85</ele>
        <time>2018-09-22T08:49:35Z</time>
      </trkpt>
      <trkpt lat="45.96993" lon="6.48987">
        <ele>1644.13</ele>
        <time>2018-09-22T08:49:36Z</time>
      </trkpt>
      <trkpt lat="45.96992" lon="6.48989">
        <ele>1644.58</ele>
        <time>2018-09-22T08:49:37Z</time>
      </trkpt>
      <trkpt lat="45.9699" lon="6.49016">
        <ele>1647.82</ele>
        <time>2018-09-22T08:49:49Z</time>
      </trkpt>
      <trkpt lat="45.96993" lon="6.49059">
        <ele>1650.24</ele>
        <time>2018-09-22T08:50:10Z</time>
      </trkpt>
      <trkpt lat="45.97001" lon="6.491">
        <ele>1653.09</ele>
        <time>2018-09-22T08:50:31Z</time>
      </trkpt>
      <trkpt lat="45.97" lon="6.49128">
        <ele>1656.3</ele>
        <time>2018-09-22T08:50:45Z</time>
      </trkpt>
      <trkpt lat="45.96992" lon="6.49147">
        <ele>1658.72</ele>
        <time>2018-09-22T08:51:00Z</time>
      </trkpt>
      <trkpt lat="45.96979" lon="6.49159">
        <ele>1660.1</ele>
        <time>2018-09-22T08:51:15Z</time>
      </trkpt>
      <trkpt lat="45.96958" lon="6.49139">
        <ele>1663.16</ele>
        <time>2018-09-22T08:51:34Z</time>
      </trkpt>
      <trkpt lat="45.96945" lon="6.49109">
        <ele>1665.98</ele>
        <time>2018-09-22T08:51:51Z</time>
      </trkpt>
      <trkpt lat="45.96919" lon="6.49092">
        <ele>1668.23</ele>
        <time>2018-09-22T08:52:11Z</time>
      </trkpt>
      <trkpt lat="45.96898" lon="6.4911">
        <ele>1669.89</ele>
        <time>2018-09-22T08:52:30Z</time>
      </trkpt>
      <trkpt lat="45.96893" lon="6.4915">
        <ele>1670.32</ele>
        <time>2018-09-22T08:52:49Z</time>
      </trkpt>
      <trkpt lat="45.96893" lon="6.49179">
        <ele>1672.67</ele>
        <time>2018-09-22T08:53:02Z</time>
      </trkpt>
      <trkpt lat="45.96892" lon="6.49186">
        <ele>1673.72</ele>
        <time>2018-09-22T08:53:06Z</time>
      </trkpt>
      <trkpt lat="45.96893" lon="6.49192">
        <ele>1674.7</ele>
        <time>2018-09-22T08:53:18Z</time>
      </trkpt>
      <trkpt lat="45.96888" lon="6.49197">
        <ele>1675.09</ele>
        <time>2018-09-22T08:53:39Z</time>
      </trkpt>
      <trkpt lat="45.96886" lon="6.49212">
        <ele>1677.06</ele>
        <time>2018-09-22T08:53:56Z</time>
      </trkpt>
      <trkpt lat="45.96883" lon="6.49224">
        <ele>1678.01</ele>
        <time>2018-09-22T08:54:10Z</time>
      </trkpt>
      <trkpt lat="45.9688" lon="6.49248">
        <ele>1681.21</ele>
        <time>2018-09-22T08:54:22Z</time>
      </trkpt>
      <trkpt lat="45.96879" lon="6.4925">
        <ele>1681.48</ele>
        <time>2018-09-22T08:54:23Z</time>
      </trkpt>
      <trkpt lat="45.96878" lon="6.49261">
        <ele>1682.75</ele>
        <time>2018-09-22T08:54:28Z</time>
      </trkpt>
      <trkpt lat="45.96864" lon="6.49294">
        <ele>1684.88</ele>
        <time>2018-09-22T08:54:44Z</time>
      </trkpt>
      <trkpt lat="45.96862" lon="6.49297">
        <ele>1684.45</ele>
        <time>2018-09-22T08:54:46Z</time>
      </trkpt>
      <trkpt lat="45.96853" lon="6.49296">
        <ele>1685.37</ele>
        <time>2018-09-22T08:54:52Z</time>
      </trkpt>
      <trkpt lat="45.96826" lon="6.49273">
        <ele>1686.66</ele>
        <time>2018-09-22T08:55:11Z</time>
      </trkpt>
      <trkpt lat="45.96804" lon="6.49246">
        <ele>1688.13</ele>
        <time>2018-09-22T08:55:29Z</time>
      </trkpt>
      <trkpt lat="45.96779" lon="6.49213">
        <ele>1689.1</ele>
        <time>2018-09-22T08:55:50Z</time>
      </trkpt>
      <trkpt lat="45.96767" lon="6.49178">
        <ele>1689.75</ele>
        <time>2018-09-22T08:56:07Z</time>
      </trkpt>
      <trkpt lat="45.96763" lon="6.49135">
        <ele>1691.07</ele>
        <time>2018-09-22T08:56:26Z</time>
      </trkpt>
      <trkpt lat="45.96767" lon="6.49092">
        <ele>1692.27</ele>
        <time>2018-09-22T08:56:45Z</time>
      </trkpt>
      <trkpt lat="45.96766" lon="6.49063">
        <ele>1693.38</ele>
        <time>2018-09-22T08:56:58Z</time>
      </trkpt>
      <trkpt lat="45.96765" lon="6.4905">
        <ele>1693.34</ele>
        <time>2018-09-22T08:57:04Z</time>
      </trkpt>
      <trkpt lat="45.96763" lon="6.49">
        <ele>1693.7</ele>
        <time>2018-09-22T08:57:26Z</time>
      </trkpt>
      <trkpt lat="45.96744" lon="6.48971">
        <ele>1695.12</ele>
        <time>2018-09-22T08:57:44Z</time>
      </trkpt>
      <trkpt lat="45.9673" lon="6.4899">
        <ele>1697.64</ele>
        <time>2018-09-22T08:57:58Z</time>
      </trkpt>
      <trkpt lat="45.96721" lon="6.49008">
        <ele>1700.87</ele>
        <time>2018-09-22T08:58:08Z</time>
      </trkpt>
      <trkpt lat="45.96709" lon="6.49038">
        <ele>1704</ele>
        <time>2018-09-22T08:58:24Z</time>
      </trkpt>
      <trkpt lat="45.96705" lon="6.49052">
        <ele>1706</ele>
        <time>2018-09-22T08:58:31Z</time>
      </trkpt>
      <trkpt lat="45.96696" lon="6.49081">
        <ele>1709.12</ele>
        <time>2018-09-22T08:58:46Z</time>
      </trkpt>
      <trkpt lat="45.9669" lon="6.49103">
        <ele>1711.49</ele>
        <time>2018-09-22T08:58:57Z</time>
      </trkpt>
      <trkpt lat="45.96676" lon="6.49113">
        <ele>1714.34</ele>
        <time>2018-09-22T08:59:09Z</time>
      </trkpt>
      <trkpt lat="45.96671" lon="6.49111">
        <ele>1715.18</ele>
        <time>2018-09-22T08:59:13Z</time>
      </trkpt>
      <trkpt lat="45.9665" lon="6.49112">
        <ele>1718.94</ele>
        <time>2018-09-22T08:59:30Z</time>
      </trkpt>
      <trkpt lat="45.96649" lon="6.49112">
        <ele>1718.8</ele>
        <time>2018-09-22T08:59:31Z</time>
      </trkpt>
      <trkpt lat="45.96644" lon="6.49115">
        <ele>1719.43</ele>
        <time>2018-09-22T08:59:35Z</time>
      </trkpt>
      <trkpt lat="45.96632" lon="6.49143">
        <ele>1723.25</ele>
        <time>2018-09-22T08:59:52Z</time>
      </trkpt>
      <trkpt lat="45.96624" lon="6.4918">
        <ele>1726.42</ele>
        <time>2018-09-22T09:00:12Z</time>
      </trkpt>
      <trkpt lat="45.96622" lon="6.49214">
        <ele>1728.61</ele>
        <time>2018-09-22T09:00:30Z</time>
      </trkpt>
      <trkpt lat="45.96621" lon="6.49252">
        <ele>1729.47</ele>
        <time>2018-09-22T09:00:50Z</time>
      </trkpt>
      <trkpt lat="45.96619" lon="6.49295">
        <ele>1730.28</ele>
        <time>2018-09-22T09:01:11Z</time>
      </trkpt>
      <trkpt lat="45.96619" lon="6.49325">
        <ele>1731.58</ele>
        <time>2018-09-22T09:01:26Z</time>
      </trkpt>
      <trkpt lat="45.96619" lon="6.49337">
        <ele>1731.18</ele>
        <time>2018-09-22T09:01:32Z</time>
      </trkpt>
      <trkpt lat="45.96618" lon="6.49361">
        <ele>1731.58</ele>
        <time>2018-09-22T09:01:44Z</time>
      </trkpt>
      <trkpt lat="45.9662" lon="6.49368">
        <ele>1731.17</ele>
        <time>2018-09-22T09:01:47Z</time>
      </trkpt>
      <trkpt lat="45.9662" lon="6.49371">
        <ele>1731.28</ele>
        <time>2018-09-22T09:01:48Z</time>
      </trkpt>
      <trkpt lat="45.9662" lon="6.49374">
        <ele>1731</ele>
        <time>2018-09-22T09:01:49Z</time>
      </trkpt>
      <trkpt lat="45.9662" lon="6.49376">
        <ele>1730.57</ele>
        <time>2018-09-22T09:01:50Z</time>
      </trkpt>
      <trkpt lat="45.96619" lon="6.49378">
        <ele>1731.21</ele>
        <time>2018-09-22T09:02:03Z</time>
      </trkpt>
      <trkpt lat="45.9662" lon="6.49379">
        <ele>1731.18</ele>
        <time>2018-09-22T09:02:33Z</time>
      </trkpt>
      <trkpt lat="45.96621" lon="6.49381">
        <ele>1730.9</ele>
        <time>2018-09-22T09:02:34Z</time>
      </trkpt>
      <trkpt lat="45.96636" lon="6.49426">
        <ele>1729</ele>
        <time>2018-09-22T09:02:43Z</time>
      </trkpt>
      <trkpt lat="45.96637" lon="6.49432">
        <ele>1728.65</ele>
        <time>2018-09-22T09:02:44Z</time>
      </trkpt>
      <trkpt lat="45.96638" lon="6.49439">
        <ele>1728.62</ele>
        <time>2018-09-22T09:02:45Z</time>
      </trkpt>
      <trkpt lat="45.96643" lon="6.49484">
        <ele>1730.1</ele>
        <time>2018-09-22T09:02:57Z</time>
      </trkpt>
      <trkpt lat="45.96652" lon="6.49517">
        <ele>1733.54</ele>
        <time>2018-09-22T09:03:12Z</time>
      </trkpt>
      <trkpt lat="45.96666" lon="6.49544">
        <ele>1735.59</ele>
        <time>2018-09-22T09:03:28Z</time>
      </trkpt>
      <trkpt lat="45.96678" lon="6.49565">
        <ele>1738.61</ele>
        <time>2018-09-22T09:03:41Z</time>
      </trkpt>
      <trkpt lat="45.96688" lon="6.49589">
        <ele>1741.68</ele>
        <time>2018-09-22T09:03:54Z</time>
      </trkpt>
      <trkpt lat="45.96701" lon="6.49621">
        <ele>1744.34</ele>
        <time>2018-09-22T09:04:12Z</time>
      </trkpt>
      <trkpt lat="45.96703" lon="6.49626">
        <ele>1745.21</ele>
        <time>2018-09-22T09:04:15Z</time>
      </trkpt>
      <trkpt lat="45.96704" lon="6.49628">
        <ele>1745.44</ele>
        <time>2018-09-22T09:04:16Z</time>
      </trkpt>
      <trkpt lat="45.96705" lon="6.4963">
        <ele>1745.58</ele>
        <time>2018-09-22T09:04:17Z</time>
      </trkpt>
      <trkpt lat="45.96706" lon="6.49632">
        <ele>1745.7</ele>
        <time>2018-09-22T09:04:18Z</time>
      </trkpt>
      <trkpt lat="45.96706" lon="6.49633">
        <ele>1745.82</ele>
        <time>2018-09-22T09:04:19Z</time>
      </trkpt>
      <trkpt lat="45.96707" lon="6.49635">
        <ele>1745.95</ele>
        <time>2018-09-22T09:04:20Z</time>
      </trkpt>
      <trkpt lat="45.96722" lon="6.49666">
        <ele>1749.08</ele>
        <time>2018-09-22T09:04:38Z</time>
      </trkpt>
      <trkpt lat="45.96735" lon="6.49694">
        <ele>1752.65</ele>
        <time>2018-09-22T09:04:55Z</time>
      </trkpt>
      <trkpt lat="45.96744" lon="6.49729">
        <ele>1755.94</ele>
        <time>2018-09-22T09:05:13Z</time>
      </trkpt>
      <trkpt lat="45.96744" lon="6.49732">
        <ele>1755.94</ele>
        <time>2018-09-22T09:05:15Z</time>
      </trkpt>
      <trkpt lat="45.96741" lon="6.49734">
        <ele>1756.03</ele>
        <time>2018-09-22T09:05:19Z</time>
      </trkpt>
      <trkpt lat="45.96714" lon="6.49713">
        <ele>1757.25</ele>
        <time>2018-09-22T09:05:40Z</time>
      </trkpt>
      <trkpt lat="45.96687" lon="6.49707">
        <ele>1757.51</ele>
        <time>2018-09-22T09:05:58Z</time>
      </trkpt>
      <trkpt lat="45.96672" lon="6.49701">
        <ele>1757.97</ele>
        <time>2018-09-22T09:06:07Z</time>
      </trkpt>
      <trkpt lat="45.96667" lon="6.49703">
        <ele>1757.47</ele>
        <time>2018-09-22T09:06:18Z</time>
      </trkpt>
      <trkpt lat="45.96664" lon="6.49695">
        <ele>1757.41</ele>
        <time>2018-09-22T09:06:37Z</time>
      </trkpt>
      <trkpt lat="45.96664" lon="6.49695">
        <ele>1757.46</ele>
        <time>2018-09-22T09:07:50Z</time>
      </trkpt>
      <trkpt lat="45.96664" lon="6.49695">
        <ele>1758.32</ele>
        <time>2018-09-22T09:08:55Z</time>
      </trkpt>
      <trkpt lat="45.96664" lon="6.49695">
        <ele>1758.13</ele>
        <time>2018-09-22T09:09:58Z</time>
      </trkpt>
      <trkpt lat="45.96663" lon="6.49695">
        <ele>1757.5</ele>
        <time>2018-09-22T09:10:57Z</time>
      </trkpt>
      <trkpt lat="45.96663" lon="6.49695">
        <ele>1757.94</ele>
        <time>2018-09-22T09:11:59Z</time>
      </trkpt>
      <trkpt lat="45.96664" lon="6.49695">
        <ele>1757.72</ele>
        <time>2018-09-22T09:12:13Z</time>
      </trkpt>
      <trkpt lat="45.96667" lon="6.49695">
        <ele>1757.6</ele>
        <time>2018-09-22T09:12:18Z</time>
      </trkpt>
      <trkpt lat="45.96673" lon="6.49697">
        <ele>1757.18</ele>
        <time>2018-09-22T09:12:22Z</time>
      </trkpt>
      <trkpt lat="45.96705" lon="6.49709">
        <ele>1757.77</ele>
        <time>2018-09-22T09:12:38Z</time>
      </trkpt>
      <trkpt lat="45.96743" lon="6.49732">
        <ele>1756.89</ele>
        <time>2018-09-22T09:12:52Z</time>
      </trkpt>
      <trkpt lat="45.96775" lon="6.49756">
        <ele>1755.73</ele>
        <time>2018-09-22T09:13:04Z</time>
      </trkpt>
      <trkpt lat="45.96795" lon="6.49803">
        <ele>1757.58</ele>
        <time>2018-09-22T09:13:19Z</time>
      </trkpt>
      <trkpt lat="45.96801" lon="6.49857">
        <ele>1760.73</ele>
        <time>2018-09-22T09:13:36Z</time>
      </trkpt>
      <trkpt lat="45.96803" lon="6.49904">
        <ele>1763.88</ele>
        <time>2018-09-22T09:13:51Z</time>
      </trkpt>
      <trkpt lat="45.96805" lon="6.49953">
        <ele>1766.26</ele>
        <time>2018-09-22T09:14:09Z</time>
      </trkpt>
      <trkpt lat="45.96806" lon="6.49967">
        <ele>1766.34</ele>
        <time>2018-09-22T09:14:15Z</time>
      </trkpt>
      <trkpt lat="45.96808" lon="6.49997">
        <ele>1766.95</ele>
        <time>2018-09-22T09:14:27Z</time>
      </trkpt>
      <trkpt lat="45.96807" lon="6.49999">
        <ele>1767.08</ele>
        <time>2018-09-22T09:14:28Z</time>
      </trkpt>
      <trkpt lat="45.96806" lon="6.5">
        <ele>1767.08</ele>
        <time>2018-09-22T09:14:29Z</time>
      </trkpt>
      <trkpt lat="45.96806" lon="6.50002">
        <ele>1767.47</ele>
        <time>2018-09-22T09:14:30Z</time>
      </trkpt>
      <trkpt lat="45.96806" lon="6.50004">
        <ele>1767.47</ele>
        <time>2018-09-22T09:14:31Z</time>
      </trkpt>
      <trkpt lat="45.96807" lon="6.50006">
        <ele>1767.01</ele>
        <time>2018-09-22T09:14:32Z</time>
      </trkpt>
      <trkpt lat="45.96809" lon="6.50033">
        <ele>1766.71</ele>
        <time>2018-09-22T09:14:46Z</time>
      </trkpt>
      <trkpt lat="45.9681" lon="6.50035">
        <ele>1766.78</ele>
        <time>2018-09-22T09:14:47Z</time>
      </trkpt>
      <trkpt lat="45.96811" lon="6.50037">
        <ele>1766.7</ele>
        <time>2018-09-22T09:14:48Z</time>
      </trkpt>
      <trkpt lat="45.96812" lon="6.50039">
        <ele>1766.77</ele>
        <time>2018-09-22T09:14:49Z</time>
      </trkpt>
      <trkpt lat="45.96813" lon="6.50041">
        <ele>1766.95</ele>
        <time>2018-09-22T09:14:50Z</time>
      </trkpt>
      <trkpt lat="45.96813" lon="6.50043">
        <ele>1766.88</ele>
        <time>2018-09-22T09:14:51Z</time>
      </trkpt>
      <trkpt lat="45.96813" lon="6.50045">
        <ele>1767</ele>
        <time>2018-09-22T09:14:52Z</time>
      </trkpt>
      <trkpt lat="45.96813" lon="6.50048">
        <ele>1766.85</ele>
        <time>2018-09-22T09:14:53Z</time>
      </trkpt>
      <trkpt lat="45.9682" lon="6.50069">
        <ele>1768.29</ele>
        <time>2018-09-22T09:15:06Z</time>
      </trkpt>
      <trkpt lat="45.9682" lon="6.5007">
        <ele>1768.66</ele>
        <time>2018-09-22T09:15:07Z</time>
      </trkpt>
      <trkpt lat="45.9684" lon="6.5011">
        <ele>1767.55</ele>
        <time>2018-09-22T09:15:25Z</time>
      </trkpt>
      <trkpt lat="45.96861" lon="6.50146">
        <ele>1767.47</ele>
        <time>2018-09-22T09:15:41Z</time>
      </trkpt>
      <trkpt lat="45.96894" lon="6.50171">
        <ele>1765.02</ele>
        <time>2018-09-22T09:15:53Z</time>
      </trkpt>
      <trkpt lat="45.969" lon="6.50178">
        <ele>1764.05</ele>
        <time>2018-09-22T09:15:55Z</time>
      </trkpt>
      <trkpt lat="45.96928" lon="6.50211">
        <ele>1760.45</ele>
        <time>2018-09-22T09:16:02Z</time>
      </trkpt>
      <trkpt lat="45.96933" lon="6.50215">
        <ele>1760.24</ele>
        <time>2018-09-22T09:16:03Z</time>
      </trkpt>
      <trkpt lat="45.96942" lon="6.50222">
        <ele>1759.35</ele>
        <time>2018-09-22T09:16:05Z</time>
      </trkpt>
      <trkpt lat="45.96962" lon="6.50242">
        <ele>1756.97</ele>
        <time>2018-09-22T09:16:09Z</time>
      </trkpt>
      <trkpt lat="45.96982" lon="6.50267">
        <ele>1755.1</ele>
        <time>2018-09-22T09:16:13Z</time>
      </trkpt>
      <trkpt lat="45.96999" lon="6.50291">
        <ele>1753.19</ele>
        <time>2018-09-22T09:16:16Z</time>
      </trkpt>
      <trkpt lat="45.97003" lon="6.50301">
        <ele>1752.73</ele>
        <time>2018-09-22T09:16:17Z</time>
      </trkpt>
      <trkpt lat="45.97012" lon="6.5032">
        <ele>1751.43</ele>
        <time>2018-09-22T09:16:19Z</time>
      </trkpt>
      <trkpt lat="45.97048" lon="6.504">
        <ele>1749.56</ele>
        <time>2018-09-22T09:16:30Z</time>
      </trkpt>
      <trkpt lat="45.97075" lon="6.5046">
        <ele>1747.55</ele>
        <time>2018-09-22T09:16:40Z</time>
      </trkpt>
      <trkpt lat="45.97077" lon="6.50467">
        <ele>1748.1</ele>
        <time>2018-09-22T09:16:41Z</time>
      </trkpt>
      <trkpt lat="45.97078" lon="6.50474">
        <ele>1748.73</ele>
        <time>2018-09-22T09:16:42Z</time>
      </trkpt>
      <trkpt lat="45.97079" lon="6.50479">
        <ele>1748.81</ele>
        <time>2018-09-22T09:16:43Z</time>
      </trkpt>
      <trkpt lat="45.97087" lon="6.50539">
        <ele>1751.82</ele>
        <time>2018-09-22T09:16:57Z</time>
      </trkpt>
      <trkpt lat="45.97101" lon="6.50597">
        <ele>1754.34</ele>
        <time>2018-09-22T09:17:16Z</time>
      </trkpt>
      <trkpt lat="45.97109" lon="6.50638">
        <ele>1757.73</ele>
        <time>2018-09-22T09:17:31Z</time>
      </trkpt>
      <trkpt lat="45.9711" lon="6.5064">
        <ele>1757.72</ele>
        <time>2018-09-22T09:17:32Z</time>
      </trkpt>
      <trkpt lat="45.97119" lon="6.50676">
        <ele>1760.74</ele>
        <time>2018-09-22T09:17:47Z</time>
      </trkpt>
      <trkpt lat="45.97133" lon="6.50717">
        <ele>1763.79</ele>
        <time>2018-09-22T09:18:06Z</time>
      </trkpt>
      <trkpt lat="45.97152" lon="6.50759">
        <ele>1766.23</ele>
        <time>2018-09-22T09:18:28Z</time>
      </trkpt>
      <trkpt lat="45.97163" lon="6.50786">
        <ele>1769.42</ele>
        <time>2018-09-22T09:18:43Z</time>
      </trkpt>
      <trkpt lat="45.97179" lon="6.50805">
        <ele>1770.47</ele>
        <time>2018-09-22T09:19:03Z</time>
      </trkpt>
      <trkpt lat="45.9718" lon="6.50804">
        <ele>1770.28</ele>
        <time>2018-09-22T09:19:23Z</time>
      </trkpt>
      <trkpt lat="45.9718" lon="6.50803">
        <ele>1770.55</ele>
        <time>2018-09-22T09:20:24Z</time>
      </trkpt>
      <trkpt lat="45.9718" lon="6.50802">
        <ele>1770.72</ele>
        <time>2018-09-22T09:21:24Z</time>
      </trkpt>
      <trkpt lat="45.97179" lon="6.50803">
        <ele>1770.77</ele>
        <time>2018-09-22T09:21:43Z</time>
      </trkpt>
      <trkpt lat="45.97178" lon="6.50804">
        <ele>1770.67</ele>
        <time>2018-09-22T09:22:24Z</time>
      </trkpt>
      <trkpt lat="45.97178" lon="6.50803">
        <ele>1770.59</ele>
        <time>2018-09-22T09:23:14Z</time>
      </trkpt>
      <trkpt lat="45.97177" lon="6.50802">
        <ele>1771.05</ele>
        <time>2018-09-22T09:23:55Z</time>
      </trkpt>
      <trkpt lat="45.97178" lon="6.50802">
        <ele>1770.44</ele>
        <time>2018-09-22T09:24:40Z</time>
      </trkpt>
      <trkpt lat="45.97179" lon="6.50804">
        <ele>1770.38</ele>
        <time>2018-09-22T09:25:23Z</time>
      </trkpt>
      <trkpt lat="45.97178" lon="6.50803">
        <ele>1770.15</ele>
        <time>2018-09-22T09:25:55Z</time>
      </trkpt>
      <trkpt lat="45.97191" lon="6.50818">
        <ele>1769.75</ele>
        <time>2018-09-22T09:26:21Z</time>
      </trkpt>
      <trkpt lat="45.97199" lon="6.50829">
        <ele>1768.59</ele>
        <time>2018-09-22T09:26:25Z</time>
      </trkpt>
      <trkpt lat="45.972" lon="6.50831">
        <ele>1768.67</ele>
        <time>2018-09-22T09:26:26Z</time>
      </trkpt>
      <trkpt lat="45.97195" lon="6.50856">
        <ele>1765.42</ele>
        <time>2018-09-22T09:26:35Z</time>
      </trkpt>
      <trkpt lat="45.97194" lon="6.50865">
        <ele>1763.72</ele>
        <time>2018-09-22T09:26:37Z</time>
      </trkpt>
      <trkpt lat="45.97195" lon="6.5087">
        <ele>1762.9</ele>
        <time>2018-09-22T09:26:38Z</time>
      </trkpt>
      <trkpt lat="45.97197" lon="6.50875">
        <ele>1761.89</ele>
        <time>2018-09-22T09:26:39Z</time>
      </trkpt>
      <trkpt lat="45.97199" lon="6.50878">
        <ele>1762.01</ele>
        <time>2018-09-22T09:26:40Z</time>
      </trkpt>
      <trkpt lat="45.97202" lon="6.50882">
        <ele>1760.81</ele>
        <time>2018-09-22T09:26:41Z</time>
      </trkpt>
      <trkpt lat="45.97206" lon="6.50887">
        <ele>1760.16</ele>
        <time>2018-09-22T09:26:42Z</time>
      </trkpt>
      <trkpt lat="45.9721" lon="6.50892">
        <ele>1759.81</ele>
        <time>2018-09-22T09:26:43Z</time>
      </trkpt>
      <trkpt lat="45.97214" lon="6.50898">
        <ele>1758.72</ele>
        <time>2018-09-22T09:26:44Z</time>
      </trkpt>
      <trkpt lat="45.97219" lon="6.50903">
        <ele>1758.74</ele>
        <time>2018-09-22T09:26:45Z</time>
      </trkpt>
      <trkpt lat="45.97223" lon="6.50909">
        <ele>1757.37</ele>
        <time>2018-09-22T09:26:46Z</time>
      </trkpt>
      <trkpt lat="45.97226" lon="6.50915">
        <ele>1757.37</ele>
        <time>2018-09-22T09:26:47Z</time>
      </trkpt>
      <trkpt lat="45.97228" lon="6.50922">
        <ele>1756.92</ele>
        <time>2018-09-22T09:26:48Z</time>
      </trkpt>
      <trkpt lat="45.9723" lon="6.5093">
        <ele>1756.37</ele>
        <time>2018-09-22T09:26:49Z</time>
      </trkpt>
      <trkpt lat="45.97231" lon="6.50938">
        <ele>1755.68</ele>
        <time>2018-09-22T09:26:50Z</time>
      </trkpt>
      <trkpt lat="45.97231" lon="6.50945">
        <ele>1755.37</ele>
        <time>2018-09-22T09:26:51Z</time>
      </trkpt>
      <trkpt lat="45.97232" lon="6.50958">
        <ele>1754.06</ele>
        <time>2018-09-22T09:26:53Z</time>
      </trkpt>
      <trkpt lat="45.97236" lon="6.50988">
        <ele>1750.31</ele>
        <time>2018-09-22T09:26:58Z</time>
      </trkpt>
      <trkpt lat="45.97242" lon="6.51025">
        <ele>1748.22</ele>
        <time>2018-09-22T09:27:03Z</time>
      </trkpt>
      <trkpt lat="45.97256" lon="6.51071">
        <ele>1747.36</ele>
        <time>2018-09-22T09:27:09Z</time>
      </trkpt>
      <trkpt lat="45.9727" lon="6.51097">
        <ele>1746.77</ele>
        <time>2018-09-22T09:27:15Z</time>
      </trkpt>
      <trkpt lat="45.97274" lon="6.51102">
        <ele>1745.18</ele>
        <time>2018-09-22T09:27:16Z</time>
      </trkpt>
      <trkpt lat="45.97277" lon="6.51108">
        <ele>1745.25</ele>
        <time>2018-09-22T09:27:17Z</time>
      </trkpt>
      <trkpt lat="45.97279" lon="6.51114">
        <ele>1745.31</ele>
        <time>2018-09-22T09:27:18Z</time>
      </trkpt>
      <trkpt lat="45.9728" lon="6.5112">
        <ele>1745.08</ele>
        <time>2018-09-22T09:27:19Z</time>
      </trkpt>
      <trkpt lat="45.97282" lon="6.51125">
        <ele>1745.38</ele>
        <time>2018-09-22T09:27:20Z</time>
      </trkpt>
      <trkpt lat="45.97285" lon="6.51131">
        <ele>1744.91</ele>
        <time>2018-09-22T09:27:21Z</time>
      </trkpt>
      <trkpt lat="45.97288" lon="6.51136">
        <ele>1745.03</ele>
        <time>2018-09-22T09:27:22Z</time>
      </trkpt>
      <trkpt lat="45.97307" lon="6.51171">
        <ele>1743.82</ele>
        <time>2018-09-22T09:27:31Z</time>
      </trkpt>
      <trkpt lat="45.97309" lon="6.51172">
        <ele>1743.43</ele>
        <time>2018-09-22T09:27:38Z</time>
      </trkpt>
      <trkpt lat="45.97309" lon="6.51172">
        <ele>1743.58</ele>
        <time>2018-09-22T09:27:49Z</time>
      </trkpt>
      <trkpt lat="45.97309" lon="6.51174">
        <ele>1743.37</ele>
        <time>2018-09-22T09:28:03Z</time>
      </trkpt>
      <trkpt lat="45.97308" lon="6.51176">
        <ele>1744.09</ele>
        <time>2018-09-22T09:28:29Z</time>
      </trkpt>
      <trkpt lat="45.97309" lon="6.51186">
        <ele>1744.41</ele>
        <time>2018-09-22T09:28:36Z</time>
      </trkpt>
      <trkpt lat="45.97307" lon="6.51208">
        <ele>1741.31</ele>
        <time>2018-09-22T09:28:43Z</time>
      </trkpt>
      <trkpt lat="45.97308" lon="6.51221">
        <ele>1741.41</ele>
        <time>2018-09-22T09:28:49Z</time>
      </trkpt>
      <trkpt lat="45.97308" lon="6.51225">
        <ele>1740.78</ele>
        <time>2018-09-22T09:28:51Z</time>
      </trkpt>
      <trkpt lat="45.97308" lon="6.51227">
        <ele>1740.43</ele>
        <time>2018-09-22T09:28:52Z</time>
      </trkpt>
      <trkpt lat="45.97308" lon="6.51229">
        <ele>1740.56</ele>
        <time>2018-09-22T09:28:53Z</time>
      </trkpt>
      <trkpt lat="45.97309" lon="6.51231">
        <ele>1740.58</ele>
        <time>2018-09-22T09:28:54Z</time>
      </trkpt>
      <trkpt lat="45.9731" lon="6.51232">
        <ele>1740.94</ele>
        <time>2018-09-22T09:28:55Z</time>
      </trkpt>
      <trkpt lat="45.9731" lon="6.51234">
        <ele>1741.31</ele>
        <time>2018-09-22T09:28:56Z</time>
      </trkpt>
      <trkpt lat="45.9731" lon="6.51236">
        <ele>1741.42</ele>
        <time>2018-09-22T09:28:57Z</time>
      </trkpt>
      <trkpt lat="45.9731" lon="6.51238">
        <ele>1741.89</ele>
        <time>2018-09-22T09:28:58Z</time>
      </trkpt>
      <trkpt lat="45.97303" lon="6.51274">
        <ele>1741.42</ele>
        <time>2018-09-22T09:29:12Z</time>
      </trkpt>
      <trkpt lat="45.97295" lon="6.51312">
        <ele>1743.26</ele>
        <time>2018-09-22T09:29:26Z</time>
      </trkpt>
      <trkpt lat="45.9729" lon="6.51322">
        <ele>1744.85</ele>
        <time>2018-09-22T09:29:32Z</time>
      </trkpt>
      <trkpt lat="45.97278" lon="6.5133">
        <ele>1748.08</ele>
        <time>2018-09-22T09:29:41Z</time>
      </trkpt>
      <trkpt lat="45.97277" lon="6.51331">
        <ele>1748.76</ele>
        <time>2018-09-22T09:29:42Z</time>
      </trkpt>
      <trkpt lat="45.97275" lon="6.51331">
        <ele>1748.87</ele>
        <time>2018-09-22T09:29:43Z</time>
      </trkpt>
      <trkpt lat="45.97274" lon="6.51332">
        <ele>1749.29</ele>
        <time>2018-09-22T09:29:44Z</time>
      </trkpt>
      <trkpt lat="45.97273" lon="6.51333">
        <ele>1749.96</ele>
        <time>2018-09-22T09:29:45Z</time>
      </trkpt>
      <trkpt lat="45.97272" lon="6.51334">
        <ele>1750.02</ele>
        <time>2018-09-22T09:29:46Z</time>
      </trkpt>
      <trkpt lat="45.97271" lon="6.51335">
        <ele>1750.53</ele>
        <time>2018-09-22T09:29:47Z</time>
      </trkpt>
      <trkpt lat="45.97269" lon="6.51343">
        <ele>1751.64</ele>
        <time>2018-09-22T09:29:51Z</time>
      </trkpt>
      <trkpt lat="45.97269" lon="6.51345">
        <ele>1751.61</ele>
        <time>2018-09-22T09:29:52Z</time>
      </trkpt>
      <trkpt lat="45.97268" lon="6.51347">
        <ele>1751.38</ele>
        <time>2018-09-22T09:29:53Z</time>
      </trkpt>
      <trkpt lat="45.97268" lon="6.51349">
        <ele>1751.82</ele>
        <time>2018-09-22T09:29:54Z</time>
      </trkpt>
      <trkpt lat="45.97268" lon="6.51351">
        <ele>1751.67</ele>
        <time>2018-09-22T09:29:55Z</time>
      </trkpt>
      <trkpt lat="45.97268" lon="6.51353">
        <ele>1751.66</ele>
        <time>2018-09-22T09:29:56Z</time>
      </trkpt>
      <trkpt lat="45.97268" lon="6.51354">
        <ele>1751.72</ele>
        <time>2018-09-22T09:29:57Z</time>
      </trkpt>
      <trkpt lat="45.97268" lon="6.51356">
        <ele>1751.85</ele>
        <time>2018-09-22T09:29:58Z</time>
      </trkpt>
      <trkpt lat="45.97266" lon="6.51377">
        <ele>1754.85</ele>
        <time>2018-09-22T09:30:08Z</time>
      </trkpt>
      <trkpt lat="45.97266" lon="6.51382">
        <ele>1755.49</ele>
        <time>2018-09-22T09:30:10Z</time>
      </trkpt>
      <trkpt lat="45.97264" lon="6.514">
        <ele>1758.49</ele>
        <time>2018-09-22T09:30:19Z</time>
      </trkpt>
      <trkpt lat="45.9726" lon="6.51423">
        <ele>1760.69</ele>
        <time>2018-09-22T09:30:33Z</time>
      </trkpt>
      <trkpt lat="45.97259" lon="6.51432">
        <ele>1761.25</ele>
        <time>2018-09-22T09:30:48Z</time>
      </trkpt>
      <trkpt lat="45.97259" lon="6.51432">
        <ele>1761.22</ele>
        <time>2018-09-22T09:31:37Z</time>
      </trkpt>
      <trkpt lat="45.97258" lon="6.5144">
        <ele>1761.12</ele>
        <time>2018-09-22T09:31:59Z</time>
      </trkpt>
      <trkpt lat="45.9724" lon="6.51465">
        <ele>1760.69</ele>
        <time>2018-09-22T09:32:10Z</time>
      </trkpt>
      <trkpt lat="45.97227" lon="6.51472">
        <ele>1759.78</ele>
        <time>2018-09-22T09:32:13Z</time>
      </trkpt>
      <trkpt lat="45.97221" lon="6.51475">
        <ele>1758.81</ele>
        <time>2018-09-22T09:32:14Z</time>
      </trkpt>
      <trkpt lat="45.97215" lon="6.51478">
        <ele>1758.36</ele>
        <time>2018-09-22T09:32:15Z</time>
      </trkpt>
      <trkpt lat="45.9721" lon="6.51483">
        <ele>1758.1</ele>
        <time>2018-09-22T09:32:16Z</time>
      </trkpt>
      <trkpt lat="45.97205" lon="6.51488">
        <ele>1757.64</ele>
        <time>2018-09-22T09:32:17Z</time>
      </trkpt>
      <trkpt lat="45.972" lon="6.51493">
        <ele>1757.72</ele>
        <time>2018-09-22T09:32:18Z</time>
      </trkpt>
      <trkpt lat="45.97135" lon="6.51533">
        <ele>1754.59</ele>
        <time>2018-09-22T09:32:29Z</time>
      </trkpt>
      <trkpt lat="45.97118" lon="6.51544">
        <ele>1752.49</ele>
        <time>2018-09-22T09:32:32Z</time>
      </trkpt>
      <trkpt lat="45.97091" lon="6.51572">
        <ele>1749.68</ele>
        <time>2018-09-22T09:32:37Z</time>
      </trkpt>
      <trkpt lat="45.97074" lon="6.51597">
        <ele>1747.12</ele>
        <time>2018-09-22T09:32:41Z</time>
      </trkpt>
      <trkpt lat="45.97071" lon="6.51604">
        <ele>1746.72</ele>
        <time>2018-09-22T09:32:42Z</time>
      </trkpt>
      <trkpt lat="45.97069" lon="6.51611">
        <ele>1746.44</ele>
        <time>2018-09-22T09:32:43Z</time>
      </trkpt>
      <trkpt lat="45.97062" lon="6.51633">
        <ele>1744.63</ele>
        <time>2018-09-22T09:32:46Z</time>
      </trkpt>
      <trkpt lat="45.97061" lon="6.51641">
        <ele>1744.02</ele>
        <time>2018-09-22T09:32:47Z</time>
      </trkpt>
      <trkpt lat="45.9706" lon="6.51649">
        <ele>1743.23</ele>
        <time>2018-09-22T09:32:48Z</time>
      </trkpt>
      <trkpt lat="45.9706" lon="6.51657">
        <ele>1742.31</ele>
        <time>2018-09-22T09:32:49Z</time>
      </trkpt>
      <trkpt lat="45.97061" lon="6.51666">
        <ele>1742.12</ele>
        <time>2018-09-22T09:32:50Z</time>
      </trkpt>
      <trkpt lat="45.97062" lon="6.51674">
        <ele>1741.29</ele>
        <time>2018-09-22T09:32:51Z</time>
      </trkpt>
      <trkpt lat="45.97064" lon="6.51681">
        <ele>1740.2</ele>
        <time>2018-09-22T09:32:52Z</time>
      </trkpt>
      <trkpt lat="45.97067" lon="6.51689">
        <ele>1739.55</ele>
        <time>2018-09-22T09:32:53Z</time>
      </trkpt>
      <trkpt lat="45.97071" lon="6.51695">
        <ele>1738.86</ele>
        <time>2018-09-22T09:32:54Z</time>
      </trkpt>
      <trkpt lat="45.97075" lon="6.51701">
        <ele>1738.5</ele>
        <time>2018-09-22T09:32:55Z</time>
      </trkpt>
      <trkpt lat="45.97079" lon="6.51706">
        <ele>1737.59</ele>
        <time>2018-09-22T09:32:56Z</time>
      </trkpt>
      <trkpt lat="45.97084" lon="6.51711">
        <ele>1736.94</ele>
        <time>2018-09-22T09:32:57Z</time>
      </trkpt>
      <trkpt lat="45.97089" lon="6.51714">
        <ele>1736.01</ele>
        <time>2018-09-22T09:32:58Z</time>
      </trkpt>
      <trkpt lat="45.97094" lon="6.51716">
        <ele>1735.88</ele>
        <time>2018-09-22T09:32:59Z</time>
      </trkpt>
      <trkpt lat="45.971" lon="6.51719">
        <ele>1734.84</ele>
        <time>2018-09-22T09:33:00Z</time>
      </trkpt>
      <trkpt lat="45.9711" lon="6.51723">
        <ele>1733.22</ele>
        <time>2018-09-22T09:33:02Z</time>
      </trkpt>
      <trkpt lat="45.97114" lon="6.51725">
        <ele>1733.27</ele>
        <time>2018-09-22T09:33:03Z</time>
      </trkpt>
      <trkpt lat="45.97129" lon="6.51734">
        <ele>1731.01</ele>
        <time>2018-09-22T09:33:08Z</time>
      </trkpt>
      <trkpt lat="45.9713" lon="6.51735">
        <ele>1730.95</ele>
        <time>2018-09-22T09:33:09Z</time>
      </trkpt>
      <trkpt lat="45.97131" lon="6.51737">
        <ele>1731.2</ele>
        <time>2018-09-22T09:33:10Z</time>
      </trkpt>
      <trkpt lat="45.97132" lon="6.51739">
        <ele>1731.28</ele>
        <time>2018-09-22T09:33:11Z</time>
      </trkpt>
      <trkpt lat="45.97132" lon="6.51741">
        <ele>1731.26</ele>
        <time>2018-09-22T09:33:12Z</time>
      </trkpt>
      <trkpt lat="45.97131" lon="6.51742">
        <ele>1731.66</ele>
        <time>2018-09-22T09:33:13Z</time>
      </trkpt>
      <trkpt lat="45.9713" lon="6.51742">
        <ele>1731.53</ele>
        <time>2018-09-22T09:33:14Z</time>
      </trkpt>
      <trkpt lat="45.97128" lon="6.51743">
        <ele>1731.53</ele>
        <time>2018-09-22T09:33:15Z</time>
      </trkpt>
      <trkpt lat="45.97127" lon="6.51744">
        <ele>1731.3</ele>
        <time>2018-09-22T09:33:16Z</time>
      </trkpt>
      <trkpt lat="45.97126" lon="6.51745">
        <ele>1731.71</ele>
        <time>2018-09-22T09:33:17Z</time>
      </trkpt>
      <trkpt lat="45.97122" lon="6.5175">
        <ele>1732.06</ele>
        <time>2018-09-22T09:33:30Z</time>
      </trkpt>
      <trkpt lat="45.9712" lon="6.51758">
        <ele>1731.46</ele>
        <time>2018-09-22T09:34:05Z</time>
      </trkpt>
      <trkpt lat="45.9712" lon="6.51778">
        <ele>1731.05</ele>
        <time>2018-09-22T09:34:15Z</time>
      </trkpt>
      <trkpt lat="45.97122" lon="6.51789">
        <ele>1730.31</ele>
        <time>2018-09-22T09:34:27Z</time>
      </trkpt>
      <trkpt lat="45.97139" lon="6.51824">
        <ele>1729.07</ele>
        <time>2018-09-22T09:34:38Z</time>
      </trkpt>
      <trkpt lat="45.97139" lon="6.51829">
        <ele>1729.36</ele>
        <time>2018-09-22T09:34:39Z</time>
      </trkpt>
      <trkpt lat="45.97138" lon="6.51832">
        <ele>1730.03</ele>
        <time>2018-09-22T09:34:40Z</time>
      </trkpt>
      <trkpt lat="45.97132" lon="6.51852">
        <ele>1729.69</ele>
        <time>2018-09-22T09:34:52Z</time>
      </trkpt>
      <trkpt lat="45.97131" lon="6.51855">
        <ele>1729.37</ele>
        <time>2018-09-22T09:35:06Z</time>
      </trkpt>
      <trkpt lat="45.97131" lon="6.5186">
        <ele>1729.32</ele>
        <time>2018-09-22T09:35:25Z</time>
      </trkpt>
      <trkpt lat="45.97131" lon="6.51863">
        <ele>1729.36</ele>
        <time>2018-09-22T09:35:42Z</time>
      </trkpt>
      <trkpt lat="45.97132" lon="6.51865">
        <ele>1729.57</ele>
        <time>2018-09-22T09:36:05Z</time>
      </trkpt>
      <trkpt lat="45.97133" lon="6.51867">
        <ele>1728.89</ele>
        <time>2018-09-22T09:36:06Z</time>
      </trkpt>
      <trkpt lat="45.97134" lon="6.5187">
        <ele>1729</ele>
        <time>2018-09-22T09:36:07Z</time>
      </trkpt>
      <trkpt lat="45.97142" lon="6.51905">
        <ele>1727.48</ele>
        <time>2018-09-22T09:36:15Z</time>
      </trkpt>
      <trkpt lat="45.97141" lon="6.51911">
        <ele>1727.61</ele>
        <time>2018-09-22T09:36:16Z</time>
      </trkpt>
      <trkpt lat="45.9714" lon="6.51916">
        <ele>1727.58</ele>
        <time>2018-09-22T09:36:17Z</time>
      </trkpt>
      <trkpt lat="45.97138" lon="6.51919">
        <ele>1728.92</ele>
        <time>2018-09-22T09:36:18Z</time>
      </trkpt>
      <trkpt lat="45.97136" lon="6.51921">
        <ele>1728.71</ele>
        <time>2018-09-22T09:36:19Z</time>
      </trkpt>
      <trkpt lat="45.97134" lon="6.51924">
        <ele>1728.96</ele>
        <time>2018-09-22T09:36:20Z</time>
      </trkpt>
      <trkpt lat="45.97126" lon="6.51956">
        <ele>1726.85</ele>
        <time>2018-09-22T09:36:28Z</time>
      </trkpt>
      <trkpt lat="45.97127" lon="6.51962">
        <ele>1727.07</ele>
        <time>2018-09-22T09:36:29Z</time>
      </trkpt>
      <trkpt lat="45.97127" lon="6.51969">
        <ele>1726.54</ele>
        <time>2018-09-22T09:36:30Z</time>
      </trkpt>
      <trkpt lat="45.97125" lon="6.51977">
        <ele>1725.99</ele>
        <time>2018-09-22T09:36:31Z</time>
      </trkpt>
      <trkpt lat="45.97124" lon="6.51983">
        <ele>1725.47</ele>
        <time>2018-09-22T09:36:32Z</time>
      </trkpt>
      <trkpt lat="45.97123" lon="6.51989">
        <ele>1724.87</ele>
        <time>2018-09-22T09:36:33Z</time>
      </trkpt>
      <trkpt lat="45.97123" lon="6.51994">
        <ele>1724.76</ele>
        <time>2018-09-22T09:36:34Z</time>
      </trkpt>
      <trkpt lat="45.97124" lon="6.51999">
        <ele>1724.76</ele>
        <time>2018-09-22T09:36:35Z</time>
      </trkpt>
      <trkpt lat="45.97125" lon="6.52002">
        <ele>1724.52</ele>
        <time>2018-09-22T09:36:36Z</time>
      </trkpt>
      <trkpt lat="45.97133" lon="6.52049">
        <ele>1722.97</ele>
        <time>2018-09-22T09:36:47Z</time>
      </trkpt>
      <trkpt lat="45.97123" lon="6.52095">
        <ele>1722.84</ele>
        <time>2018-09-22T09:36:57Z</time>
      </trkpt>
      <trkpt lat="45.97107" lon="6.52155">
        <ele>1722.66</ele>
        <time>2018-09-22T09:37:11Z</time>
      </trkpt>
      <trkpt lat="45.97094" lon="6.52204">
        <ele>1724.3</ele>
        <time>2018-09-22T09:37:24Z</time>
      </trkpt>
      <trkpt lat="45.97089" lon="6.52224">
        <ele>1724.98</ele>
        <time>2018-09-22T09:37:32Z</time>
      </trkpt>
      <trkpt lat="45.97088" lon="6.52226">
        <ele>1724.87</ele>
        <time>2018-09-22T09:37:33Z</time>
      </trkpt>
      <trkpt lat="45.97087" lon="6.52227">
        <ele>1724.69</ele>
        <time>2018-09-22T09:37:34Z</time>
      </trkpt>
      <trkpt lat="45.97087" lon="6.52229">
        <ele>1725.04</ele>
        <time>2018-09-22T09:37:35Z</time>
      </trkpt>
      <trkpt lat="45.97087" lon="6.52231">
        <ele>1724.82</ele>
        <time>2018-09-22T09:37:36Z</time>
      </trkpt>
      <trkpt lat="45.97086" lon="6.52234">
        <ele>1725.07</ele>
        <time>2018-09-22T09:37:37Z</time>
      </trkpt>
      <trkpt lat="45.97086" lon="6.52236">
        <ele>1724.96</ele>
        <time>2018-09-22T09:37:38Z</time>
      </trkpt>
      <trkpt lat="45.97085" lon="6.52239">
        <ele>1724.89</ele>
        <time>2018-09-22T09:37:39Z</time>
      </trkpt>
      <trkpt lat="45.97085" lon="6.52243">
        <ele>1725.3</ele>
        <time>2018-09-22T09:37:40Z</time>
      </trkpt>
      <trkpt lat="45.97077" lon="6.5228">
        <ele>1725.19</ele>
        <time>2018-09-22T09:37:55Z</time>
      </trkpt>
      <trkpt lat="45.97072" lon="6.52316">
        <ele>1726.06</ele>
        <time>2018-09-22T09:38:06Z</time>
      </trkpt>
      <trkpt lat="45.97073" lon="6.5232">
        <ele>1726.25</ele>
        <time>2018-09-22T09:38:22Z</time>
      </trkpt>
      <trkpt lat="45.97073" lon="6.52322">
        <ele>1725.84</ele>
        <time>2018-09-22T09:38:23Z</time>
      </trkpt>
      <trkpt lat="45.97074" lon="6.52333">
        <ele>1725.56</ele>
        <time>2018-09-22T09:38:34Z</time>
      </trkpt>
      <trkpt lat="45.97074" lon="6.52336">
        <ele>1725.16</ele>
        <time>2018-09-22T09:38:53Z</time>
      </trkpt>
      <trkpt lat="45.9707" lon="6.52341">
        <ele>1725.08</ele>
        <time>2018-09-22T09:38:59Z</time>
      </trkpt>
      <trkpt lat="45.97068" lon="6.52344">
        <ele>1725.09</ele>
        <time>2018-09-22T09:39:00Z</time>
      </trkpt>
      <trkpt lat="45.97066" lon="6.52346">
        <ele>1725.04</ele>
        <time>2018-09-22T09:39:01Z</time>
      </trkpt>
      <trkpt lat="45.97046" lon="6.52377">
        <ele>1724.34</ele>
        <time>2018-09-22T09:39:15Z</time>
      </trkpt>
      <trkpt lat="45.97026" lon="6.52405">
        <ele>1725.41</ele>
        <time>2018-09-22T09:39:29Z</time>
      </trkpt>
      <trkpt lat="45.97013" lon="6.52418">
        <ele>1725.24</ele>
        <time>2018-09-22T09:39:38Z</time>
      </trkpt>
      <trkpt lat="45.97012" lon="6.5242">
        <ele>1725.18</ele>
        <time>2018-09-22T09:39:39Z</time>
      </trkpt>
      <trkpt lat="45.97011" lon="6.52421">
        <ele>1725.14</ele>
        <time>2018-09-22T09:39:40Z</time>
      </trkpt>
      <trkpt lat="45.9701" lon="6.52422">
        <ele>1725.56</ele>
        <time>2018-09-22T09:39:41Z</time>
      </trkpt>
      <trkpt lat="45.97009" lon="6.52423">
        <ele>1725.49</ele>
        <time>2018-09-22T09:39:42Z</time>
      </trkpt>
      <trkpt lat="45.97008" lon="6.52424">
        <ele>1725.61</ele>
        <time>2018-09-22T09:39:43Z</time>
      </trkpt>
      <trkpt lat="45.97007" lon="6.52426">
        <ele>1725.41</ele>
        <time>2018-09-22T09:39:44Z</time>
      </trkpt>
      <trkpt lat="45.97006" lon="6.52428">
        <ele>1725.74</ele>
        <time>2018-09-22T09:39:45Z</time>
      </trkpt>
      <trkpt lat="45.97005" lon="6.5243">
        <ele>1725.52</ele>
        <time>2018-09-22T09:39:46Z</time>
      </trkpt>
      <trkpt lat="45.97003" lon="6.52432">
        <ele>1725.3</ele>
        <time>2018-09-22T09:39:47Z</time>
      </trkpt>
      <trkpt lat="45.97001" lon="6.52433">
        <ele>1725.99</ele>
        <time>2018-09-22T09:39:48Z</time>
      </trkpt>
      <trkpt lat="45.96999" lon="6.52433">
        <ele>1725.84</ele>
        <time>2018-09-22T09:39:49Z</time>
      </trkpt>
      <trkpt lat="45.96997" lon="6.52433">
        <ele>1726.08</ele>
        <time>2018-09-22T09:39:50Z</time>
      </trkpt>
      <trkpt lat="45.96996" lon="6.52432">
        <ele>1725.99</ele>
        <time>2018-09-22T09:39:51Z</time>
      </trkpt>
      <trkpt lat="45.96995" lon="6.52431">
        <ele>1725.72</ele>
        <time>2018-09-22T09:39:52Z</time>
      </trkpt>
      <trkpt lat="45.96994" lon="6.5243">
        <ele>1725.59</ele>
        <time>2018-09-22T09:39:53Z</time>
      </trkpt>
      <trkpt lat="45.96994" lon="6.52428">
        <ele>1725.42</ele>
        <time>2018-09-22T09:40:08Z</time>
      </trkpt>
      <trkpt lat="45.96993" lon="6.5243">
        <ele>1725.42</ele>
        <time>2018-09-22T09:40:17Z</time>
      </trkpt>
      <trkpt lat="45.96995" lon="6.52441">
        <ele>1725.72</ele>
        <time>2018-09-22T09:40:28Z</time>
      </trkpt>
      <trkpt lat="45.96996" lon="6.52434">
        <ele>1725.74</ele>
        <time>2018-09-22T09:40:57Z</time>
      </trkpt>
      <trkpt lat="45.96996" lon="6.52433">
        <ele>1725.67</ele>
        <time>2018-09-22T09:41:16Z</time>
      </trkpt>
      <trkpt lat="45.96994" lon="6.5243">
        <ele>1726.32</ele>
        <time>2018-09-22T09:41:39Z</time>
      </trkpt>
      <trkpt lat="45.96994" lon="6.52425">
        <ele>1726.1</ele>
        <time>2018-09-22T09:41:43Z</time>
      </trkpt>
      <trkpt lat="45.97" lon="6.52414">
        <ele>1725.18</ele>
        <time>2018-09-22T09:41:49Z</time>
      </trkpt>
      <trkpt lat="45.97002" lon="6.52405">
        <ele>1724.86</ele>
        <time>2018-09-22T09:41:53Z</time>
      </trkpt>
      <trkpt lat="45.97001" lon="6.52406">
        <ele>1725.13</ele>
        <time>2018-09-22T09:42:06Z</time>
      </trkpt>
      <trkpt lat="45.97" lon="6.52407">
        <ele>1725.69</ele>
        <time>2018-09-22T09:42:07Z</time>
      </trkpt>
      <trkpt lat="45.97" lon="6.52411">
        <ele>1725.63</ele>
        <time>2018-09-22T09:42:09Z</time>
      </trkpt>
      <trkpt lat="45.96999" lon="6.52414">
        <ele>1725.95</ele>
        <time>2018-09-22T09:42:10Z</time>
      </trkpt>
      <trkpt lat="45.96997" lon="6.52416">
        <ele>1725.95</ele>
        <time>2018-09-22T09:42:11Z</time>
      </trkpt>
      <trkpt lat="45.96995" lon="6.52417">
        <ele>1725.72</ele>
        <time>2018-09-22T09:42:12Z</time>
      </trkpt>
      <trkpt lat="45.96992" lon="6.52418">
        <ele>1725.45</ele>
        <time>2018-09-22T09:42:13Z</time>
      </trkpt>
      <trkpt lat="45.96989" lon="6.52419">
        <ele>1724.91</ele>
        <time>2018-09-22T09:42:14Z</time>
      </trkpt>
      <trkpt lat="45.96985" lon="6.52419">
        <ele>1724.18</ele>
        <time>2018-09-22T09:42:15Z</time>
      </trkpt>
      <trkpt lat="45.96981" lon="6.52419">
        <ele>1723.86</ele>
        <time>2018-09-22T09:42:16Z</time>
      </trkpt>
      <trkpt lat="45.96976" lon="6.52419">
        <ele>1722.35</ele>
        <time>2018-09-22T09:42:17Z</time>
      </trkpt>
      <trkpt lat="45.96961" lon="6.52416">
        <ele>1719.83</ele>
        <time>2018-09-22T09:42:20Z</time>
      </trkpt>
      <trkpt lat="45.96957" lon="6.52416">
        <ele>1717.83</ele>
        <time>2018-09-22T09:42:21Z</time>
      </trkpt>
      <trkpt lat="45.96953" lon="6.52416">
        <ele>1716.66</ele>
        <time>2018-09-22T09:42:22Z</time>
      </trkpt>
      <trkpt lat="45.96939" lon="6.52407">
        <ele>1712.4</ele>
        <time>2018-09-22T09:42:26Z</time>
      </trkpt>
      <trkpt lat="45.96935" lon="6.524">
        <ele>1710.91</ele>
        <time>2018-09-22T09:42:28Z</time>
      </trkpt>
      <trkpt lat="45.96921" lon="6.52366">
        <ele>1709.79</ele>
        <time>2018-09-22T09:42:37Z</time>
      </trkpt>
      <trkpt lat="45.96905" lon="6.52348">
        <ele>1705.3</ele>
        <time>2018-09-22T09:42:42Z</time>
      </trkpt>
      <trkpt lat="45.96898" lon="6.52344">
        <ele>1704.54</ele>
        <time>2018-09-22T09:42:44Z</time>
      </trkpt>
      <trkpt lat="45.96886" lon="6.52344">
        <ele>1701.45</ele>
        <time>2018-09-22T09:42:47Z</time>
      </trkpt>
      <trkpt lat="45.96871" lon="6.52344">
        <ele>1701.4</ele>
        <time>2018-09-22T09:42:50Z</time>
      </trkpt>
      <trkpt lat="45.96852" lon="6.52336">
        <ele>1698.5</ele>
        <time>2018-09-22T09:42:54Z</time>
      </trkpt>
      <trkpt lat="45.96842" lon="6.52331">
        <ele>1696.9</ele>
        <time>2018-09-22T09:42:56Z</time>
      </trkpt>
      <trkpt lat="45.96831" lon="6.52326">
        <ele>1695.73</ele>
        <time>2018-09-22T09:42:58Z</time>
      </trkpt>
      <trkpt lat="45.9681" lon="6.52318">
        <ele>1691.98</ele>
        <time>2018-09-22T09:43:02Z</time>
      </trkpt>
      <trkpt lat="45.96802" lon="6.52315">
        <ele>1690.51</ele>
        <time>2018-09-22T09:43:04Z</time>
      </trkpt>
      <trkpt lat="45.96789" lon="6.52305">
        <ele>1688.93</ele>
        <time>2018-09-22T09:43:07Z</time>
      </trkpt>
      <trkpt lat="45.96789" lon="6.52289">
        <ele>1688.34</ele>
        <time>2018-09-22T09:43:10Z</time>
      </trkpt>
      <trkpt lat="45.9679" lon="6.52249">
        <ele>1685.55</ele>
        <time>2018-09-22T09:43:20Z</time>
      </trkpt>
      <trkpt lat="45.96791" lon="6.5222">
        <ele>1682.66</ele>
        <time>2018-09-22T09:43:27Z</time>
      </trkpt>
      <trkpt lat="45.96795" lon="6.52219">
        <ele>1682.65</ele>
        <time>2018-09-22T09:43:29Z</time>
      </trkpt>
      <trkpt lat="45.96796" lon="6.52221">
        <ele>1682.8</ele>
        <time>2018-09-22T09:43:30Z</time>
      </trkpt>
      <trkpt lat="45.96799" lon="6.52224">
        <ele>1683.04</ele>
        <time>2018-09-22T09:43:41Z</time>
      </trkpt>
      <trkpt lat="45.9681" lon="6.52232">
        <ele>1683.07</ele>
        <time>2018-09-22T09:44:05Z</time>
      </trkpt>
      <trkpt lat="45.96846" lon="6.52219">
        <ele>1682.23</ele>
        <time>2018-09-22T09:44:18Z</time>
      </trkpt>
      <trkpt lat="45.96873" lon="6.52164">
        <ele>1681.91</ele>
        <time>2018-09-22T09:44:33Z</time>
      </trkpt>
      <trkpt lat="45.96885" lon="6.52138">
        <ele>1682.34</ele>
        <time>2018-09-22T09:44:45Z</time>
      </trkpt>
      <trkpt lat="45.96886" lon="6.52121">
        <ele>1682.15</ele>
        <time>2018-09-22T09:44:59Z</time>
      </trkpt>
      <trkpt lat="45.96892" lon="6.52096">
        <ele>1681.2</ele>
        <time>2018-09-22T09:45:07Z</time>
      </trkpt>
      <trkpt lat="45.96903" lon="6.52058">
        <ele>1682.41</ele>
        <time>2018-09-22T09:45:20Z</time>
      </trkpt>
      <trkpt lat="45.96907" lon="6.52046">
        <ele>1682.87</ele>
        <time>2018-09-22T09:45:26Z</time>
      </trkpt>
      <trkpt lat="45.96903" lon="6.52032">
        <ele>1681.97</ele>
        <time>2018-09-22T09:45:33Z</time>
      </trkpt>
      <trkpt lat="45.96901" lon="6.5203">
        <ele>1681.75</ele>
        <time>2018-09-22T09:45:34Z</time>
      </trkpt>
      <trkpt lat="45.96899" lon="6.52029">
        <ele>1681.67</ele>
        <time>2018-09-22T09:45:35Z</time>
      </trkpt>
      <trkpt lat="45.96874" lon="6.52008">
        <ele>1679.74</ele>
        <time>2018-09-22T09:45:42Z</time>
      </trkpt>
      <trkpt lat="45.96864" lon="6.51999">
        <ele>1678.49</ele>
        <time>2018-09-22T09:45:44Z</time>
      </trkpt>
      <trkpt lat="45.96839" lon="6.51977">
        <ele>1675.2</ele>
        <time>2018-09-22T09:45:49Z</time>
      </trkpt>
      <trkpt lat="45.96835" lon="6.51972">
        <ele>1675.1</ele>
        <time>2018-09-22T09:45:50Z</time>
      </trkpt>
      <trkpt lat="45.96831" lon="6.51965">
        <ele>1674.34</ele>
        <time>2018-09-22T09:45:51Z</time>
      </trkpt>
      <trkpt lat="45.96828" lon="6.51958">
        <ele>1673.47</ele>
        <time>2018-09-22T09:45:52Z</time>
      </trkpt>
      <trkpt lat="45.96826" lon="6.51948">
        <ele>1673.14</ele>
        <time>2018-09-22T09:45:53Z</time>
      </trkpt>
      <trkpt lat="45.96825" lon="6.51938">
        <ele>1672.31</ele>
        <time>2018-09-22T09:45:54Z</time>
      </trkpt>
      <trkpt lat="45.96825" lon="6.51927">
        <ele>1671.17</ele>
        <time>2018-09-22T09:45:55Z</time>
      </trkpt>
      <trkpt lat="45.96825" lon="6.51916">
        <ele>1670.21</ele>
        <time>2018-09-22T09:45:56Z</time>
      </trkpt>
      <trkpt lat="45.96826" lon="6.51904">
        <ele>1669.06</ele>
        <time>2018-09-22T09:45:57Z</time>
      </trkpt>
      <trkpt lat="45.9683" lon="6.51864">
        <ele>1665.92</ele>
        <time>2018-09-22T09:46:00Z</time>
      </trkpt>
      <trkpt lat="45.96839" lon="6.51822">
        <ele>1662.87</ele>
        <time>2018-09-22T09:46:03Z</time>
      </trkpt>
      <trkpt lat="45.96843" lon="6.51808">
        <ele>1663</ele>
        <time>2018-09-22T09:46:04Z</time>
      </trkpt>
      <trkpt lat="45.96846" lon="6.51793">
        <ele>1662.32</ele>
        <time>2018-09-22T09:46:05Z</time>
      </trkpt>
      <trkpt lat="45.96847" lon="6.51779">
        <ele>1660.98</ele>
        <time>2018-09-22T09:46:06Z</time>
      </trkpt>
      <trkpt lat="45.96848" lon="6.51766">
        <ele>1660.73</ele>
        <time>2018-09-22T09:46:07Z</time>
      </trkpt>
      <trkpt lat="45.96852" lon="6.51706">
        <ele>1657.65</ele>
        <time>2018-09-22T09:46:12Z</time>
      </trkpt>
      <trkpt lat="45.96853" lon="6.51693">
        <ele>1657.28</ele>
        <time>2018-09-22T09:46:13Z</time>
      </trkpt>
      <trkpt lat="45.96851" lon="6.5168">
        <ele>1656.76</ele>
        <time>2018-09-22T09:46:14Z</time>
      </trkpt>
      <trkpt lat="45.96848" lon="6.51668">
        <ele>1656.87</ele>
        <time>2018-09-22T09:46:15Z</time>
      </trkpt>
      <trkpt lat="45.96843" lon="6.51656">
        <ele>1655.12</ele>
        <time>2018-09-22T09:46:16Z</time>
      </trkpt>
      <trkpt lat="45.96838" lon="6.51644">
        <ele>1654.04</ele>
        <time>2018-09-22T09:46:17Z</time>
      </trkpt>
      <trkpt lat="45.96827" lon="6.5162">
        <ele>1650.78</ele>
        <time>2018-09-22T09:46:19Z</time>
      </trkpt>
      <trkpt lat="45.96823" lon="6.51606">
        <ele>1648.44</ele>
        <time>2018-09-22T09:46:20Z</time>
      </trkpt>
      <trkpt lat="45.96821" lon="6.51591">
        <ele>1646.75</ele>
        <time>2018-09-22T09:46:21Z</time>
      </trkpt>
      <trkpt lat="45.9682" lon="6.51575">
        <ele>1646</ele>
        <time>2018-09-22T09:46:22Z</time>
      </trkpt>
      <trkpt lat="45.96821" lon="6.51545">
        <ele>1642.24</ele>
        <time>2018-09-22T09:46:24Z</time>
      </trkpt>
      <trkpt lat="45.96821" lon="6.51517">
        <ele>1638.82</ele>
        <time>2018-09-22T09:46:26Z</time>
      </trkpt>
      <trkpt lat="45.96819" lon="6.51489">
        <ele>1637.48</ele>
        <time>2018-09-22T09:46:28Z</time>
      </trkpt>
      <trkpt lat="45.96812" lon="6.51449">
        <ele>1634.26</ele>
        <time>2018-09-22T09:46:31Z</time>
      </trkpt>
      <trkpt lat="45.96809" lon="6.51437">
        <ele>1633.66</ele>
        <time>2018-09-22T09:46:32Z</time>
      </trkpt>
      <trkpt lat="45.96805" lon="6.51426">
        <ele>1632.05</ele>
        <time>2018-09-22T09:46:33Z</time>
      </trkpt>
      <trkpt lat="45.96799" lon="6.51418">
        <ele>1631.36</ele>
        <time>2018-09-22T09:46:34Z</time>
      </trkpt>
      <trkpt lat="45.96793" lon="6.51411">
        <ele>1629.72</ele>
        <time>2018-09-22T09:46:35Z</time>
      </trkpt>
      <trkpt lat="45.96786" lon="6.51407">
        <ele>1628.79</ele>
        <time>2018-09-22T09:46:36Z</time>
      </trkpt>
      <trkpt lat="45.96778" lon="6.51405">
        <ele>1627.58</ele>
        <time>2018-09-22T09:46:37Z</time>
      </trkpt>
      <trkpt lat="45.96769" lon="6.51403">
        <ele>1626.51</ele>
        <time>2018-09-22T09:46:38Z</time>
      </trkpt>
      <trkpt lat="45.9674" lon="6.51395">
        <ele>1622.29</ele>
        <time>2018-09-22T09:46:41Z</time>
      </trkpt>
      <trkpt lat="45.9672" lon="6.5139">
        <ele>1619</ele>
        <time>2018-09-22T09:46:43Z</time>
      </trkpt>
      <trkpt lat="45.96704" lon="6.51382">
        <ele>1615.57</ele>
        <time>2018-09-22T09:46:45Z</time>
      </trkpt>
      <trkpt lat="45.96697" lon="6.51374">
        <ele>1615.23</ele>
        <time>2018-09-22T09:46:46Z</time>
      </trkpt>
      <trkpt lat="45.96693" lon="6.51364">
        <ele>1613.91</ele>
        <time>2018-09-22T09:46:47Z</time>
      </trkpt>
      <trkpt lat="45.96689" lon="6.51351">
        <ele>1611.77</ele>
        <time>2018-09-22T09:46:48Z</time>
      </trkpt>
      <trkpt lat="45.96686" lon="6.51338">
        <ele>1611.23</ele>
        <time>2018-09-22T09:46:49Z</time>
      </trkpt>
      <trkpt lat="45.96681" lon="6.51311">
        <ele>1608.49</ele>
        <time>2018-09-22T09:46:51Z</time>
      </trkpt>
      <trkpt lat="45.96681" lon="6.51297">
        <ele>1606.83</ele>
        <time>2018-09-22T09:46:52Z</time>
      </trkpt>
      <trkpt lat="45.96681" lon="6.51268">
        <ele>1605.98</ele>
        <time>2018-09-22T09:46:54Z</time>
      </trkpt>
      <trkpt lat="45.96682" lon="6.51253">
        <ele>1604.31</ele>
        <time>2018-09-22T09:46:55Z</time>
      </trkpt>
      <trkpt lat="45.96684" lon="6.51238">
        <ele>1604.07</ele>
        <time>2018-09-22T09:46:56Z</time>
      </trkpt>
      <trkpt lat="45.96691" lon="6.51197">
        <ele>1601.44</ele>
        <time>2018-09-22T09:46:59Z</time>
      </trkpt>
      <trkpt lat="45.96694" lon="6.51184">
        <ele>1601.14</ele>
        <time>2018-09-22T09:47:00Z</time>
      </trkpt>
      <trkpt lat="45.96699" lon="6.51173">
        <ele>1599.63</ele>
        <time>2018-09-22T09:47:01Z</time>
      </trkpt>
      <trkpt lat="45.96704" lon="6.51162">
        <ele>1598.6</ele>
        <time>2018-09-22T09:47:02Z</time>
      </trkpt>
      <trkpt lat="45.96711" lon="6.51151">
        <ele>1598.03</ele>
        <time>2018-09-22T09:47:03Z</time>
      </trkpt>
      <trkpt lat="45.96719" lon="6.5114">
        <ele>1596.28</ele>
        <time>2018-09-22T09:47:04Z</time>
      </trkpt>
      <trkpt lat="45.96741" lon="6.51108">
        <ele>1592.59</ele>
        <time>2018-09-22T09:47:07Z</time>
      </trkpt>
      <trkpt lat="45.96747" lon="6.51096">
        <ele>1591.4</ele>
        <time>2018-09-22T09:47:08Z</time>
      </trkpt>
      <trkpt lat="45.96752" lon="6.51084">
        <ele>1590.12</ele>
        <time>2018-09-22T09:47:09Z</time>
      </trkpt>
      <trkpt lat="45.96754" lon="6.51071">
        <ele>1589.46</ele>
        <time>2018-09-22T09:47:10Z</time>
      </trkpt>
      <trkpt lat="45.96753" lon="6.51058">
        <ele>1588.59</ele>
        <time>2018-09-22T09:47:11Z</time>
      </trkpt>
      <trkpt lat="45.96752" lon="6.51044">
        <ele>1587.04</ele>
        <time>2018-09-22T09:47:12Z</time>
      </trkpt>
      <trkpt lat="45.96749" lon="6.5103">
        <ele>1586.56</ele>
        <time>2018-09-22T09:47:13Z</time>
      </trkpt>
      <trkpt lat="45.96746" lon="6.51016">
        <ele>1584.78</ele>
        <time>2018-09-22T09:47:14Z</time>
      </trkpt>
      <trkpt lat="45.96742" lon="6.51002">
        <ele>1583.39</ele>
        <time>2018-09-22T09:47:15Z</time>
      </trkpt>
      <trkpt lat="45.96737" lon="6.50989">
        <ele>1581.91</ele>
        <time>2018-09-22T09:47:16Z</time>
      </trkpt>
      <trkpt lat="45.96722" lon="6.5095">
        <ele>1576.88</ele>
        <time>2018-09-22T09:47:19Z</time>
      </trkpt>
      <trkpt lat="45.96713" lon="6.50926">
        <ele>1573.33</ele>
        <time>2018-09-22T09:47:21Z</time>
      </trkpt>
      <trkpt lat="45.96704" lon="6.50904">
        <ele>1571.37</ele>
        <time>2018-09-22T09:47:23Z</time>
      </trkpt>
      <trkpt lat="45.96694" lon="6.50881">
        <ele>1569.52</ele>
        <time>2018-09-22T09:47:25Z</time>
      </trkpt>
      <trkpt lat="45.96684" lon="6.50857">
        <ele>1566.41</ele>
        <time>2018-09-22T09:47:27Z</time>
      </trkpt>
      <trkpt lat="45.96669" lon="6.50819">
        <ele>1562.48</ele>
        <time>2018-09-22T09:47:30Z</time>
      </trkpt>
      <trkpt lat="45.96662" lon="6.50808">
        <ele>1561.9</ele>
        <time>2018-09-22T09:47:31Z</time>
      </trkpt>
      <trkpt lat="45.96655" lon="6.50798">
        <ele>1561.22</ele>
        <time>2018-09-22T09:47:32Z</time>
      </trkpt>
      <trkpt lat="45.96626" lon="6.50765">
        <ele>1559.12</ele>
        <time>2018-09-22T09:47:36Z</time>
      </trkpt>
      <trkpt lat="45.96602" lon="6.50743">
        <ele>1555.23</ele>
        <time>2018-09-22T09:47:39Z</time>
      </trkpt>
      <trkpt lat="45.96577" lon="6.50719">
        <ele>1551.26</ele>
        <time>2018-09-22T09:47:42Z</time>
      </trkpt>
      <trkpt lat="45.96569" lon="6.50711">
        <ele>1550.97</ele>
        <time>2018-09-22T09:47:43Z</time>
      </trkpt>
      <trkpt lat="45.96553" lon="6.50697">
        <ele>1549.45</ele>
        <time>2018-09-22T09:47:45Z</time>
      </trkpt>
      <trkpt lat="45.96545" lon="6.50692">
        <ele>1549.66</ele>
        <time>2018-09-22T09:47:46Z</time>
      </trkpt>
      <trkpt lat="45.9652" lon="6.5068">
        <ele>1547.68</ele>
        <time>2018-09-22T09:47:49Z</time>
      </trkpt>
      <trkpt lat="45.96485" lon="6.50664">
        <ele>1545.39</ele>
        <time>2018-09-22T09:47:53Z</time>
      </trkpt>
      <trkpt lat="45.96477" lon="6.50659">
        <ele>1544.45</ele>
        <time>2018-09-22T09:47:54Z</time>
      </trkpt>
      <trkpt lat="45.96468" lon="6.50652">
        <ele>1543.48</ele>
        <time>2018-09-22T09:47:55Z</time>
      </trkpt>
      <trkpt lat="45.96426" lon="6.50613">
        <ele>1540.33</ele>
        <time>2018-09-22T09:48:01Z</time>
      </trkpt>
      <trkpt lat="45.9641" lon="6.50597">
        <ele>1538.56</ele>
        <time>2018-09-22T09:48:04Z</time>
      </trkpt>
      <trkpt lat="45.96391" lon="6.50578">
        <ele>1536.57</ele>
        <time>2018-09-22T09:48:08Z</time>
      </trkpt>
      <trkpt lat="45.96387" lon="6.50572">
        <ele>1536.04</ele>
        <time>2018-09-22T09:48:09Z</time>
      </trkpt>
      <trkpt lat="45.96384" lon="6.50566">
        <ele>1535</ele>
        <time>2018-09-22T09:48:10Z</time>
      </trkpt>
      <trkpt lat="45.96374" lon="6.50539">
        <ele>1533.16</ele>
        <time>2018-09-22T09:48:14Z</time>
      </trkpt>
      <trkpt lat="45.96362" lon="6.50507">
        <ele>1529.72</ele>
        <time>2018-09-22T09:48:20Z</time>
      </trkpt>
      <trkpt lat="45.96362" lon="6.50503">
        <ele>1529.61</ele>
        <time>2018-09-22T09:48:21Z</time>
      </trkpt>
      <trkpt lat="45.96363" lon="6.505">
        <ele>1529.37</ele>
        <time>2018-09-22T09:48:22Z</time>
      </trkpt>
      <trkpt lat="45.96364" lon="6.50498">
        <ele>1529.47</ele>
        <time>2018-09-22T09:48:23Z</time>
      </trkpt>
      <trkpt lat="45.96366" lon="6.505">
        <ele>1529.84</ele>
        <time>2018-09-22T09:48:33Z</time>
      </trkpt>
      <trkpt lat="45.96365" lon="6.50503">
        <ele>1529.68</ele>
        <time>2018-09-22T09:48:50Z</time>
      </trkpt>
      <trkpt lat="45.96363" lon="6.50503">
        <ele>1529.76</ele>
        <time>2018-09-22T09:49:04Z</time>
      </trkpt>
      <trkpt lat="45.96357" lon="6.50504">
        <ele>1529.37</ele>
        <time>2018-09-22T09:49:17Z</time>
      </trkpt>
      <trkpt lat="45.96356" lon="6.50506">
        <ele>1529.4</ele>
        <time>2018-09-22T09:49:18Z</time>
      </trkpt>
      <trkpt lat="45.96355" lon="6.50508">
        <ele>1528.89</ele>
        <time>2018-09-22T09:49:19Z</time>
      </trkpt>
      <trkpt lat="45.96354" lon="6.50511">
        <ele>1528.69</ele>
        <time>2018-09-22T09:49:20Z</time>
      </trkpt>
      <trkpt lat="45.96353" lon="6.50514">
        <ele>1528.84</ele>
        <time>2018-09-22T09:49:21Z</time>
      </trkpt>
      <trkpt lat="45.96351" lon="6.50518">
        <ele>1528.42</ele>
        <time>2018-09-22T09:49:22Z</time>
      </trkpt>
      <trkpt lat="45.96349" lon="6.50522">
        <ele>1527.71</ele>
        <time>2018-09-22T09:49:23Z</time>
      </trkpt>
      <trkpt lat="45.96334" lon="6.50547">
        <ele>1528.01</ele>
        <time>2018-09-22T09:49:36Z</time>
      </trkpt>
      <trkpt lat="45.96324" lon="6.50562">
        <ele>1525.64</ele>
        <time>2018-09-22T09:49:46Z</time>
      </trkpt>
      <trkpt lat="45.96324" lon="6.50562">
        <ele>1524.97</ele>
        <time>2018-09-22T09:50:22Z</time>
      </trkpt>
      <trkpt lat="45.96324" lon="6.50562">
        <ele>1524.75</ele>
        <time>2018-09-22T09:51:05Z</time>
      </trkpt>
      <trkpt lat="45.96325" lon="6.50563">
        <ele>1524.45</ele>
        <time>2018-09-22T09:51:52Z</time>
      </trkpt>
      <trkpt lat="45.96324" lon="6.50563">
        <ele>1524.57</ele>
        <time>2018-09-22T09:52:35Z</time>
      </trkpt>
      <trkpt lat="45.96324" lon="6.50563">
        <ele>1524.61</ele>
        <time>2018-09-22T09:53:20Z</time>
      </trkpt>
      <trkpt lat="45.96323" lon="6.50564">
        <ele>1524.64</ele>
        <time>2018-09-22T09:54:04Z</time>
      </trkpt>
      <trkpt lat="45.96323" lon="6.50563">
        <ele>1524.04</ele>
        <time>2018-09-22T09:54:49Z</time>
      </trkpt>
      <trkpt lat="45.96324" lon="6.50563">
        <ele>1524.29</ele>
        <time>2018-09-22T09:55:36Z</time>
      </trkpt>
      <trkpt lat="45.96324" lon="6.50563">
        <ele>1523.74</ele>
        <time>2018-09-22T09:56:20Z</time>
      </trkpt>
      <trkpt lat="45.96326" lon="6.50563">
        <ele>1524.22</ele>
        <time>2018-09-22T09:57:07Z</time>
      </trkpt>
      <trkpt lat="45.96325" lon="6.50563">
        <ele>1524.01</ele>
        <time>2018-09-22T09:57:56Z</time>
      </trkpt>
      <trkpt lat="45.96325" lon="6.50563">
        <ele>1524.11</ele>
        <time>2018-09-22T09:58:45Z</time>
      </trkpt>
      <trkpt lat="45.96325" lon="6.50563">
        <ele>1523.68</ele>
        <time>2018-09-22T09:59:39Z</time>
      </trkpt>
      <trkpt lat="45.96324" lon="6.50563">
        <ele>1523.53</ele>
        <time>2018-09-22T10:00:27Z</time>
      </trkpt>
      <trkpt lat="45.96325" lon="6.50563">
        <ele>1523.64</ele>
        <time>2018-09-22T10:01:16Z</time>
      </trkpt>
      <trkpt lat="45.96326" lon="6.50563">
        <ele>1523.31</ele>
        <time>2018-09-22T10:02:03Z</time>
      </trkpt>
      <trkpt lat="45.96325" lon="6.50562">
        <ele>1522.95</ele>
        <time>2018-09-22T10:02:52Z</time>
      </trkpt>
      <trkpt lat="45.96326" lon="6.50562">
        <ele>1522.08</ele>
        <time>2018-09-22T10:03:45Z</time>
      </trkpt>
      <trkpt lat="45.96327" lon="6.50561">
        <ele>1523.08</ele>
        <time>2018-09-22T10:04:37Z</time>
      </trkpt>
      <trkpt lat="45.96327" lon="6.50561">
        <ele>1522.8</ele>
        <time>2018-09-22T10:05:37Z</time>
      </trkpt>
      <trkpt lat="45.96327" lon="6.50561">
        <ele>1522.88</ele>
        <time>2018-09-22T10:06:36Z</time>
      </trkpt>
      <trkpt lat="45.96327" lon="6.50561">
        <ele>1523</ele>
        <time>2018-09-22T10:07:32Z</time>
      </trkpt>
      <trkpt lat="45.96327" lon="6.5056">
        <ele>1522.6</ele>
        <time>2018-09-22T10:08:24Z</time>
      </trkpt>
      <trkpt lat="45.96328" lon="6.5056">
        <ele>1523.28</ele>
        <time>2018-09-22T10:09:15Z</time>
      </trkpt>
      <trkpt lat="45.96326" lon="6.50561">
        <ele>1522.65</ele>
        <time>2018-09-22T10:10:13Z</time>
      </trkpt>
      <trkpt lat="45.96326" lon="6.50561">
        <ele>1523.2</ele>
        <time>2018-09-22T10:11:07Z</time>
      </trkpt>
      <trkpt lat="45.96326" lon="6.50561">
        <ele>1523.16</ele>
        <time>2018-09-22T10:12:05Z</time>
      </trkpt>
      <trkpt lat="45.96325" lon="6.50561">
        <ele>1523.32</ele>
        <time>2018-09-22T10:12:59Z</time>
      </trkpt>
      <trkpt lat="45.96326" lon="6.50561">
        <ele>1523.61</ele>
        <time>2018-09-22T10:13:57Z</time>
      </trkpt>
      <trkpt lat="45.96326" lon="6.50562">
        <ele>1523.36</ele>
        <time>2018-09-22T10:14:57Z</time>
      </trkpt>
      <trkpt lat="45.96327" lon="6.50561">
        <ele>1523.07</ele>
        <time>2018-09-22T10:15:47Z</time>
      </trkpt>
      <trkpt lat="45.96326" lon="6.50562">
        <ele>1523.22</ele>
        <time>2018-09-22T10:16:46Z</time>
      </trkpt>
      <trkpt lat="45.96327" lon="6.50558">
        <ele>1523.46</ele>
        <time>2018-09-22T10:17:09Z</time>
      </trkpt>
      <trkpt lat="45.96328" lon="6.50555">
        <ele>1524.98</ele>
        <time>2018-09-22T10:17:15Z</time>
      </trkpt>
      <trkpt lat="45.96338" lon="6.50543">
        <ele>1527.09</ele>
        <time>2018-09-22T10:17:32Z</time>
      </trkpt>
      <trkpt lat="45.9634" lon="6.50541">
        <ele>1526.94</ele>
        <time>2018-09-22T10:17:47Z</time>
      </trkpt>
      <trkpt lat="45.96344" lon="6.50534">
        <ele>1526.8</ele>
        <time>2018-09-22T10:17:57Z</time>
      </trkpt>
      <trkpt lat="45.96356" lon="6.50506">
        <ele>1526.66</ele>
        <time>2018-09-22T10:18:05Z</time>
      </trkpt>
      <trkpt lat="45.96363" lon="6.50499">
        <ele>1527.32</ele>
        <time>2018-09-22T10:18:11Z</time>
      </trkpt>
      <trkpt lat="45.96365" lon="6.50499">
        <ele>1527.54</ele>
        <time>2018-09-22T10:18:12Z</time>
      </trkpt>
      <trkpt lat="45.96367" lon="6.505">
        <ele>1527.47</ele>
        <time>2018-09-22T10:18:13Z</time>
      </trkpt>
      <trkpt lat="45.96368" lon="6.50499">
        <ele>1527.36</ele>
        <time>2018-09-22T10:18:14Z</time>
      </trkpt>
      <trkpt lat="45.9637" lon="6.50499">
        <ele>1527.28</ele>
        <time>2018-09-22T10:18:29Z</time>
      </trkpt>
      <trkpt lat="45.96371" lon="6.50497">
        <ele>1527.71</ele>
        <time>2018-09-22T10:18:33Z</time>
      </trkpt>
      <trkpt lat="45.96372" lon="6.50496">
        <ele>1527.59</ele>
        <time>2018-09-22T10:18:34Z</time>
      </trkpt>
      <trkpt lat="45.96373" lon="6.50493">
        <ele>1527.5</ele>
        <time>2018-09-22T10:18:35Z</time>
      </trkpt>
      <trkpt lat="45.96375" lon="6.50491">
        <ele>1527.61</ele>
        <time>2018-09-22T10:18:36Z</time>
      </trkpt>
      <trkpt lat="45.96376" lon="6.50488">
        <ele>1527.74</ele>
        <time>2018-09-22T10:18:37Z</time>
      </trkpt>
      <trkpt lat="45.96392" lon="6.50446">
        <ele>1529</ele>
        <time>2018-09-22T10:18:53Z</time>
      </trkpt>
      <trkpt lat="45.96399" lon="6.50433">
        <ele>1530.05</ele>
        <time>2018-09-22T10:18:59Z</time>
      </trkpt>
      <trkpt lat="45.96408" lon="6.50394">
        <ele>1531.82</ele>
        <time>2018-09-22T10:19:14Z</time>
      </trkpt>
      <trkpt lat="45.96393" lon="6.5037">
        <ele>1533.18</ele>
        <time>2018-09-22T10:19:27Z</time>
      </trkpt>
      <trkpt lat="45.96372" lon="6.50347">
        <ele>1535.05</ele>
        <time>2018-09-22T10:19:43Z</time>
      </trkpt>
      <trkpt lat="45.96371" lon="6.50345">
        <ele>1534.38</ele>
        <time>2018-09-22T10:19:44Z</time>
      </trkpt>
      <trkpt lat="45.96371" lon="6.50343">
        <ele>1534.62</ele>
        <time>2018-09-22T10:19:45Z</time>
      </trkpt>
      <trkpt lat="45.9637" lon="6.50341">
        <ele>1534.59</ele>
        <time>2018-09-22T10:19:46Z</time>
      </trkpt>
      <trkpt lat="45.96369" lon="6.50339">
        <ele>1534.82</ele>
        <time>2018-09-22T10:19:47Z</time>
      </trkpt>
      <trkpt lat="45.96358" lon="6.50297">
        <ele>1535.6</ele>
        <time>2018-09-22T10:20:06Z</time>
      </trkpt>
      <trkpt lat="45.96361" lon="6.50255">
        <ele>1539.06</ele>
        <time>2018-09-22T10:20:23Z</time>
      </trkpt>
      <trkpt lat="45.96356" lon="6.50223">
        <ele>1542.24</ele>
        <time>2018-09-22T10:20:36Z</time>
      </trkpt>
      <trkpt lat="45.96352" lon="6.50183">
        <ele>1545.05</ele>
        <time>2018-09-22T10:20:53Z</time>
      </trkpt>
      <trkpt lat="45.96346" lon="6.50146">
        <ele>1547.68</ele>
        <time>2018-09-22T10:21:09Z</time>
      </trkpt>
      <trkpt lat="45.96344" lon="6.50132">
        <ele>1548.59</ele>
        <time>2018-09-22T10:21:15Z</time>
      </trkpt>
      <trkpt lat="45.96338" lon="6.50081">
        <ele>1551.21</ele>
        <time>2018-09-22T10:21:36Z</time>
      </trkpt>
      <trkpt lat="45.96333" lon="6.50063">
        <ele>1551.11</ele>
        <time>2018-09-22T10:21:44Z</time>
      </trkpt>
      <trkpt lat="45.96336" lon="6.50065">
        <ele>1550.67</ele>
        <time>2018-09-22T10:21:56Z</time>
      </trkpt>
      <trkpt lat="45.96336" lon="6.50066">
        <ele>1550.72</ele>
        <time>2018-09-22T10:21:57Z</time>
      </trkpt>
      <trkpt lat="45.96337" lon="6.50068">
        <ele>1550.87</ele>
        <time>2018-09-22T10:21:58Z</time>
      </trkpt>
      <trkpt lat="45.9634" lon="6.50081">
        <ele>1550.22</ele>
        <time>2018-09-22T10:22:04Z</time>
      </trkpt>
      <trkpt lat="45.96341" lon="6.50079">
        <ele>1550.87</ele>
        <time>2018-09-22T10:22:08Z</time>
      </trkpt>
      <trkpt lat="45.9634" lon="6.50077">
        <ele>1550.84</ele>
        <time>2018-09-22T10:22:09Z</time>
      </trkpt>
      <trkpt lat="45.96339" lon="6.50075">
        <ele>1550.78</ele>
        <time>2018-09-22T10:22:10Z</time>
      </trkpt>
      <trkpt lat="45.96321" lon="6.50041">
        <ele>1551.32</ele>
        <time>2018-09-22T10:22:27Z</time>
      </trkpt>
      <trkpt lat="45.96294" lon="6.50005">
        <ele>1552.29</ele>
        <time>2018-09-22T10:22:46Z</time>
      </trkpt>
      <trkpt lat="45.96271" lon="6.49977">
        <ele>1553.69</ele>
        <time>2018-09-22T10:23:03Z</time>
      </trkpt>
      <trkpt lat="45.96268" lon="6.49972">
        <ele>1553.89</ele>
        <time>2018-09-22T10:23:06Z</time>
      </trkpt>
      <trkpt lat="45.96259" lon="6.49942">
        <ele>1554.26</ele>
        <time>2018-09-22T10:23:21Z</time>
      </trkpt>
      <trkpt lat="45.96242" lon="6.49897">
        <ele>1555.57</ele>
        <time>2018-09-22T10:23:39Z</time>
      </trkpt>
      <trkpt lat="45.96208" lon="6.49852">
        <ele>1557.93</ele>
        <time>2018-09-22T10:24:02Z</time>
      </trkpt>
      <trkpt lat="45.96186" lon="6.49819">
        <ele>1558.52</ele>
        <time>2018-09-22T10:24:20Z</time>
      </trkpt>
      <trkpt lat="45.96159" lon="6.49787">
        <ele>1559.83</ele>
        <time>2018-09-22T10:24:38Z</time>
      </trkpt>
      <trkpt lat="45.96129" lon="6.49755">
        <ele>1562.1</ele>
        <time>2018-09-22T10:24:58Z</time>
      </trkpt>
      <trkpt lat="45.96107" lon="6.49729">
        <ele>1564.09</ele>
        <time>2018-09-22T10:25:13Z</time>
      </trkpt>
      <trkpt lat="45.9609" lon="6.49694">
        <ele>1565.37</ele>
        <time>2018-09-22T10:25:29Z</time>
      </trkpt>
      <trkpt lat="45.9607" lon="6.49638">
        <ele>1568.03</ele>
        <time>2018-09-22T10:25:52Z</time>
      </trkpt>
      <trkpt lat="45.96054" lon="6.49591">
        <ele>1570.05</ele>
        <time>2018-09-22T10:26:11Z</time>
      </trkpt>
      <trkpt lat="45.96036" lon="6.49537">
        <ele>1572.43</ele>
        <time>2018-09-22T10:26:32Z</time>
      </trkpt>
      <trkpt lat="45.9604" lon="6.49477">
        <ele>1574.29</ele>
        <time>2018-09-22T10:26:53Z</time>
      </trkpt>
      <trkpt lat="45.96055" lon="6.49438">
        <ele>1576.51</ele>
        <time>2018-09-22T10:27:10Z</time>
      </trkpt>
      <trkpt lat="45.96062" lon="6.49399">
        <ele>1579.51</ele>
        <time>2018-09-22T10:27:26Z</time>
      </trkpt>
      <trkpt lat="45.96052" lon="6.49349">
        <ele>1581.21</ele>
        <time>2018-09-22T10:27:45Z</time>
      </trkpt>
      <trkpt lat="45.96037" lon="6.49309">
        <ele>1583.97</ele>
        <time>2018-09-22T10:28:03Z</time>
      </trkpt>
      <trkpt lat="45.96032" lon="6.49295">
        <ele>1585.53</ele>
        <time>2018-09-22T10:28:09Z</time>
      </trkpt>
      <trkpt lat="45.96014" lon="6.49265">
        <ele>1588.39</ele>
        <time>2018-09-22T10:28:25Z</time>
      </trkpt>
      <trkpt lat="45.95998" lon="6.4923">
        <ele>1590.86</ele>
        <time>2018-09-22T10:28:42Z</time>
      </trkpt>
      <trkpt lat="45.95982" lon="6.49194">
        <ele>1593.07</ele>
        <time>2018-09-22T10:28:59Z</time>
      </trkpt>
      <trkpt lat="45.95974" lon="6.4915">
        <ele>1595.79</ele>
        <time>2018-09-22T10:29:18Z</time>
      </trkpt>
      <trkpt lat="45.95991" lon="6.49114">
        <ele>1597.96</ele>
        <time>2018-09-22T10:29:35Z</time>
      </trkpt>
      <trkpt lat="45.96004" lon="6.49096">
        <ele>1599.4</ele>
        <time>2018-09-22T10:29:47Z</time>
      </trkpt>
      <trkpt lat="45.95987" lon="6.49091">
        <ele>1599.87</ele>
        <time>2018-09-22T10:30:00Z</time>
      </trkpt>
      <trkpt lat="45.95962" lon="6.49107">
        <ele>1602.94</ele>
        <time>2018-09-22T10:30:16Z</time>
      </trkpt>
      <trkpt lat="45.95934" lon="6.49112">
        <ele>1606.16</ele>
        <time>2018-09-22T10:30:33Z</time>
      </trkpt>
      <trkpt lat="45.95908" lon="6.49095">
        <ele>1606.96</ele>
        <time>2018-09-22T10:30:50Z</time>
      </trkpt>
      <trkpt lat="45.95885" lon="6.49088">
        <ele>1608.05</ele>
        <time>2018-09-22T10:31:06Z</time>
      </trkpt>
      <trkpt lat="45.95874" lon="6.49054">
        <ele>1608.94</ele>
        <time>2018-09-22T10:31:23Z</time>
      </trkpt>
      <trkpt lat="45.95866" lon="6.49003">
        <ele>1609.77</ele>
        <time>2018-09-22T10:31:42Z</time>
      </trkpt>
      <trkpt lat="45.95852" lon="6.48976">
        <ele>1612.98</ele>
        <time>2018-09-22T10:31:56Z</time>
      </trkpt>
      <trkpt lat="45.95843" lon="6.48935">
        <ele>1614.14</ele>
        <time>2018-09-22T10:32:15Z</time>
      </trkpt>
      <trkpt lat="45.95828" lon="6.48887">
        <ele>1616.39</ele>
        <time>2018-09-22T10:32:36Z</time>
      </trkpt>
      <trkpt lat="45.95812" lon="6.4884">
        <ele>1615.91</ele>
        <time>2018-09-22T10:32:53Z</time>
      </trkpt>
      <trkpt lat="45.95802" lon="6.48826">
        <ele>1615.23</ele>
        <time>2018-09-22T10:32:57Z</time>
      </trkpt>
      <trkpt lat="45.958" lon="6.4882">
        <ele>1615.46</ele>
        <time>2018-09-22T10:32:58Z</time>
      </trkpt>
      <trkpt lat="45.95798" lon="6.48815">
        <ele>1615.62</ele>
        <time>2018-09-22T10:32:59Z</time>
      </trkpt>
      <trkpt lat="45.95774" lon="6.4877">
        <ele>1616.85</ele>
        <time>2018-09-22T10:33:13Z</time>
      </trkpt>
      <trkpt lat="45.95751" lon="6.48778">
        <ele>1619.12</ele>
        <time>2018-09-22T10:33:27Z</time>
      </trkpt>
      <trkpt lat="45.95744" lon="6.48782">
        <ele>1619.6</ele>
        <time>2018-09-22T10:33:32Z</time>
      </trkpt>
      <trkpt lat="45.95743" lon="6.48782">
        <ele>1620.09</ele>
        <time>2018-09-22T10:33:33Z</time>
      </trkpt>
      <trkpt lat="45.95742" lon="6.48783">
        <ele>1620.08</ele>
        <time>2018-09-22T10:33:34Z</time>
      </trkpt>
      <trkpt lat="45.95741" lon="6.48784">
        <ele>1620.55</ele>
        <time>2018-09-22T10:33:35Z</time>
      </trkpt>
      <trkpt lat="45.95739" lon="6.48785">
        <ele>1620.81</ele>
        <time>2018-09-22T10:33:36Z</time>
      </trkpt>
      <trkpt lat="45.95738" lon="6.48785">
        <ele>1620.95</ele>
        <time>2018-09-22T10:33:37Z</time>
      </trkpt>
      <trkpt lat="45.95736" lon="6.48786">
        <ele>1620.82</ele>
        <time>2018-09-22T10:33:38Z</time>
      </trkpt>
      <trkpt lat="45.95735" lon="6.48786">
        <ele>1620.89</ele>
        <time>2018-09-22T10:33:39Z</time>
      </trkpt>
      <trkpt lat="45.95714" lon="6.48779">
        <ele>1623.25</ele>
        <time>2018-09-22T10:33:54Z</time>
      </trkpt>
      <trkpt lat="45.95682" lon="6.48768">
        <ele>1625.59</ele>
        <time>2018-09-22T10:34:14Z</time>
      </trkpt>
      <trkpt lat="45.95647" lon="6.4874">
        <ele>1626.22</ele>
        <time>2018-09-22T10:34:34Z</time>
      </trkpt>
      <trkpt lat="45.95601" lon="6.48728">
        <ele>1627.64</ele>
        <time>2018-09-22T10:34:56Z</time>
      </trkpt>
      <trkpt lat="45.95573" lon="6.48714">
        <ele>1626.67</ele>
        <time>2018-09-22T10:35:10Z</time>
      </trkpt>
      <trkpt lat="45.9553" lon="6.48713">
        <ele>1625.65</ele>
        <time>2018-09-22T10:35:25Z</time>
      </trkpt>
      <trkpt lat="45.95491" lon="6.48687">
        <ele>1626.1</ele>
        <time>2018-09-22T10:35:41Z</time>
      </trkpt>
      <trkpt lat="45.95477" lon="6.48642">
        <ele>1626</ele>
        <time>2018-09-22T10:35:56Z</time>
      </trkpt>
      <trkpt lat="45.9545" lon="6.48593">
        <ele>1624.36</ele>
        <time>2018-09-22T10:36:11Z</time>
      </trkpt>
      <trkpt lat="45.95426" lon="6.48527">
        <ele>1623.82</ele>
        <time>2018-09-22T10:36:25Z</time>
      </trkpt>
      <trkpt lat="45.95405" lon="6.48415">
        <ele>1621.71</ele>
        <time>2018-09-22T10:36:43Z</time>
      </trkpt>
      <trkpt lat="45.95403" lon="6.48409">
        <ele>1621.45</ele>
        <time>2018-09-22T10:36:44Z</time>
      </trkpt>
      <trkpt lat="45.95398" lon="6.48397">
        <ele>1621.5</ele>
        <time>2018-09-22T10:36:46Z</time>
      </trkpt>
      <trkpt lat="45.95395" lon="6.48391">
        <ele>1620.79</ele>
        <time>2018-09-22T10:36:47Z</time>
      </trkpt>
      <trkpt lat="45.95364" lon="6.48293">
        <ele>1619.67</ele>
        <time>2018-09-22T10:37:02Z</time>
      </trkpt>
      <trkpt lat="45.95362" lon="6.48287">
        <ele>1619.8</ele>
        <time>2018-09-22T10:37:03Z</time>
      </trkpt>
      <trkpt lat="45.9536" lon="6.48282">
        <ele>1619.61</ele>
        <time>2018-09-22T10:37:04Z</time>
      </trkpt>
      <trkpt lat="45.95354" lon="6.48271">
        <ele>1619.11</ele>
        <time>2018-09-22T10:37:06Z</time>
      </trkpt>
      <trkpt lat="45.95321" lon="6.48232">
        <ele>1617.46</ele>
        <time>2018-09-22T10:37:14Z</time>
      </trkpt>
      <trkpt lat="45.95316" lon="6.48228">
        <ele>1617.47</ele>
        <time>2018-09-22T10:37:15Z</time>
      </trkpt>
      <trkpt lat="45.95311" lon="6.48225">
        <ele>1616.87</ele>
        <time>2018-09-22T10:37:16Z</time>
      </trkpt>
      <trkpt lat="45.95305" lon="6.48223">
        <ele>1616.31</ele>
        <time>2018-09-22T10:37:17Z</time>
      </trkpt>
      <trkpt lat="45.95299" lon="6.4822">
        <ele>1616.06</ele>
        <time>2018-09-22T10:37:18Z</time>
      </trkpt>
      <trkpt lat="45.95247" lon="6.48186">
        <ele>1612.44</ele>
        <time>2018-09-22T10:37:26Z</time>
      </trkpt>
      <trkpt lat="45.95228" lon="6.48172">
        <ele>1610.93</ele>
        <time>2018-09-22T10:37:29Z</time>
      </trkpt>
      <trkpt lat="45.95221" lon="6.4817">
        <ele>1611.22</ele>
        <time>2018-09-22T10:37:30Z</time>
      </trkpt>
      <trkpt lat="45.95214" lon="6.48171">
        <ele>1610.72</ele>
        <time>2018-09-22T10:37:31Z</time>
      </trkpt>
      <trkpt lat="45.95207" lon="6.48174">
        <ele>1610.41</ele>
        <time>2018-09-22T10:37:32Z</time>
      </trkpt>
      <trkpt lat="45.95201" lon="6.48179">
        <ele>1609.61</ele>
        <time>2018-09-22T10:37:33Z</time>
      </trkpt>
      <trkpt lat="45.95195" lon="6.48185">
        <ele>1609.11</ele>
        <time>2018-09-22T10:37:34Z</time>
      </trkpt>
      <trkpt lat="45.95182" lon="6.48194">
        <ele>1608.87</ele>
        <time>2018-09-22T10:37:36Z</time>
      </trkpt>
      <trkpt lat="45.95175" lon="6.48196">
        <ele>1609.03</ele>
        <time>2018-09-22T10:37:37Z</time>
      </trkpt>
      <trkpt lat="45.95157" lon="6.48202">
        <ele>1608.2</ele>
        <time>2018-09-22T10:37:40Z</time>
      </trkpt>
      <trkpt lat="45.95151" lon="6.48206">
        <ele>1607.65</ele>
        <time>2018-09-22T10:37:41Z</time>
      </trkpt>
      <trkpt lat="45.95146" lon="6.48212">
        <ele>1607.25</ele>
        <time>2018-09-22T10:37:42Z</time>
      </trkpt>
      <trkpt lat="45.95142" lon="6.4822">
        <ele>1606.76</ele>
        <time>2018-09-22T10:37:43Z</time>
      </trkpt>
      <trkpt lat="45.95138" lon="6.48228">
        <ele>1605.91</ele>
        <time>2018-09-22T10:37:44Z</time>
      </trkpt>
      <trkpt lat="45.95133" lon="6.48235">
        <ele>1605.71</ele>
        <time>2018-09-22T10:37:45Z</time>
      </trkpt>
      <trkpt lat="45.95124" lon="6.4825">
        <ele>1604.39</ele>
        <time>2018-09-22T10:37:47Z</time>
      </trkpt>
      <trkpt lat="45.95098" lon="6.48279">
        <ele>1603.14</ele>
        <time>2018-09-22T10:37:52Z</time>
      </trkpt>
      <trkpt lat="45.95093" lon="6.48281">
        <ele>1602.58</ele>
        <time>2018-09-22T10:37:53Z</time>
      </trkpt>
      <trkpt lat="45.95087" lon="6.48282">
        <ele>1602.03</ele>
        <time>2018-09-22T10:37:54Z</time>
      </trkpt>
      <trkpt lat="45.95082" lon="6.4828">
        <ele>1601.21</ele>
        <time>2018-09-22T10:37:55Z</time>
      </trkpt>
      <trkpt lat="45.95078" lon="6.48278">
        <ele>1601.17</ele>
        <time>2018-09-22T10:37:56Z</time>
      </trkpt>
      <trkpt lat="45.95073" lon="6.48276">
        <ele>1600.56</ele>
        <time>2018-09-22T10:37:57Z</time>
      </trkpt>
      <trkpt lat="45.95069" lon="6.48274">
        <ele>1600.32</ele>
        <time>2018-09-22T10:37:58Z</time>
      </trkpt>
      <trkpt lat="45.95064" lon="6.48272">
        <ele>1600.54</ele>
        <time>2018-09-22T10:37:59Z</time>
      </trkpt>
      <trkpt lat="45.95059" lon="6.48271">
        <ele>1600.05</ele>
        <time>2018-09-22T10:38:00Z</time>
      </trkpt>
      <trkpt lat="45.95047" lon="6.48264">
        <ele>1599.26</ele>
        <time>2018-09-22T10:38:03Z</time>
      </trkpt>
      <trkpt lat="45.95044" lon="6.4826">
        <ele>1598.88</ele>
        <time>2018-09-22T10:38:04Z</time>
      </trkpt>
      <trkpt lat="45.95028" lon="6.48225">
        <ele>1600.47</ele>
        <time>2018-09-22T10:38:15Z</time>
      </trkpt>
      <trkpt lat="45.95027" lon="6.4822">
        <ele>1600.6</ele>
        <time>2018-09-22T10:38:17Z</time>
      </trkpt>
      <trkpt lat="45.95026" lon="6.48218">
        <ele>1601.27</ele>
        <time>2018-09-22T10:38:18Z</time>
      </trkpt>
      <trkpt lat="45.95024" lon="6.48216">
        <ele>1601.17</ele>
        <time>2018-09-22T10:38:19Z</time>
      </trkpt>
      <trkpt lat="45.95023" lon="6.48214">
        <ele>1601.54</ele>
        <time>2018-09-22T10:38:20Z</time>
      </trkpt>
      <trkpt lat="45.95022" lon="6.48212">
        <ele>1601.8</ele>
        <time>2018-09-22T10:38:21Z</time>
      </trkpt>
      <trkpt lat="45.95006" lon="6.48185">
        <ele>1603.41</ele>
        <time>2018-09-22T10:38:37Z</time>
      </trkpt>
      <trkpt lat="45.94986" lon="6.48155">
        <ele>1603.86</ele>
        <time>2018-09-22T10:38:51Z</time>
      </trkpt>
      <trkpt lat="45.94958" lon="6.48118">
        <ele>1603.92</ele>
        <time>2018-09-22T10:39:06Z</time>
      </trkpt>
      <trkpt lat="45.94934" lon="6.48061">
        <ele>1602.45</ele>
        <time>2018-09-22T10:39:19Z</time>
      </trkpt>
      <trkpt lat="45.9493" lon="6.48029">
        <ele>1601.3</ele>
        <time>2018-09-22T10:39:23Z</time>
      </trkpt>
      <trkpt lat="45.94929" lon="6.48022">
        <ele>1601.43</ele>
        <time>2018-09-22T10:39:24Z</time>
      </trkpt>
      <trkpt lat="45.94927" lon="6.48015">
        <ele>1601.77</ele>
        <time>2018-09-22T10:39:25Z</time>
      </trkpt>
      <trkpt lat="45.94925" lon="6.4801">
        <ele>1602.32</ele>
        <time>2018-09-22T10:39:26Z</time>
      </trkpt>
      <trkpt lat="45.94923" lon="6.48006">
        <ele>1602.93</ele>
        <time>2018-09-22T10:39:27Z</time>
      </trkpt>
      <trkpt lat="45.94919" lon="6.48">
        <ele>1603.9</ele>
        <time>2018-09-22T10:39:29Z</time>
      </trkpt>
      <trkpt lat="45.94903" lon="6.47971">
        <ele>1607.35</ele>
        <time>2018-09-22T10:39:40Z</time>
      </trkpt>
      <trkpt lat="45.94896" lon="6.47925">
        <ele>1610.63</ele>
        <time>2018-09-22T10:39:56Z</time>
      </trkpt>
      <trkpt lat="45.94898" lon="6.47872">
        <ele>1613.26</ele>
        <time>2018-09-22T10:40:15Z</time>
      </trkpt>
      <trkpt lat="45.94904" lon="6.47826">
        <ele>1616.03</ele>
        <time>2018-09-22T10:40:34Z</time>
      </trkpt>
      <trkpt lat="45.94901" lon="6.47775">
        <ele>1619.3</ele>
        <time>2018-09-22T10:40:54Z</time>
      </trkpt>
      <trkpt lat="45.94908" lon="6.47734">
        <ele>1620.76</ele>
        <time>2018-09-22T10:41:12Z</time>
      </trkpt>
      <trkpt lat="45.94914" lon="6.477">
        <ele>1623.83</ele>
        <time>2018-09-22T10:41:27Z</time>
      </trkpt>
      <trkpt lat="45.94921" lon="6.47675">
        <ele>1627</ele>
        <time>2018-09-22T10:41:40Z</time>
      </trkpt>
      <trkpt lat="45.94928" lon="6.47652">
        <ele>1630.08</ele>
        <time>2018-09-22T10:41:52Z</time>
      </trkpt>
      <trkpt lat="45.94929" lon="6.47628">
        <ele>1633.24</ele>
        <time>2018-09-22T10:42:03Z</time>
      </trkpt>
      <trkpt lat="45.94934" lon="6.47609">
        <ele>1634.5</ele>
        <time>2018-09-22T10:42:14Z</time>
      </trkpt>
      <trkpt lat="45.94954" lon="6.47586">
        <ele>1637.62</ele>
        <time>2018-09-22T10:42:32Z</time>
      </trkpt>
      <trkpt lat="45.94969" lon="6.47558">
        <ele>1640.63</ele>
        <time>2018-09-22T10:42:49Z</time>
      </trkpt>
      <trkpt lat="45.94978" lon="6.47526">
        <ele>1642.53</ele>
        <time>2018-09-22T10:43:06Z</time>
      </trkpt>
      <trkpt lat="45.94989" lon="6.47493">
        <ele>1643.51</ele>
        <time>2018-09-22T10:43:23Z</time>
      </trkpt>
      <trkpt lat="45.95003" lon="6.47451">
        <ele>1645.83</ele>
        <time>2018-09-22T10:43:44Z</time>
      </trkpt>
      <trkpt lat="45.95026" lon="6.47413">
        <ele>1647.17</ele>
        <time>2018-09-22T10:44:07Z</time>
      </trkpt>
      <trkpt lat="45.9505" lon="6.4738">
        <ele>1649.34</ele>
        <time>2018-09-22T10:44:26Z</time>
      </trkpt>
      <trkpt lat="45.95069" lon="6.47356">
        <ele>1652.64</ele>
        <time>2018-09-22T10:44:34Z</time>
      </trkpt>
      <trkpt lat="45.95071" lon="6.47353">
        <ele>1652.88</ele>
        <time>2018-09-22T10:44:35Z</time>
      </trkpt>
      <trkpt lat="45.95086" lon="6.47336">
        <ele>1655.75</ele>
        <time>2018-09-22T10:44:41Z</time>
      </trkpt>
      <trkpt lat="45.95092" lon="6.47327">
        <ele>1657.23</ele>
        <time>2018-09-22T10:44:44Z</time>
      </trkpt>
      <trkpt lat="45.95112" lon="6.47306">
        <ele>1660.39</ele>
        <time>2018-09-22T10:44:56Z</time>
      </trkpt>
      <trkpt lat="45.95143" lon="6.4731">
        <ele>1662.28</ele>
        <time>2018-09-22T10:45:14Z</time>
      </trkpt>
      <trkpt lat="45.95175" lon="6.47303">
        <ele>1664.5</ele>
        <time>2018-09-22T10:45:33Z</time>
      </trkpt>
      <trkpt lat="45.95181" lon="6.47299">
        <ele>1664.18</ele>
        <time>2018-09-22T10:45:37Z</time>
      </trkpt>
      <trkpt lat="45.95181" lon="6.47298">
        <ele>1664.5</ele>
        <time>2018-09-22T10:45:51Z</time>
      </trkpt>
      <trkpt lat="45.9518" lon="6.47298">
        <ele>1664.95</ele>
        <time>2018-09-22T10:46:46Z</time>
      </trkpt>
      <trkpt lat="45.95183" lon="6.47295">
        <ele>1664.52</ele>
        <time>2018-09-22T10:47:30Z</time>
      </trkpt>
      <trkpt lat="45.95184" lon="6.47293">
        <ele>1664.57</ele>
        <time>2018-09-22T10:47:31Z</time>
      </trkpt>
      <trkpt lat="45.95186" lon="6.47292">
        <ele>1664.53</ele>
        <time>2018-09-22T10:47:32Z</time>
      </trkpt>
      <trkpt lat="45.95187" lon="6.4729">
        <ele>1664.56</ele>
        <time>2018-09-22T10:47:33Z</time>
      </trkpt>
      <trkpt lat="45.95189" lon="6.47289">
        <ele>1664.68</ele>
        <time>2018-09-22T10:47:34Z</time>
      </trkpt>
      <trkpt lat="45.9519" lon="6.47288">
        <ele>1664.57</ele>
        <time>2018-09-22T10:47:35Z</time>
      </trkpt>
      <trkpt lat="45.95191" lon="6.47287">
        <ele>1664.7</ele>
        <time>2018-09-22T10:47:36Z</time>
      </trkpt>
      <trkpt lat="45.95193" lon="6.47286">
        <ele>1664.85</ele>
        <time>2018-09-22T10:47:37Z</time>
      </trkpt>
      <trkpt lat="45.95195" lon="6.47285">
        <ele>1664.41</ele>
        <time>2018-09-22T10:47:38Z</time>
      </trkpt>
      <trkpt lat="45.95222" lon="6.47257">
        <ele>1667.48</ele>
        <time>2018-09-22T10:47:52Z</time>
      </trkpt>
      <trkpt lat="45.95226" lon="6.47254">
        <ele>1667.61</ele>
        <time>2018-09-22T10:47:53Z</time>
      </trkpt>
      <trkpt lat="45.95229" lon="6.47251">
        <ele>1667.94</ele>
        <time>2018-09-22T10:47:54Z</time>
      </trkpt>
      <trkpt lat="45.95232" lon="6.4725">
        <ele>1668.17</ele>
        <time>2018-09-22T10:47:55Z</time>
      </trkpt>
      <trkpt lat="45.95235" lon="6.47249">
        <ele>1668.24</ele>
        <time>2018-09-22T10:47:56Z</time>
      </trkpt>
      <trkpt lat="45.95237" lon="6.47249">
        <ele>1668.7</ele>
        <time>2018-09-22T10:47:57Z</time>
      </trkpt>
      <trkpt lat="45.9524" lon="6.47249">
        <ele>1669.48</ele>
        <time>2018-09-22T10:47:58Z</time>
      </trkpt>
      <trkpt lat="45.95276" lon="6.47244">
        <ele>1670.83</ele>
        <time>2018-09-22T10:48:16Z</time>
      </trkpt>
      <trkpt lat="45.95306" lon="6.47227">
        <ele>1674.07</ele>
        <time>2018-09-22T10:48:33Z</time>
      </trkpt>
      <trkpt lat="45.95332" lon="6.47183">
        <ele>1675.99</ele>
        <time>2018-09-22T10:48:54Z</time>
      </trkpt>
      <trkpt lat="45.95338" lon="6.47162">
        <ele>1675.14</ele>
        <time>2018-09-22T10:48:59Z</time>
      </trkpt>
      <trkpt lat="45.95342" lon="6.47152">
        <ele>1675.22</ele>
        <time>2018-09-22T10:49:01Z</time>
      </trkpt>
      <trkpt lat="45.95345" lon="6.47147">
        <ele>1674.98</ele>
        <time>2018-09-22T10:49:02Z</time>
      </trkpt>
      <trkpt lat="45.95347" lon="6.47144">
        <ele>1675.5</ele>
        <time>2018-09-22T10:49:03Z</time>
      </trkpt>
      <trkpt lat="45.95349" lon="6.47142">
        <ele>1676.06</ele>
        <time>2018-09-22T10:49:04Z</time>
      </trkpt>
      <trkpt lat="45.9535" lon="6.4714">
        <ele>1676.23</ele>
        <time>2018-09-22T10:49:05Z</time>
      </trkpt>
      <trkpt lat="45.95365" lon="6.47108">
        <ele>1679.65</ele>
        <time>2018-09-22T10:49:17Z</time>
      </trkpt>
      <trkpt lat="45.95378" lon="6.47061">
        <ele>1682.62</ele>
        <time>2018-09-22T10:49:35Z</time>
      </trkpt>
      <trkpt lat="45.95392" lon="6.47024">
        <ele>1683.95</ele>
        <time>2018-09-22T10:49:51Z</time>
      </trkpt>
      <trkpt lat="45.95408" lon="6.46998">
        <ele>1683.39</ele>
        <time>2018-09-22T10:50:06Z</time>
      </trkpt>
      <trkpt lat="45.95408" lon="6.46998">
        <ele>1682.96</ele>
        <time>2018-09-22T10:50:35Z</time>
      </trkpt>
      <trkpt lat="45.95408" lon="6.46999">
        <ele>1683</ele>
        <time>2018-09-22T10:51:05Z</time>
      </trkpt>
      <trkpt lat="45.95422" lon="6.46991">
        <ele>1682.1</ele>
        <time>2018-09-22T10:51:21Z</time>
      </trkpt>
      <trkpt lat="45.9545" lon="6.46986">
        <ele>1680.2</ele>
        <time>2018-09-22T10:51:34Z</time>
      </trkpt>
      <trkpt lat="45.95452" lon="6.46984">
        <ele>1680.08</ele>
        <time>2018-09-22T10:51:35Z</time>
      </trkpt>
      <trkpt lat="45.95452" lon="6.46982">
        <ele>1679.28</ele>
        <time>2018-09-22T10:51:36Z</time>
      </trkpt>
      <trkpt lat="45.95452" lon="6.46979">
        <ele>1679.2</ele>
        <time>2018-09-22T10:51:37Z</time>
      </trkpt>
      <trkpt lat="45.95442" lon="6.46956">
        <ele>1676.72</ele>
        <time>2018-09-22T10:51:50Z</time>
      </trkpt>
      <trkpt lat="45.95431" lon="6.46926">
        <ele>1673.7</ele>
        <time>2018-09-22T10:52:00Z</time>
      </trkpt>
      <trkpt lat="45.9542" lon="6.46888">
        <ele>1671.05</ele>
        <time>2018-09-22T10:52:12Z</time>
      </trkpt>
      <trkpt lat="45.9542" lon="6.46883">
        <ele>1671.1</ele>
        <time>2018-09-22T10:52:13Z</time>
      </trkpt>
      <trkpt lat="45.95422" lon="6.46878">
        <ele>1670.44</ele>
        <time>2018-09-22T10:52:14Z</time>
      </trkpt>
      <trkpt lat="45.95425" lon="6.46876">
        <ele>1669.87</ele>
        <time>2018-09-22T10:52:15Z</time>
      </trkpt>
      <trkpt lat="45.9543" lon="6.46875">
        <ele>1669.24</ele>
        <time>2018-09-22T10:52:16Z</time>
      </trkpt>
      <trkpt lat="45.95435" lon="6.46876">
        <ele>1668.55</ele>
        <time>2018-09-22T10:52:17Z</time>
      </trkpt>
      <trkpt lat="45.9544" lon="6.46878">
        <ele>1667.94</ele>
        <time>2018-09-22T10:52:18Z</time>
      </trkpt>
      <trkpt lat="45.95445" lon="6.46881">
        <ele>1666.66</ele>
        <time>2018-09-22T10:52:19Z</time>
      </trkpt>
      <trkpt lat="45.95456" lon="6.46886">
        <ele>1665.85</ele>
        <time>2018-09-22T10:52:21Z</time>
      </trkpt>
      <trkpt lat="45.95474" lon="6.46895">
        <ele>1662.63</ele>
        <time>2018-09-22T10:52:25Z</time>
      </trkpt>
      <trkpt lat="45.95491" lon="6.46905">
        <ele>1660.32</ele>
        <time>2018-09-22T10:52:28Z</time>
      </trkpt>
      <trkpt lat="45.95497" lon="6.46909">
        <ele>1659.71</ele>
        <time>2018-09-22T10:52:29Z</time>
      </trkpt>
      <trkpt lat="45.95503" lon="6.46914">
        <ele>1659.19</ele>
        <time>2018-09-22T10:52:30Z</time>
      </trkpt>
      <trkpt lat="45.95509" lon="6.46915">
        <ele>1659.25</ele>
        <time>2018-09-22T10:52:31Z</time>
      </trkpt>
      <trkpt lat="45.95513" lon="6.46912">
        <ele>1657.99</ele>
        <time>2018-09-22T10:52:32Z</time>
      </trkpt>
      <trkpt lat="45.95514" lon="6.46905">
        <ele>1657.72</ele>
        <time>2018-09-22T10:52:33Z</time>
      </trkpt>
      <trkpt lat="45.95512" lon="6.46897">
        <ele>1657.22</ele>
        <time>2018-09-22T10:52:34Z</time>
      </trkpt>
      <trkpt lat="45.95508" lon="6.46889">
        <ele>1656.48</ele>
        <time>2018-09-22T10:52:35Z</time>
      </trkpt>
      <trkpt lat="45.95503" lon="6.46883">
        <ele>1655.23</ele>
        <time>2018-09-22T10:52:36Z</time>
      </trkpt>
      <trkpt lat="45.95499" lon="6.46876">
        <ele>1653.69</ele>
        <time>2018-09-22T10:52:37Z</time>
      </trkpt>
      <trkpt lat="45.95497" lon="6.46867">
        <ele>1652.65</ele>
        <time>2018-09-22T10:52:38Z</time>
      </trkpt>
      <trkpt lat="45.95497" lon="6.46857">
        <ele>1650.96</ele>
        <time>2018-09-22T10:52:39Z</time>
      </trkpt>
      <trkpt lat="45.95496" lon="6.46847">
        <ele>1650.04</ele>
        <time>2018-09-22T10:52:40Z</time>
      </trkpt>
      <trkpt lat="45.95494" lon="6.46839">
        <ele>1649.28</ele>
        <time>2018-09-22T10:52:41Z</time>
      </trkpt>
      <trkpt lat="45.95492" lon="6.46831">
        <ele>1647.9</ele>
        <time>2018-09-22T10:52:42Z</time>
      </trkpt>
      <trkpt lat="45.9549" lon="6.46824">
        <ele>1647.43</ele>
        <time>2018-09-22T10:52:43Z</time>
      </trkpt>
      <trkpt lat="45.95491" lon="6.46817">
        <ele>1646.68</ele>
        <time>2018-09-22T10:52:44Z</time>
      </trkpt>
      <trkpt lat="45.95494" lon="6.46812">
        <ele>1645.93</ele>
        <time>2018-09-22T10:52:45Z</time>
      </trkpt>
      <trkpt lat="45.95498" lon="6.46809">
        <ele>1644.79</ele>
        <time>2018-09-22T10:52:46Z</time>
      </trkpt>
      <trkpt lat="45.95502" lon="6.46809">
        <ele>1643.78</ele>
        <time>2018-09-22T10:52:47Z</time>
      </trkpt>
      <trkpt lat="45.95507" lon="6.46812">
        <ele>1643.08</ele>
        <time>2018-09-22T10:52:48Z</time>
      </trkpt>
      <trkpt lat="45.95511" lon="6.46816">
        <ele>1642.29</ele>
        <time>2018-09-22T10:52:49Z</time>
      </trkpt>
      <trkpt lat="45.95516" lon="6.4682">
        <ele>1641.62</ele>
        <time>2018-09-22T10:52:50Z</time>
      </trkpt>
      <trkpt lat="45.95522" lon="6.46823">
        <ele>1641.24</ele>
        <time>2018-09-22T10:52:51Z</time>
      </trkpt>
      <trkpt lat="45.95535" lon="6.46829">
        <ele>1639.62</ele>
        <time>2018-09-22T10:52:53Z</time>
      </trkpt>
      <trkpt lat="45.95548" lon="6.46834">
        <ele>1637.96</ele>
        <time>2018-09-22T10:52:55Z</time>
      </trkpt>
      <trkpt lat="45.95554" lon="6.46831">
        <ele>1636.59</ele>
        <time>2018-09-22T10:52:56Z</time>
      </trkpt>
      <trkpt lat="45.95556" lon="6.46825">
        <ele>1636.31</ele>
        <time>2018-09-22T10:52:57Z</time>
      </trkpt>
      <trkpt lat="45.95556" lon="6.46819">
        <ele>1634.82</ele>
        <time>2018-09-22T10:52:58Z</time>
      </trkpt>
      <trkpt lat="45.95554" lon="6.46813">
        <ele>1634.19</ele>
        <time>2018-09-22T10:52:59Z</time>
      </trkpt>
      <trkpt lat="45.95551" lon="6.46808">
        <ele>1633.26</ele>
        <time>2018-09-22T10:53:00Z</time>
      </trkpt>
      <trkpt lat="45.9555" lon="6.46801">
        <ele>1633.23</ele>
        <time>2018-09-22T10:53:01Z</time>
      </trkpt>
      <trkpt lat="45.95551" lon="6.46793">
        <ele>1631.93</ele>
        <time>2018-09-22T10:53:02Z</time>
      </trkpt>
      <trkpt lat="45.95554" lon="6.46786">
        <ele>1631.19</ele>
        <time>2018-09-22T10:53:03Z</time>
      </trkpt>
      <trkpt lat="45.95558" lon="6.46779">
        <ele>1629.87</ele>
        <time>2018-09-22T10:53:04Z</time>
      </trkpt>
      <trkpt lat="45.95563" lon="6.46773">
        <ele>1629.11</ele>
        <time>2018-09-22T10:53:05Z</time>
      </trkpt>
      <trkpt lat="45.95567" lon="6.46765">
        <ele>1628.56</ele>
        <time>2018-09-22T10:53:06Z</time>
      </trkpt>
      <trkpt lat="45.9557" lon="6.46757">
        <ele>1626.82</ele>
        <time>2018-09-22T10:53:07Z</time>
      </trkpt>
      <trkpt lat="45.95572" lon="6.46748">
        <ele>1626.67</ele>
        <time>2018-09-22T10:53:08Z</time>
      </trkpt>
      <trkpt lat="45.95572" lon="6.4674">
        <ele>1625.25</ele>
        <time>2018-09-22T10:53:09Z</time>
      </trkpt>
      <trkpt lat="45.9557" lon="6.46732">
        <ele>1624.26</ele>
        <time>2018-09-22T10:53:10Z</time>
      </trkpt>
      <trkpt lat="45.95568" lon="6.46725">
        <ele>1622.61</ele>
        <time>2018-09-22T10:53:11Z</time>
      </trkpt>
      <trkpt lat="45.95568" lon="6.46718">
        <ele>1621.85</ele>
        <time>2018-09-22T10:53:12Z</time>
      </trkpt>
      <trkpt lat="45.95571" lon="6.46711">
        <ele>1620.61</ele>
        <time>2018-09-22T10:53:13Z</time>
      </trkpt>
      <trkpt lat="45.95574" lon="6.46704">
        <ele>1619.57</ele>
        <time>2018-09-22T10:53:14Z</time>
      </trkpt>
      <trkpt lat="45.95579" lon="6.46697">
        <ele>1618.4</ele>
        <time>2018-09-22T10:53:15Z</time>
      </trkpt>
      <trkpt lat="45.95583" lon="6.46689">
        <ele>1617.68</ele>
        <time>2018-09-22T10:53:16Z</time>
      </trkpt>
      <trkpt lat="45.95596" lon="6.46665">
        <ele>1614.52</ele>
        <time>2018-09-22T10:53:19Z</time>
      </trkpt>
      <trkpt lat="45.9561" lon="6.46641">
        <ele>1610.75</ele>
        <time>2018-09-22T10:53:22Z</time>
      </trkpt>
      <trkpt lat="45.95616" lon="6.46634">
        <ele>1609.75</ele>
        <time>2018-09-22T10:53:23Z</time>
      </trkpt>
      <trkpt lat="45.95622" lon="6.46628">
        <ele>1608.4</ele>
        <time>2018-09-22T10:53:24Z</time>
      </trkpt>
      <trkpt lat="45.95628" lon="6.46625">
        <ele>1607.99</ele>
        <time>2018-09-22T10:53:25Z</time>
      </trkpt>
      <trkpt lat="45.95634" lon="6.46625">
        <ele>1606.12</ele>
        <time>2018-09-22T10:53:26Z</time>
      </trkpt>
      <trkpt lat="45.95639" lon="6.46627">
        <ele>1606.15</ele>
        <time>2018-09-22T10:53:27Z</time>
      </trkpt>
      <trkpt lat="45.95645" lon="6.4663">
        <ele>1605.79</ele>
        <time>2018-09-22T10:53:28Z</time>
      </trkpt>
      <trkpt lat="45.95651" lon="6.46631">
        <ele>1604.47</ele>
        <time>2018-09-22T10:53:29Z</time>
      </trkpt>
      <trkpt lat="45.95658" lon="6.4663">
        <ele>1603.95</ele>
        <time>2018-09-22T10:53:30Z</time>
      </trkpt>
      <trkpt lat="45.95665" lon="6.46629">
        <ele>1602.54</ele>
        <time>2018-09-22T10:53:31Z</time>
      </trkpt>
      <trkpt lat="45.95671" lon="6.46627">
        <ele>1601.75</ele>
        <time>2018-09-22T10:53:32Z</time>
      </trkpt>
      <trkpt lat="45.95677" lon="6.46623">
        <ele>1601.74</ele>
        <time>2018-09-22T10:53:33Z</time>
      </trkpt>
      <trkpt lat="45.95681" lon="6.46616">
        <ele>1600.32</ele>
        <time>2018-09-22T10:53:34Z</time>
      </trkpt>
      <trkpt lat="45.95684" lon="6.46608">
        <ele>1599.35</ele>
        <time>2018-09-22T10:53:35Z</time>
      </trkpt>
      <trkpt lat="45.95684" lon="6.466">
        <ele>1598.47</ele>
        <time>2018-09-22T10:53:36Z</time>
      </trkpt>
      <trkpt lat="45.95683" lon="6.46592">
        <ele>1597.7</ele>
        <time>2018-09-22T10:53:37Z</time>
      </trkpt>
      <trkpt lat="45.9568" lon="6.46586">
        <ele>1597.09</ele>
        <time>2018-09-22T10:53:38Z</time>
      </trkpt>
      <trkpt lat="45.95676" lon="6.46581">
        <ele>1596.18</ele>
        <time>2018-09-22T10:53:39Z</time>
      </trkpt>
      <trkpt lat="45.95672" lon="6.46578">
        <ele>1595.08</ele>
        <time>2018-09-22T10:53:40Z</time>
      </trkpt>
      <trkpt lat="45.95669" lon="6.46574">
        <ele>1594.78</ele>
        <time>2018-09-22T10:53:41Z</time>
      </trkpt>
      <trkpt lat="45.95644" lon="6.46562">
        <ele>1591.55</ele>
        <time>2018-09-22T10:53:48Z</time>
      </trkpt>
      <trkpt lat="45.9564" lon="6.4656">
        <ele>1591.32</ele>
        <time>2018-09-22T10:53:49Z</time>
      </trkpt>
      <trkpt lat="45.95635" lon="6.46558">
        <ele>1590.71</ele>
        <time>2018-09-22T10:53:50Z</time>
      </trkpt>
      <trkpt lat="45.95633" lon="6.46554">
        <ele>1590.03</ele>
        <time>2018-09-22T10:53:51Z</time>
      </trkpt>
      <trkpt lat="45.95631" lon="6.46549">
        <ele>1589.27</ele>
        <time>2018-09-22T10:53:52Z</time>
      </trkpt>
      <trkpt lat="45.95631" lon="6.46545">
        <ele>1589.09</ele>
        <time>2018-09-22T10:53:53Z</time>
      </trkpt>
      <trkpt lat="45.95632" lon="6.46541">
        <ele>1588.54</ele>
        <time>2018-09-22T10:53:54Z</time>
      </trkpt>
      <trkpt lat="45.95633" lon="6.46537">
        <ele>1587.81</ele>
        <time>2018-09-22T10:53:55Z</time>
      </trkpt>
      <trkpt lat="45.95635" lon="6.46534">
        <ele>1587.75</ele>
        <time>2018-09-22T10:53:56Z</time>
      </trkpt>
      <trkpt lat="45.95635" lon="6.46531">
        <ele>1586.92</ele>
        <time>2018-09-22T10:54:06Z</time>
      </trkpt>
      <trkpt lat="45.95635" lon="6.46531">
        <ele>1587.29</ele>
        <time>2018-09-22T10:55:03Z</time>
      </trkpt>
      <trkpt lat="45.95635" lon="6.46531">
        <ele>1587.52</ele>
        <time>2018-09-22T10:55:59Z</time>
      </trkpt>
      <trkpt lat="45.95635" lon="6.46532">
        <ele>1586.92</ele>
        <time>2018-09-22T10:56:45Z</time>
      </trkpt>
      <trkpt lat="45.95636" lon="6.4653">
        <ele>1586.77</ele>
        <time>2018-09-22T10:57:00Z</time>
      </trkpt>
      <trkpt lat="45.95639" lon="6.46527">
        <ele>1586.94</ele>
        <time>2018-09-22T10:57:03Z</time>
      </trkpt>
      <trkpt lat="45.95641" lon="6.46524">
        <ele>1586.36</ele>
        <time>2018-09-22T10:57:04Z</time>
      </trkpt>
      <trkpt lat="45.95643" lon="6.4652">
        <ele>1586.29</ele>
        <time>2018-09-22T10:57:05Z</time>
      </trkpt>
      <trkpt lat="45.95646" lon="6.46515">
        <ele>1585.33</ele>
        <time>2018-09-22T10:57:06Z</time>
      </trkpt>
      <trkpt lat="45.95648" lon="6.46509">
        <ele>1585.11</ele>
        <time>2018-09-22T10:57:07Z</time>
      </trkpt>
      <trkpt lat="45.9565" lon="6.46502">
        <ele>1584.39</ele>
        <time>2018-09-22T10:57:08Z</time>
      </trkpt>
      <trkpt lat="45.95651" lon="6.46494">
        <ele>1583.91</ele>
        <time>2018-09-22T10:57:09Z</time>
      </trkpt>
      <trkpt lat="45.95652" lon="6.46486">
        <ele>1583.19</ele>
        <time>2018-09-22T10:57:10Z</time>
      </trkpt>
      <trkpt lat="45.95652" lon="6.46477">
        <ele>1582.37</ele>
        <time>2018-09-22T10:57:11Z</time>
      </trkpt>
      <trkpt lat="45.95651" lon="6.46468">
        <ele>1581.93</ele>
        <time>2018-09-22T10:57:12Z</time>
      </trkpt>
      <trkpt lat="45.95649" lon="6.46459">
        <ele>1581.08</ele>
        <time>2018-09-22T10:57:13Z</time>
      </trkpt>
      <trkpt lat="45.95646" lon="6.46441">
        <ele>1580.19</ele>
        <time>2018-09-22T10:57:15Z</time>
      </trkpt>
      <trkpt lat="45.95646" lon="6.46431">
        <ele>1579.19</ele>
        <time>2018-09-22T10:57:16Z</time>
      </trkpt>
      <trkpt lat="45.95647" lon="6.46421">
        <ele>1577.97</ele>
        <time>2018-09-22T10:57:17Z</time>
      </trkpt>
      <trkpt lat="45.95648" lon="6.46411">
        <ele>1577.13</ele>
        <time>2018-09-22T10:57:18Z</time>
      </trkpt>
      <trkpt lat="45.95651" lon="6.46401">
        <ele>1575.92</ele>
        <time>2018-09-22T10:57:19Z</time>
      </trkpt>
      <trkpt lat="45.95654" lon="6.46393">
        <ele>1574.89</ele>
        <time>2018-09-22T10:57:20Z</time>
      </trkpt>
      <trkpt lat="45.95657" lon="6.46385">
        <ele>1573.71</ele>
        <time>2018-09-22T10:57:21Z</time>
      </trkpt>
      <trkpt lat="45.9566" lon="6.46379">
        <ele>1573.14</ele>
        <time>2018-09-22T10:57:22Z</time>
      </trkpt>
      <trkpt lat="45.95665" lon="6.46374">
        <ele>1572.48</ele>
        <time>2018-09-22T10:57:23Z</time>
      </trkpt>
      <trkpt lat="45.95669" lon="6.4637">
        <ele>1571.93</ele>
        <time>2018-09-22T10:57:24Z</time>
      </trkpt>
      <trkpt lat="45.95675" lon="6.46368">
        <ele>1570.3</ele>
        <time>2018-09-22T10:57:25Z</time>
      </trkpt>
      <trkpt lat="45.95681" lon="6.46367">
        <ele>1569.1</ele>
        <time>2018-09-22T10:57:26Z</time>
      </trkpt>
      <trkpt lat="45.95687" lon="6.46367">
        <ele>1567.81</ele>
        <time>2018-09-22T10:57:27Z</time>
      </trkpt>
      <trkpt lat="45.95703" lon="6.46367">
        <ele>1564.43</ele>
        <time>2018-09-22T10:57:30Z</time>
      </trkpt>
      <trkpt lat="45.95714" lon="6.46369">
        <ele>1561.4</ele>
        <time>2018-09-22T10:57:32Z</time>
      </trkpt>
      <trkpt lat="45.9573" lon="6.46371">
        <ele>1557.07</ele>
        <time>2018-09-22T10:57:35Z</time>
      </trkpt>
      <trkpt lat="45.95734" lon="6.4637">
        <ele>1555.92</ele>
        <time>2018-09-22T10:57:36Z</time>
      </trkpt>
      <trkpt lat="45.95737" lon="6.46367">
        <ele>1555.45</ele>
        <time>2018-09-22T10:57:37Z</time>
      </trkpt>
      <trkpt lat="45.95739" lon="6.46356">
        <ele>1553.87</ele>
        <time>2018-09-22T10:57:39Z</time>
      </trkpt>
      <trkpt lat="45.95739" lon="6.46351">
        <ele>1552.89</ele>
        <time>2018-09-22T10:57:40Z</time>
      </trkpt>
      <trkpt lat="45.95738" lon="6.46345">
        <ele>1551.37</ele>
        <time>2018-09-22T10:57:41Z</time>
      </trkpt>
      <trkpt lat="45.95735" lon="6.46341">
        <ele>1550.93</ele>
        <time>2018-09-22T10:57:42Z</time>
      </trkpt>
      <trkpt lat="45.95732" lon="6.46337">
        <ele>1550.22</ele>
        <time>2018-09-22T10:57:43Z</time>
      </trkpt>
      <trkpt lat="45.95729" lon="6.46335">
        <ele>1549.47</ele>
        <time>2018-09-22T10:57:44Z</time>
      </trkpt>
      <trkpt lat="45.95725" lon="6.46332">
        <ele>1548.83</ele>
        <time>2018-09-22T10:57:45Z</time>
      </trkpt>
      <trkpt lat="45.95716" lon="6.46326">
        <ele>1547.31</ele>
        <time>2018-09-22T10:57:47Z</time>
      </trkpt>
      <trkpt lat="45.95711" lon="6.46322">
        <ele>1546.49</ele>
        <time>2018-09-22T10:57:48Z</time>
      </trkpt>
      <trkpt lat="45.95706" lon="6.46315">
        <ele>1545.75</ele>
        <time>2018-09-22T10:57:49Z</time>
      </trkpt>
      <trkpt lat="45.95701" lon="6.46308">
        <ele>1544.65</ele>
        <time>2018-09-22T10:57:50Z</time>
      </trkpt>
      <trkpt lat="45.95697" lon="6.463">
        <ele>1543.58</ele>
        <time>2018-09-22T10:57:51Z</time>
      </trkpt>
      <trkpt lat="45.95692" lon="6.4629">
        <ele>1542.18</ele>
        <time>2018-09-22T10:57:52Z</time>
      </trkpt>
      <trkpt lat="45.95678" lon="6.46258">
        <ele>1538.69</ele>
        <time>2018-09-22T10:57:55Z</time>
      </trkpt>
      <trkpt lat="45.95664" lon="6.46223">
        <ele>1534.47</ele>
        <time>2018-09-22T10:57:58Z</time>
      </trkpt>
      <trkpt lat="45.95652" lon="6.46191">
        <ele>1530.02</ele>
        <time>2018-09-22T10:58:01Z</time>
      </trkpt>
      <trkpt lat="45.95642" lon="6.46162">
        <ele>1526.42</ele>
        <time>2018-09-22T10:58:04Z</time>
      </trkpt>
      <trkpt lat="45.9564" lon="6.46151">
        <ele>1524.86</ele>
        <time>2018-09-22T10:58:05Z</time>
      </trkpt>
      <trkpt lat="45.9564" lon="6.46139">
        <ele>1523.53</ele>
        <time>2018-09-22T10:58:06Z</time>
      </trkpt>
      <trkpt lat="45.9564" lon="6.46128">
        <ele>1521.69</ele>
        <time>2018-09-22T10:58:07Z</time>
      </trkpt>
      <trkpt lat="45.95641" lon="6.46117">
        <ele>1520.56</ele>
        <time>2018-09-22T10:58:08Z</time>
      </trkpt>
      <trkpt lat="45.95642" lon="6.46099">
        <ele>1517.34</ele>
        <time>2018-09-22T10:58:10Z</time>
      </trkpt>
      <trkpt lat="45.95643" lon="6.46078">
        <ele>1514.33</ele>
        <time>2018-09-22T10:58:13Z</time>
      </trkpt>
      <trkpt lat="45.95644" lon="6.46058">
        <ele>1511.14</ele>
        <time>2018-09-22T10:58:18Z</time>
      </trkpt>
      <trkpt lat="45.95644" lon="6.46052">
        <ele>1511.13</ele>
        <time>2018-09-22T10:58:27Z</time>
      </trkpt>
      <trkpt lat="45.95646" lon="6.46038">
        <ele>1510.6</ele>
        <time>2018-09-22T10:58:57Z</time>
      </trkpt>
      <trkpt lat="45.9565" lon="6.46023">
        <ele>1509.38</ele>
        <time>2018-09-22T10:59:00Z</time>
      </trkpt>
      <trkpt lat="45.95661" lon="6.45984">
        <ele>1505.94</ele>
        <time>2018-09-22T10:59:05Z</time>
      </trkpt>
      <trkpt lat="45.95663" lon="6.45974">
        <ele>1505.86</ele>
        <time>2018-09-22T10:59:06Z</time>
      </trkpt>
      <trkpt lat="45.95666" lon="6.45965">
        <ele>1504.88</ele>
        <time>2018-09-22T10:59:07Z</time>
      </trkpt>
      <trkpt lat="45.9567" lon="6.45956">
        <ele>1504.62</ele>
        <time>2018-09-22T10:59:08Z</time>
      </trkpt>
      <trkpt lat="45.95682" lon="6.45929">
        <ele>1501.83</ele>
        <time>2018-09-22T10:59:11Z</time>
      </trkpt>
      <trkpt lat="45.95688" lon="6.4592">
        <ele>1501.24</ele>
        <time>2018-09-22T10:59:12Z</time>
      </trkpt>
      <trkpt lat="45.95701" lon="6.45902">
        <ele>1499.92</ele>
        <time>2018-09-22T10:59:14Z</time>
      </trkpt>
      <trkpt lat="45.95717" lon="6.45878">
        <ele>1498.08</ele>
        <time>2018-09-22T10:59:17Z</time>
      </trkpt>
      <trkpt lat="45.95721" lon="6.45869">
        <ele>1496.99</ele>
        <time>2018-09-22T10:59:18Z</time>
      </trkpt>
      <trkpt lat="45.95724" lon="6.45858">
        <ele>1495.87</ele>
        <time>2018-09-22T10:59:19Z</time>
      </trkpt>
      <trkpt lat="45.9573" lon="6.45834">
        <ele>1494.28</ele>
        <time>2018-09-22T10:59:21Z</time>
      </trkpt>
      <trkpt lat="45.95734" lon="6.45823">
        <ele>1493.22</ele>
        <time>2018-09-22T10:59:22Z</time>
      </trkpt>
      <trkpt lat="45.95747" lon="6.45787">
        <ele>1489.22</ele>
        <time>2018-09-22T10:59:25Z</time>
      </trkpt>
      <trkpt lat="45.9575" lon="6.45775">
        <ele>1487.81</ele>
        <time>2018-09-22T10:59:26Z</time>
      </trkpt>
      <trkpt lat="45.95751" lon="6.45766">
        <ele>1487.14</ele>
        <time>2018-09-22T10:59:27Z</time>
      </trkpt>
      <trkpt lat="45.9575" lon="6.45757">
        <ele>1486.07</ele>
        <time>2018-09-22T10:59:28Z</time>
      </trkpt>
      <trkpt lat="45.95747" lon="6.45747">
        <ele>1485.8</ele>
        <time>2018-09-22T10:59:29Z</time>
      </trkpt>
      <trkpt lat="45.95743" lon="6.45737">
        <ele>1484.38</ele>
        <time>2018-09-22T10:59:30Z</time>
      </trkpt>
      <trkpt lat="45.95739" lon="6.45726">
        <ele>1483.4</ele>
        <time>2018-09-22T10:59:31Z</time>
      </trkpt>
      <trkpt lat="45.95736" lon="6.45714">
        <ele>1481.71</ele>
        <time>2018-09-22T10:59:32Z</time>
      </trkpt>
      <trkpt lat="45.95729" lon="6.45675">
        <ele>1478.48</ele>
        <time>2018-09-22T10:59:35Z</time>
      </trkpt>
      <trkpt lat="45.95727" lon="6.45662">
        <ele>1477.13</ele>
        <time>2018-09-22T10:59:36Z</time>
      </trkpt>
      <trkpt lat="45.95726" lon="6.45648">
        <ele>1475.97</ele>
        <time>2018-09-22T10:59:37Z</time>
      </trkpt>
      <trkpt lat="45.95727" lon="6.45635">
        <ele>1475.08</ele>
        <time>2018-09-22T10:59:38Z</time>
      </trkpt>
      <trkpt lat="45.95728" lon="6.45622">
        <ele>1473.43</ele>
        <time>2018-09-22T10:59:39Z</time>
      </trkpt>
      <trkpt lat="45.95731" lon="6.45609">
        <ele>1471.99</ele>
        <time>2018-09-22T10:59:40Z</time>
      </trkpt>
      <trkpt lat="45.95735" lon="6.45598">
        <ele>1470.24</ele>
        <time>2018-09-22T10:59:41Z</time>
      </trkpt>
      <trkpt lat="45.95739" lon="6.45589">
        <ele>1469.76</ele>
        <time>2018-09-22T10:59:42Z</time>
      </trkpt>
      <trkpt lat="45.95741" lon="6.4558">
        <ele>1469.2</ele>
        <time>2018-09-22T10:59:43Z</time>
      </trkpt>
      <trkpt lat="45.95742" lon="6.45571">
        <ele>1468.74</ele>
        <time>2018-09-22T10:59:44Z</time>
      </trkpt>
      <trkpt lat="45.95742" lon="6.45562">
        <ele>1468.32</ele>
        <time>2018-09-22T10:59:45Z</time>
      </trkpt>
      <trkpt lat="45.95741" lon="6.45554">
        <ele>1466.82</ele>
        <time>2018-09-22T10:59:46Z</time>
      </trkpt>
      <trkpt lat="45.95741" lon="6.45547">
        <ele>1466.05</ele>
        <time>2018-09-22T10:59:47Z</time>
      </trkpt>
      <trkpt lat="45.95744" lon="6.45541">
        <ele>1464.88</ele>
        <time>2018-09-22T10:59:48Z</time>
      </trkpt>
      <trkpt lat="45.95748" lon="6.45539">
        <ele>1464.07</ele>
        <time>2018-09-22T10:59:49Z</time>
      </trkpt>
      <trkpt lat="45.95753" lon="6.45541">
        <ele>1463.43</ele>
        <time>2018-09-22T10:59:50Z</time>
      </trkpt>
      <trkpt lat="45.95758" lon="6.45547">
        <ele>1463.01</ele>
        <time>2018-09-22T10:59:51Z</time>
      </trkpt>
      <trkpt lat="45.95762" lon="6.45554">
        <ele>1462.61</ele>
        <time>2018-09-22T10:59:52Z</time>
      </trkpt>
      <trkpt lat="45.95772" lon="6.4557">
        <ele>1459.81</ele>
        <time>2018-09-22T10:59:54Z</time>
      </trkpt>
      <trkpt lat="45.95778" lon="6.45577">
        <ele>1459.18</ele>
        <time>2018-09-22T10:59:55Z</time>
      </trkpt>
      <trkpt lat="45.95784" lon="6.4558">
        <ele>1458.17</ele>
        <time>2018-09-22T10:59:56Z</time>
      </trkpt>
      <trkpt lat="45.95791" lon="6.4558">
        <ele>1457.4</ele>
        <time>2018-09-22T10:59:57Z</time>
      </trkpt>
      <trkpt lat="45.95798" lon="6.4558">
        <ele>1456.3</ele>
        <time>2018-09-22T10:59:58Z</time>
      </trkpt>
      <trkpt lat="45.95804" lon="6.45579">
        <ele>1455.89</ele>
        <time>2018-09-22T10:59:59Z</time>
      </trkpt>
      <trkpt lat="45.95821" lon="6.45576">
        <ele>1453.07</ele>
        <time>2018-09-22T11:00:02Z</time>
      </trkpt>
      <trkpt lat="45.95826" lon="6.45577">
        <ele>1452.35</ele>
        <time>2018-09-22T11:00:03Z</time>
      </trkpt>
      <trkpt lat="45.9583" lon="6.4558">
        <ele>1451.51</ele>
        <time>2018-09-22T11:00:04Z</time>
      </trkpt>
      <trkpt lat="45.95834" lon="6.45584">
        <ele>1451.42</ele>
        <time>2018-09-22T11:00:05Z</time>
      </trkpt>
      <trkpt lat="45.95837" lon="6.4559">
        <ele>1450.94</ele>
        <time>2018-09-22T11:00:06Z</time>
      </trkpt>
      <trkpt lat="45.95839" lon="6.45597">
        <ele>1450.8</ele>
        <time>2018-09-22T11:00:07Z</time>
      </trkpt>
      <trkpt lat="45.95842" lon="6.45603">
        <ele>1450.5</ele>
        <time>2018-09-22T11:00:08Z</time>
      </trkpt>
      <trkpt lat="45.95845" lon="6.45607">
        <ele>1450.75</ele>
        <time>2018-09-22T11:00:09Z</time>
      </trkpt>
      <trkpt lat="45.95859" lon="6.45611">
        <ele>1449.06</ele>
        <time>2018-09-22T11:00:12Z</time>
      </trkpt>
      <trkpt lat="45.9589" lon="6.45615">
        <ele>1447.18</ele>
        <time>2018-09-22T11:00:25Z</time>
      </trkpt>
      <trkpt lat="45.95894" lon="6.45615">
        <ele>1446.84</ele>
        <time>2018-09-22T11:01:11Z</time>
      </trkpt>
      <trkpt lat="45.95903" lon="6.45612">
        <ele>1447.1</ele>
        <time>2018-09-22T11:01:14Z</time>
      </trkpt>
      <trkpt lat="45.95911" lon="6.45606">
        <ele>1445.54</ele>
        <time>2018-09-22T11:01:16Z</time>
      </trkpt>
      <trkpt lat="45.95913" lon="6.45602">
        <ele>1445.01</ele>
        <time>2018-09-22T11:01:17Z</time>
      </trkpt>
      <trkpt lat="45.95915" lon="6.45599">
        <ele>1445.11</ele>
        <time>2018-09-22T11:01:18Z</time>
      </trkpt>
      <trkpt lat="45.95917" lon="6.45596">
        <ele>1444.79</ele>
        <time>2018-09-22T11:01:19Z</time>
      </trkpt>
      <trkpt lat="45.95919" lon="6.45593">
        <ele>1444.22</ele>
        <time>2018-09-22T11:01:20Z</time>
      </trkpt>
      <trkpt lat="45.9592" lon="6.4559">
        <ele>1444.58</ele>
        <time>2018-09-22T11:01:21Z</time>
      </trkpt>
      <trkpt lat="45.9592" lon="6.45588">
        <ele>1444.36</ele>
        <time>2018-09-22T11:01:22Z</time>
      </trkpt>
      <trkpt lat="45.9592" lon="6.45585">
        <ele>1444.08</ele>
        <time>2018-09-22T11:01:23Z</time>
      </trkpt>
      <trkpt lat="45.95919" lon="6.45584">
        <ele>1444.13</ele>
        <time>2018-09-22T11:01:24Z</time>
      </trkpt>
      <trkpt lat="45.95906" lon="6.45554">
        <ele>1445.14</ele>
        <time>2018-09-22T11:01:38Z</time>
      </trkpt>
      <trkpt lat="45.95883" lon="6.45528">
        <ele>1445</ele>
        <time>2018-09-22T11:01:55Z</time>
      </trkpt>
      <trkpt lat="45.95855" lon="6.45513">
        <ele>1446.88</ele>
        <time>2018-09-22T11:02:09Z</time>
      </trkpt>
      <trkpt lat="45.95853" lon="6.45478">
        <ele>1447</ele>
        <time>2018-09-22T11:02:21Z</time>
      </trkpt>
      <trkpt lat="45.95842" lon="6.45468">
        <ele>1448.23</ele>
        <time>2018-09-22T11:02:29Z</time>
      </trkpt>
      <trkpt lat="45.95821" lon="6.45455">
        <ele>1450.59</ele>
        <time>2018-09-22T11:02:42Z</time>
      </trkpt>
      <trkpt lat="45.95819" lon="6.45447">
        <ele>1449.71</ele>
        <time>2018-09-22T11:02:51Z</time>
      </trkpt>
      <trkpt lat="45.9582" lon="6.45441">
        <ele>1449.84</ele>
        <time>2018-09-22T11:03:02Z</time>
      </trkpt>
      <trkpt lat="45.95821" lon="6.45442">
        <ele>1449.28</ele>
        <time>2018-09-22T11:03:17Z</time>
      </trkpt>
      <trkpt lat="45.95822" lon="6.45439">
        <ele>1449.89</ele>
        <time>2018-09-22T11:03:29Z</time>
      </trkpt>
      <trkpt lat="45.95823" lon="6.45438">
        <ele>1450.09</ele>
        <time>2018-09-22T11:03:30Z</time>
      </trkpt>
      <trkpt lat="45.95824" lon="6.45437">
        <ele>1449.45</ele>
        <time>2018-09-22T11:03:31Z</time>
      </trkpt>
      <trkpt lat="45.95825" lon="6.45436">
        <ele>1449.27</ele>
        <time>2018-09-22T11:03:32Z</time>
      </trkpt>
      <trkpt lat="45.9583" lon="6.45434">
        <ele>1449.13</ele>
        <time>2018-09-22T11:03:34Z</time>
      </trkpt>
      <trkpt lat="45.95842" lon="6.45432">
        <ele>1447.87</ele>
        <time>2018-09-22T11:03:37Z</time>
      </trkpt>
      <trkpt lat="45.95865" lon="6.45425">
        <ele>1445.42</ele>
        <time>2018-09-22T11:03:41Z</time>
      </trkpt>
      <trkpt lat="45.95871" lon="6.4542">
        <ele>1444.83</ele>
        <time>2018-09-22T11:03:42Z</time>
      </trkpt>
      <trkpt lat="45.95878" lon="6.45415">
        <ele>1443.82</ele>
        <time>2018-09-22T11:03:43Z</time>
      </trkpt>
      <trkpt lat="45.95884" lon="6.45411">
        <ele>1443.64</ele>
        <time>2018-09-22T11:03:44Z</time>
      </trkpt>
      <trkpt lat="45.95898" lon="6.454">
        <ele>1442.18</ele>
        <time>2018-09-22T11:03:46Z</time>
      </trkpt>
      <trkpt lat="45.95903" lon="6.45392">
        <ele>1441.79</ele>
        <time>2018-09-22T11:03:47Z</time>
      </trkpt>
      <trkpt lat="45.95908" lon="6.45385">
        <ele>1441.3</ele>
        <time>2018-09-22T11:03:48Z</time>
      </trkpt>
      <trkpt lat="45.95912" lon="6.45377">
        <ele>1440.78</ele>
        <time>2018-09-22T11:03:49Z</time>
      </trkpt>
      <trkpt lat="45.95916" lon="6.45369">
        <ele>1441.14</ele>
        <time>2018-09-22T11:03:50Z</time>
      </trkpt>
      <trkpt lat="45.95919" lon="6.45361">
        <ele>1441.43</ele>
        <time>2018-09-22T11:03:51Z</time>
      </trkpt>
      <trkpt lat="45.95922" lon="6.45354">
        <ele>1441.01</ele>
        <time>2018-09-22T11:03:52Z</time>
      </trkpt>
      <trkpt lat="45.95937" lon="6.45327">
        <ele>1439.22</ele>
        <time>2018-09-22T11:03:56Z</time>
      </trkpt>
      <trkpt lat="45.95941" lon="6.45322">
        <ele>1438.48</ele>
        <time>2018-09-22T11:03:57Z</time>
      </trkpt>
      <trkpt lat="45.95947" lon="6.45318">
        <ele>1438.29</ele>
        <time>2018-09-22T11:03:58Z</time>
      </trkpt>
      <trkpt lat="45.95973" lon="6.45296">
        <ele>1436.39</ele>
        <time>2018-09-22T11:04:03Z</time>
      </trkpt>
      <trkpt lat="45.95978" lon="6.4529">
        <ele>1435.12</ele>
        <time>2018-09-22T11:04:04Z</time>
      </trkpt>
      <trkpt lat="45.95983" lon="6.45283">
        <ele>1433.96</ele>
        <time>2018-09-22T11:04:05Z</time>
      </trkpt>
      <trkpt lat="45.95987" lon="6.45275">
        <ele>1433.95</ele>
        <time>2018-09-22T11:04:06Z</time>
      </trkpt>
      <trkpt lat="45.96001" lon="6.45251">
        <ele>1432.01</ele>
        <time>2018-09-22T11:04:09Z</time>
      </trkpt>
      <trkpt lat="45.96011" lon="6.45225">
        <ele>1430.59</ele>
        <time>2018-09-22T11:04:13Z</time>
      </trkpt>
      <trkpt lat="45.96014" lon="6.45209">
        <ele>1429.12</ele>
        <time>2018-09-22T11:04:15Z</time>
      </trkpt>
      <trkpt lat="45.96016" lon="6.45196">
        <ele>1428.33</ele>
        <time>2018-09-22T11:04:17Z</time>
      </trkpt>
      <trkpt lat="45.96016" lon="6.4519">
        <ele>1427.97</ele>
        <time>2018-09-22T11:04:18Z</time>
      </trkpt>
      <trkpt lat="45.96018" lon="6.45185">
        <ele>1426.97</ele>
        <time>2018-09-22T11:04:19Z</time>
      </trkpt>
      <trkpt lat="45.96018" lon="6.45181">
        <ele>1427.54</ele>
        <time>2018-09-22T11:04:20Z</time>
      </trkpt>
      <trkpt lat="45.96019" lon="6.45179">
        <ele>1427.39</ele>
        <time>2018-09-22T11:04:21Z</time>
      </trkpt>
      <trkpt lat="45.96019" lon="6.45177">
        <ele>1427.14</ele>
        <time>2018-09-22T11:04:22Z</time>
      </trkpt>
      <trkpt lat="45.96027" lon="6.45162">
        <ele>1425.38</ele>
        <time>2018-09-22T11:04:31Z</time>
      </trkpt>
      <trkpt lat="45.96031" lon="6.45139">
        <ele>1422.05</ele>
        <time>2018-09-22T11:04:35Z</time>
      </trkpt>
      <trkpt lat="45.96039" lon="6.45094">
        <ele>1420.27</ele>
        <time>2018-09-22T11:04:45Z</time>
      </trkpt>
      <trkpt lat="45.9604" lon="6.45087">
        <ele>1419.34</ele>
        <time>2018-09-22T11:04:46Z</time>
      </trkpt>
      <trkpt lat="45.9604" lon="6.4508">
        <ele>1418.91</ele>
        <time>2018-09-22T11:04:47Z</time>
      </trkpt>
      <trkpt lat="45.96043" lon="6.45069">
        <ele>1417.35</ele>
        <time>2018-09-22T11:04:49Z</time>
      </trkpt>
      <trkpt lat="45.96046" lon="6.45057">
        <ele>1415.52</ele>
        <time>2018-09-22T11:04:51Z</time>
      </trkpt>
      <trkpt lat="45.96047" lon="6.45051">
        <ele>1414.96</ele>
        <time>2018-09-22T11:04:52Z</time>
      </trkpt>
      <trkpt lat="45.96048" lon="6.45045">
        <ele>1414.17</ele>
        <time>2018-09-22T11:04:53Z</time>
      </trkpt>
      <trkpt lat="45.96048" lon="6.45039">
        <ele>1413.27</ele>
        <time>2018-09-22T11:04:54Z</time>
      </trkpt>
      <trkpt lat="45.96047" lon="6.45034">
        <ele>1412.42</ele>
        <time>2018-09-22T11:04:55Z</time>
      </trkpt>
      <trkpt lat="45.96046" lon="6.45028">
        <ele>1412.26</ele>
        <time>2018-09-22T11:04:56Z</time>
      </trkpt>
      <trkpt lat="45.96046" lon="6.45023">
        <ele>1411.12</ele>
        <time>2018-09-22T11:04:57Z</time>
      </trkpt>
      <trkpt lat="45.96046" lon="6.45017">
        <ele>1410.06</ele>
        <time>2018-09-22T11:04:58Z</time>
      </trkpt>
      <trkpt lat="45.96047" lon="6.45006">
        <ele>1406.74</ele>
        <time>2018-09-22T11:05:01Z</time>
      </trkpt>
      <trkpt lat="45.96047" lon="6.45003">
        <ele>1406.47</ele>
        <time>2018-09-22T11:05:02Z</time>
      </trkpt>
      <trkpt lat="45.96044" lon="6.44988">
        <ele>1403.09</ele>
        <time>2018-09-22T11:05:07Z</time>
      </trkpt>
      <trkpt lat="45.96042" lon="6.44986">
        <ele>1402.81</ele>
        <time>2018-09-22T11:05:08Z</time>
      </trkpt>
      <trkpt lat="45.96039" lon="6.44976">
        <ele>1399.39</ele>
        <time>2018-09-22T11:05:13Z</time>
      </trkpt>
      <trkpt lat="45.9604" lon="6.44974">
        <ele>1398.81</ele>
        <time>2018-09-22T11:05:14Z</time>
      </trkpt>
      <trkpt lat="45.9604" lon="6.44973">
        <ele>1398.04</ele>
        <time>2018-09-22T11:05:15Z</time>
      </trkpt>
      <trkpt lat="45.9604" lon="6.4497">
        <ele>1397.46</ele>
        <time>2018-09-22T11:05:16Z</time>
      </trkpt>
      <trkpt lat="45.96039" lon="6.44968">
        <ele>1396.81</ele>
        <time>2018-09-22T11:05:17Z</time>
      </trkpt>
      <trkpt lat="45.96039" lon="6.44967">
        <ele>1396.3</ele>
        <time>2018-09-22T11:05:18Z</time>
      </trkpt>
      <trkpt lat="45.96037" lon="6.44965">
        <ele>1395.42</ele>
        <time>2018-09-22T11:05:19Z</time>
      </trkpt>
      <trkpt lat="45.96036" lon="6.44964">
        <ele>1394.42</ele>
        <time>2018-09-22T11:05:20Z</time>
      </trkpt>
      <trkpt lat="45.96034" lon="6.44962">
        <ele>1393.95</ele>
        <time>2018-09-22T11:05:21Z</time>
      </trkpt>
      <trkpt lat="45.96032" lon="6.44961">
        <ele>1393.34</ele>
        <time>2018-09-22T11:05:22Z</time>
      </trkpt>
      <trkpt lat="45.96029" lon="6.44961">
        <ele>1392.77</ele>
        <time>2018-09-22T11:05:23Z</time>
      </trkpt>
      <trkpt lat="45.96023" lon="6.44958">
        <ele>1390.69</ele>
        <time>2018-09-22T11:05:26Z</time>
      </trkpt>
      <trkpt lat="45.96021" lon="6.44956">
        <ele>1390.17</ele>
        <time>2018-09-22T11:05:27Z</time>
      </trkpt>
      <trkpt lat="45.96019" lon="6.44954">
        <ele>1388.69</ele>
        <time>2018-09-22T11:05:28Z</time>
      </trkpt>
      <trkpt lat="45.96013" lon="6.44944">
        <ele>1384.79</ele>
        <time>2018-09-22T11:05:32Z</time>
      </trkpt>
      <trkpt lat="45.96008" lon="6.44932">
        <ele>1380.29</ele>
        <time>2018-09-22T11:05:36Z</time>
      </trkpt>
      <trkpt lat="45.96004" lon="6.4493">
        <ele>1378.37</ele>
        <time>2018-09-22T11:05:38Z</time>
      </trkpt>
      <trkpt lat="45.96" lon="6.44929">
        <ele>1379.04</ele>
        <time>2018-09-22T11:05:50Z</time>
      </trkpt>
      <trkpt lat="45.95999" lon="6.44922">
        <ele>1377.35</ele>
        <time>2018-09-22T11:06:08Z</time>
      </trkpt>
      <trkpt lat="45.95996" lon="6.44922">
        <ele>1377.64</ele>
        <time>2018-09-22T11:06:34Z</time>
      </trkpt>
      <trkpt lat="45.95992" lon="6.4493">
        <ele>1376.08</ele>
        <time>2018-09-22T11:06:56Z</time>
      </trkpt>
      <trkpt lat="45.95991" lon="6.44934">
        <ele>1375.25</ele>
        <time>2018-09-22T11:07:01Z</time>
      </trkpt>
      <trkpt lat="45.95983" lon="6.44949">
        <ele>1373.25</ele>
        <time>2018-09-22T11:07:10Z</time>
      </trkpt>
      <trkpt lat="45.95974" lon="6.44959">
        <ele>1371.31</ele>
        <time>2018-09-22T11:07:15Z</time>
      </trkpt>
      <trkpt lat="45.95972" lon="6.44972">
        <ele>1370.48</ele>
        <time>2018-09-22T11:07:20Z</time>
      </trkpt>
      <trkpt lat="45.95963" lon="6.44984">
        <ele>1367.4</ele>
        <time>2018-09-22T11:07:29Z</time>
      </trkpt>
      <trkpt lat="45.95959" lon="6.44983">
        <ele>1365.91</ele>
        <time>2018-09-22T11:07:32Z</time>
      </trkpt>
      <trkpt lat="45.95957" lon="6.44982">
        <ele>1364.73</ele>
        <time>2018-09-22T11:07:33Z</time>
      </trkpt>
      <trkpt lat="45.95954" lon="6.44965">
        <ele>1363.07</ele>
        <time>2018-09-22T11:07:44Z</time>
      </trkpt>
      <trkpt lat="45.95954" lon="6.44962">
        <ele>1362.71</ele>
        <time>2018-09-22T11:07:46Z</time>
      </trkpt>
      <trkpt lat="45.95952" lon="6.44953">
        <ele>1361.56</ele>
        <time>2018-09-22T11:07:49Z</time>
      </trkpt>
      <trkpt lat="45.95949" lon="6.44946">
        <ele>1359.49</ele>
        <time>2018-09-22T11:07:52Z</time>
      </trkpt>
      <trkpt lat="45.95949" lon="6.44935">
        <ele>1358</ele>
        <time>2018-09-22T11:08:07Z</time>
      </trkpt>
      <trkpt lat="45.95943" lon="6.44933">
        <ele>1354.99</ele>
        <time>2018-09-22T11:08:20Z</time>
      </trkpt>
      <trkpt lat="45.95936" lon="6.44941">
        <ele>1352.06</ele>
        <time>2018-09-22T11:08:36Z</time>
      </trkpt>
      <trkpt lat="45.9593" lon="6.44946">
        <ele>1349.81</ele>
        <time>2018-09-22T11:08:42Z</time>
      </trkpt>
      <trkpt lat="45.95927" lon="6.44948">
        <ele>1348.87</ele>
        <time>2018-09-22T11:08:46Z</time>
      </trkpt>
      <trkpt lat="45.95922" lon="6.44953">
        <ele>1348.41</ele>
        <time>2018-09-22T11:09:07Z</time>
      </trkpt>
      <trkpt lat="45.95916" lon="6.44954">
        <ele>1345.31</ele>
        <time>2018-09-22T11:09:16Z</time>
      </trkpt>
      <trkpt lat="45.95916" lon="6.44954">
        <ele>1345.43</ele>
        <time>2018-09-22T11:09:18Z</time>
      </trkpt>
      <trkpt lat="45.95917" lon="6.44941">
        <ele>1344.05</ele>
        <time>2018-09-22T11:09:29Z</time>
      </trkpt>
      <trkpt lat="45.95916" lon="6.44936">
        <ele>1342.06</ele>
        <time>2018-09-22T11:09:32Z</time>
      </trkpt>
      <trkpt lat="45.95912" lon="6.44919">
        <ele>1339.72</ele>
        <time>2018-09-22T11:09:40Z</time>
      </trkpt>
      <trkpt lat="45.95912" lon="6.44916">
        <ele>1339.58</ele>
        <time>2018-09-22T11:09:41Z</time>
      </trkpt>
      <trkpt lat="45.95912" lon="6.44891">
        <ele>1338.63</ele>
        <time>2018-09-22T11:09:49Z</time>
      </trkpt>
      <trkpt lat="45.95912" lon="6.4489">
        <ele>1338.23</ele>
        <time>2018-09-22T11:10:23Z</time>
      </trkpt>
      <trkpt lat="45.95911" lon="6.44884">
        <ele>1337.64</ele>
        <time>2018-09-22T11:10:28Z</time>
      </trkpt>
      <trkpt lat="45.95914" lon="6.44865">
        <ele>1334.71</ele>
        <time>2018-09-22T11:10:32Z</time>
      </trkpt>
      <trkpt lat="45.95914" lon="6.44858">
        <ele>1334.8</ele>
        <time>2018-09-22T11:10:33Z</time>
      </trkpt>
      <trkpt lat="45.95914" lon="6.44844">
        <ele>1333.2</ele>
        <time>2018-09-22T11:10:35Z</time>
      </trkpt>
      <trkpt lat="45.95914" lon="6.44837">
        <ele>1331.96</ele>
        <time>2018-09-22T11:10:36Z</time>
      </trkpt>
      <trkpt lat="45.95915" lon="6.44831">
        <ele>1332.45</ele>
        <time>2018-09-22T11:10:37Z</time>
      </trkpt>
      <trkpt lat="45.95915" lon="6.44823">
        <ele>1331.71</ele>
        <time>2018-09-22T11:10:38Z</time>
      </trkpt>
      <trkpt lat="45.95915" lon="6.44817">
        <ele>1331.1</ele>
        <time>2018-09-22T11:10:39Z</time>
      </trkpt>
      <trkpt lat="45.95914" lon="6.44811">
        <ele>1331.44</ele>
        <time>2018-09-22T11:10:40Z</time>
      </trkpt>
      <trkpt lat="45.95913" lon="6.44805">
        <ele>1331.08</ele>
        <time>2018-09-22T11:10:41Z</time>
      </trkpt>
      <trkpt lat="45.95914" lon="6.44801">
        <ele>1330.9</ele>
        <time>2018-09-22T11:10:42Z</time>
      </trkpt>
      <trkpt lat="45.95916" lon="6.44796">
        <ele>1330.61</ele>
        <time>2018-09-22T11:10:43Z</time>
      </trkpt>
      <trkpt lat="45.95918" lon="6.44792">
        <ele>1330.31</ele>
        <time>2018-09-22T11:10:44Z</time>
      </trkpt>
      <trkpt lat="45.95921" lon="6.44788">
        <ele>1330.43</ele>
        <time>2018-09-22T11:10:45Z</time>
      </trkpt>
      <trkpt lat="45.95925" lon="6.44784">
        <ele>1329.79</ele>
        <time>2018-09-22T11:10:46Z</time>
      </trkpt>
      <trkpt lat="45.95928" lon="6.4478">
        <ele>1328.86</ele>
        <time>2018-09-22T11:10:47Z</time>
      </trkpt>
      <trkpt lat="45.95945" lon="6.44759">
        <ele>1326.15</ele>
        <time>2018-09-22T11:10:51Z</time>
      </trkpt>
      <trkpt lat="45.9595" lon="6.44754">
        <ele>1326.3</ele>
        <time>2018-09-22T11:10:52Z</time>
      </trkpt>
      <trkpt lat="45.95969" lon="6.44735">
        <ele>1324.06</ele>
        <time>2018-09-22T11:10:56Z</time>
      </trkpt>
      <trkpt lat="45.95973" lon="6.4473">
        <ele>1323.68</ele>
        <time>2018-09-22T11:10:57Z</time>
      </trkpt>
      <trkpt lat="45.95983" lon="6.44716">
        <ele>1321.06</ele>
        <time>2018-09-22T11:11:00Z</time>
      </trkpt>
      <trkpt lat="45.95986" lon="6.4471">
        <ele>1320.72</ele>
        <time>2018-09-22T11:11:01Z</time>
      </trkpt>
      <trkpt lat="45.95994" lon="6.44687">
        <ele>1317.57</ele>
        <time>2018-09-22T11:11:05Z</time>
      </trkpt>
      <trkpt lat="45.95998" lon="6.44673">
        <ele>1314.84</ele>
        <time>2018-09-22T11:11:13Z</time>
      </trkpt>
      <trkpt lat="45.96" lon="6.44668">
        <ele>1314.22</ele>
        <time>2018-09-22T11:11:15Z</time>
      </trkpt>
      <trkpt lat="45.96002" lon="6.44659">
        <ele>1310.63</ele>
        <time>2018-09-22T11:11:19Z</time>
      </trkpt>
      <trkpt lat="45.96002" lon="6.44653">
        <ele>1309.49</ele>
        <time>2018-09-22T11:11:21Z</time>
      </trkpt>
      <trkpt lat="45.96002" lon="6.44651">
        <ele>1308.94</ele>
        <time>2018-09-22T11:11:22Z</time>
      </trkpt>
      <trkpt lat="45.96001" lon="6.44648">
        <ele>1308.46</ele>
        <time>2018-09-22T11:11:23Z</time>
      </trkpt>
      <trkpt lat="45.96001" lon="6.44646">
        <ele>1307.57</ele>
        <time>2018-09-22T11:11:24Z</time>
      </trkpt>
      <trkpt lat="45.96002" lon="6.44645">
        <ele>1307.31</ele>
        <time>2018-09-22T11:11:25Z</time>
      </trkpt>
      <trkpt lat="45.96009" lon="6.44645">
        <ele>1307.31</ele>
        <time>2018-09-22T11:11:35Z</time>
      </trkpt>
      <trkpt lat="45.9601" lon="6.44649">
        <ele>1306.84</ele>
        <time>2018-09-22T11:11:50Z</time>
      </trkpt>
      <trkpt lat="45.96014" lon="6.44638">
        <ele>1303.82</ele>
        <time>2018-09-22T11:11:55Z</time>
      </trkpt>
      <trkpt lat="45.96015" lon="6.44637">
        <ele>1303.5</ele>
        <time>2018-09-22T11:11:56Z</time>
      </trkpt>
      <trkpt lat="45.96017" lon="6.44636">
        <ele>1302.83</ele>
        <time>2018-09-22T11:11:57Z</time>
      </trkpt>
      <trkpt lat="45.96018" lon="6.44635">
        <ele>1301.74</ele>
        <time>2018-09-22T11:11:58Z</time>
      </trkpt>
      <trkpt lat="45.96021" lon="6.44634">
        <ele>1300.97</ele>
        <time>2018-09-22T11:11:59Z</time>
      </trkpt>
      <trkpt lat="45.96024" lon="6.44635">
        <ele>1299.54</ele>
        <time>2018-09-22T11:12:00Z</time>
      </trkpt>
      <trkpt lat="45.96028" lon="6.44635">
        <ele>1298.82</ele>
        <time>2018-09-22T11:12:01Z</time>
      </trkpt>
      <trkpt lat="45.96031" lon="6.44635">
        <ele>1298.24</ele>
        <time>2018-09-22T11:12:02Z</time>
      </trkpt>
      <trkpt lat="45.96034" lon="6.44636">
        <ele>1297.78</ele>
        <time>2018-09-22T11:12:03Z</time>
      </trkpt>
      <trkpt lat="45.96037" lon="6.44636">
        <ele>1297.87</ele>
        <time>2018-09-22T11:12:04Z</time>
      </trkpt>
      <trkpt lat="45.96053" lon="6.4464">
        <ele>1294.53</ele>
        <time>2018-09-22T11:12:09Z</time>
      </trkpt>
      <trkpt lat="45.96071" lon="6.44633">
        <ele>1290.63</ele>
        <time>2018-09-22T11:12:13Z</time>
      </trkpt>
      <trkpt lat="45.96077" lon="6.44628">
        <ele>1290.7</ele>
        <time>2018-09-22T11:12:14Z</time>
      </trkpt>
      <trkpt lat="45.96082" lon="6.44624">
        <ele>1290.18</ele>
        <time>2018-09-22T11:12:15Z</time>
      </trkpt>
      <trkpt lat="45.96088" lon="6.4462">
        <ele>1289</ele>
        <time>2018-09-22T11:12:16Z</time>
      </trkpt>
      <trkpt lat="45.96095" lon="6.44616">
        <ele>1288.07</ele>
        <time>2018-09-22T11:12:17Z</time>
      </trkpt>
      <trkpt lat="45.961" lon="6.44613">
        <ele>1287.97</ele>
        <time>2018-09-22T11:12:18Z</time>
      </trkpt>
      <trkpt lat="45.96104" lon="6.44611">
        <ele>1287.67</ele>
        <time>2018-09-22T11:12:19Z</time>
      </trkpt>
      <trkpt lat="45.96125" lon="6.44601">
        <ele>1285.61</ele>
        <time>2018-09-22T11:12:24Z</time>
      </trkpt>
      <trkpt lat="45.96141" lon="6.44587">
        <ele>1282.34</ele>
        <time>2018-09-22T11:12:27Z</time>
      </trkpt>
      <trkpt lat="45.96151" lon="6.44575">
        <ele>1280.68</ele>
        <time>2018-09-22T11:12:29Z</time>
      </trkpt>
      <trkpt lat="45.96154" lon="6.44567">
        <ele>1280.45</ele>
        <time>2018-09-22T11:12:30Z</time>
      </trkpt>
      <trkpt lat="45.96159" lon="6.4456">
        <ele>1279.8</ele>
        <time>2018-09-22T11:12:31Z</time>
      </trkpt>
      <trkpt lat="45.96163" lon="6.44555">
        <ele>1278.94</ele>
        <time>2018-09-22T11:12:32Z</time>
      </trkpt>
      <trkpt lat="45.96169" lon="6.4455">
        <ele>1277.63</ele>
        <time>2018-09-22T11:12:33Z</time>
      </trkpt>
      <trkpt lat="45.96174" lon="6.44547">
        <ele>1277.12</ele>
        <time>2018-09-22T11:12:34Z</time>
      </trkpt>
      <trkpt lat="45.9618" lon="6.44543">
        <ele>1275.68</ele>
        <time>2018-09-22T11:12:35Z</time>
      </trkpt>
      <trkpt lat="45.96193" lon="6.44535">
        <ele>1273.8</ele>
        <time>2018-09-22T11:12:37Z</time>
      </trkpt>
      <trkpt lat="45.96211" lon="6.44517">
        <ele>1270.48</ele>
        <time>2018-09-22T11:12:40Z</time>
      </trkpt>
      <trkpt lat="45.96237" lon="6.44493">
        <ele>1267.46</ele>
        <time>2018-09-22T11:12:44Z</time>
      </trkpt>
      <trkpt lat="45.96243" lon="6.44487">
        <ele>1267.51</ele>
        <time>2018-09-22T11:12:45Z</time>
      </trkpt>
      <trkpt lat="45.96248" lon="6.4448">
        <ele>1267.32</ele>
        <time>2018-09-22T11:12:46Z</time>
      </trkpt>
      <trkpt lat="45.96268" lon="6.44463">
        <ele>1266.82</ele>
        <time>2018-09-22T11:12:51Z</time>
      </trkpt>
      <trkpt lat="45.96273" lon="6.44463">
        <ele>1266.6</ele>
        <time>2018-09-22T11:12:52Z</time>
      </trkpt>
      <trkpt lat="45.96279" lon="6.44464">
        <ele>1265.57</ele>
        <time>2018-09-22T11:12:53Z</time>
      </trkpt>
      <trkpt lat="45.96284" lon="6.44465">
        <ele>1265.45</ele>
        <time>2018-09-22T11:12:54Z</time>
      </trkpt>
      <trkpt lat="45.9635" lon="6.44483">
        <ele>1262.23</ele>
        <time>2018-09-22T11:13:06Z</time>
      </trkpt>
      <trkpt lat="45.9635" lon="6.44484">
        <ele>1262.74</ele>
        <time>2018-09-22T11:13:16Z</time>
      </trkpt>
      <trkpt lat="45.96352" lon="6.44483">
        <ele>1263.17</ele>
        <time>2018-09-22T11:14:05Z</time>
      </trkpt>
      <trkpt lat="45.96353" lon="6.44481">
        <ele>1262.64</ele>
        <time>2018-09-22T11:14:10Z</time>
      </trkpt>
      <trkpt lat="45.96355" lon="6.4448">
        <ele>1262.31</ele>
        <time>2018-09-22T11:14:11Z</time>
      </trkpt>
      <trkpt lat="45.96357" lon="6.44479">
        <ele>1261.85</ele>
        <time>2018-09-22T11:14:12Z</time>
      </trkpt>
      <trkpt lat="45.9636" lon="6.44477">
        <ele>1261.45</ele>
        <time>2018-09-22T11:14:13Z</time>
      </trkpt>
      <trkpt lat="45.96364" lon="6.44476">
        <ele>1260.71</ele>
        <time>2018-09-22T11:14:14Z</time>
      </trkpt>
      <trkpt lat="45.96372" lon="6.44473">
        <ele>1259.94</ele>
        <time>2018-09-22T11:14:16Z</time>
      </trkpt>
      <trkpt lat="45.96387" lon="6.44468">
        <ele>1256.13</ele>
        <time>2018-09-22T11:14:20Z</time>
      </trkpt>
      <trkpt lat="45.96391" lon="6.44469">
        <ele>1255.44</ele>
        <time>2018-09-22T11:14:21Z</time>
      </trkpt>
      <trkpt lat="45.96395" lon="6.44473">
        <ele>1254.73</ele>
        <time>2018-09-22T11:14:22Z</time>
      </trkpt>
      <trkpt lat="45.96399" lon="6.44477">
        <ele>1254.67</ele>
        <time>2018-09-22T11:14:23Z</time>
      </trkpt>
      <trkpt lat="45.96404" lon="6.4448">
        <ele>1254.11</ele>
        <time>2018-09-22T11:14:24Z</time>
      </trkpt>
      <trkpt lat="45.9641" lon="6.44482">
        <ele>1253.85</ele>
        <time>2018-09-22T11:14:25Z</time>
      </trkpt>
      <trkpt lat="45.96428" lon="6.44492">
        <ele>1251.69</ele>
        <time>2018-09-22T11:14:28Z</time>
      </trkpt>
      <trkpt lat="45.96446" lon="6.44502">
        <ele>1248.38</ele>
        <time>2018-09-22T11:14:31Z</time>
      </trkpt>
      <trkpt lat="45.96472" lon="6.44517">
        <ele>1244.89</ele>
        <time>2018-09-22T11:14:35Z</time>
      </trkpt>
      <trkpt lat="45.96497" lon="6.44532">
        <ele>1241.81</ele>
        <time>2018-09-22T11:14:39Z</time>
      </trkpt>
      <trkpt lat="45.96507" lon="6.4454">
        <ele>1240.88</ele>
        <time>2018-09-22T11:14:41Z</time>
      </trkpt>
      <trkpt lat="45.96511" lon="6.44542">
        <ele>1239.93</ele>
        <time>2018-09-22T11:14:42Z</time>
      </trkpt>
      <trkpt lat="45.96515" lon="6.44543">
        <ele>1239.55</ele>
        <time>2018-09-22T11:14:43Z</time>
      </trkpt>
      <trkpt lat="45.96518" lon="6.4454">
        <ele>1239.32</ele>
        <time>2018-09-22T11:14:44Z</time>
      </trkpt>
      <trkpt lat="45.96521" lon="6.44535">
        <ele>1238.92</ele>
        <time>2018-09-22T11:14:45Z</time>
      </trkpt>
      <trkpt lat="45.96522" lon="6.44529">
        <ele>1238.16</ele>
        <time>2018-09-22T11:14:46Z</time>
      </trkpt>
      <trkpt lat="45.96527" lon="6.44517">
        <ele>1236.82</ele>
        <time>2018-09-22T11:14:48Z</time>
      </trkpt>
      <trkpt lat="45.96529" lon="6.44511">
        <ele>1236.01</ele>
        <time>2018-09-22T11:14:49Z</time>
      </trkpt>
      <trkpt lat="45.96533" lon="6.44507">
        <ele>1234.97</ele>
        <time>2018-09-22T11:14:50Z</time>
      </trkpt>
      <trkpt lat="45.96537" lon="6.44504">
        <ele>1233.64</ele>
        <time>2018-09-22T11:14:51Z</time>
      </trkpt>
      <trkpt lat="45.96542" lon="6.44502">
        <ele>1233.01</ele>
        <time>2018-09-22T11:14:52Z</time>
      </trkpt>
      <trkpt lat="45.96548" lon="6.44501">
        <ele>1232.06</ele>
        <time>2018-09-22T11:14:53Z</time>
      </trkpt>
      <trkpt lat="45.96555" lon="6.44503">
        <ele>1231.37</ele>
        <time>2018-09-22T11:14:54Z</time>
      </trkpt>
      <trkpt lat="45.96561" lon="6.44507">
        <ele>1231.08</ele>
        <time>2018-09-22T11:14:55Z</time>
      </trkpt>
      <trkpt lat="45.96567" lon="6.44512">
        <ele>1230.84</ele>
        <time>2018-09-22T11:14:56Z</time>
      </trkpt>
      <trkpt lat="45.9658" lon="6.44524">
        <ele>1229.65</ele>
        <time>2018-09-22T11:14:58Z</time>
      </trkpt>
      <trkpt lat="45.96605" lon="6.44549">
        <ele>1225.65</ele>
        <time>2018-09-22T11:15:02Z</time>
      </trkpt>
      <trkpt lat="45.96611" lon="6.44555">
        <ele>1224.85</ele>
        <time>2018-09-22T11:15:03Z</time>
      </trkpt>
      <trkpt lat="45.96638" lon="6.44573">
        <ele>1221.03</ele>
        <time>2018-09-22T11:15:07Z</time>
      </trkpt>
      <trkpt lat="45.96644" lon="6.44577">
        <ele>1220.9</ele>
        <time>2018-09-22T11:15:08Z</time>
      </trkpt>
      <trkpt lat="45.96654" lon="6.44581">
        <ele>1221.09</ele>
        <time>2018-09-22T11:15:10Z</time>
      </trkpt>
      <trkpt lat="45.96657" lon="6.4458">
        <ele>1221.36</ele>
        <time>2018-09-22T11:15:11Z</time>
      </trkpt>
      <trkpt lat="45.96659" lon="6.44577">
        <ele>1221.51</ele>
        <time>2018-09-22T11:15:12Z</time>
      </trkpt>
      <trkpt lat="45.96659" lon="6.44572">
        <ele>1221.11</ele>
        <time>2018-09-22T11:15:13Z</time>
      </trkpt>
      <trkpt lat="45.96659" lon="6.44568">
        <ele>1220.66</ele>
        <time>2018-09-22T11:15:14Z</time>
      </trkpt>
      <trkpt lat="45.96658" lon="6.44563">
        <ele>1220.21</ele>
        <time>2018-09-22T11:15:15Z</time>
      </trkpt>
      <trkpt lat="45.96643" lon="6.44498">
        <ele>1219.04</ele>
        <time>2018-09-22T11:15:28Z</time>
      </trkpt>
      <trkpt lat="45.96626" lon="6.4443">
        <ele>1220.71</ele>
        <time>2018-09-22T11:15:44Z</time>
      </trkpt>
      <trkpt lat="45.9662" lon="6.44373">
        <ele>1223.3</ele>
        <time>2018-09-22T11:16:00Z</time>
      </trkpt>
      <trkpt lat="45.96638" lon="6.44333">
        <ele>1226.35</ele>
        <time>2018-09-22T11:16:15Z</time>
      </trkpt>
      <trkpt lat="45.9666" lon="6.4431">
        <ele>1229.58</ele>
        <time>2018-09-22T11:16:27Z</time>
      </trkpt>
      <trkpt lat="45.96688" lon="6.44296">
        <ele>1232.13</ele>
        <time>2018-09-22T11:16:43Z</time>
      </trkpt>
      <trkpt lat="45.9672" lon="6.44341">
        <ele>1234.8</ele>
        <time>2018-09-22T11:17:04Z</time>
      </trkpt>
      <trkpt lat="45.96723" lon="6.44344">
        <ele>1234.81</ele>
        <time>2018-09-22T11:17:06Z</time>
      </trkpt>
      <trkpt lat="45.96724" lon="6.44346">
        <ele>1235.21</ele>
        <time>2018-09-22T11:17:07Z</time>
      </trkpt>
      <trkpt lat="45.96726" lon="6.44348">
        <ele>1235.6</ele>
        <time>2018-09-22T11:17:08Z</time>
      </trkpt>
      <trkpt lat="45.96727" lon="6.4435">
        <ele>1235.6</ele>
        <time>2018-09-22T11:17:09Z</time>
      </trkpt>
      <trkpt lat="45.96729" lon="6.44351">
        <ele>1236.1</ele>
        <time>2018-09-22T11:17:10Z</time>
      </trkpt>
      <trkpt lat="45.96757" lon="6.44379">
        <ele>1237.92</ele>
        <time>2018-09-22T11:17:28Z</time>
      </trkpt>
      <trkpt lat="45.96766" lon="6.44381">
        <ele>1238.45</ele>
        <time>2018-09-22T11:17:33Z</time>
      </trkpt>
      <trkpt lat="45.96768" lon="6.44382">
        <ele>1239.24</ele>
        <time>2018-09-22T11:17:34Z</time>
      </trkpt>
      <trkpt lat="45.9677" lon="6.44383">
        <ele>1239.76</ele>
        <time>2018-09-22T11:17:35Z</time>
      </trkpt>
      <trkpt lat="45.96771" lon="6.44383">
        <ele>1240.21</ele>
        <time>2018-09-22T11:17:36Z</time>
      </trkpt>
      <trkpt lat="45.96773" lon="6.44384">
        <ele>1241.17</ele>
        <time>2018-09-22T11:17:37Z</time>
      </trkpt>
      <trkpt lat="45.96774" lon="6.44386">
        <ele>1241.12</ele>
        <time>2018-09-22T11:17:38Z</time>
      </trkpt>
      <trkpt lat="45.96781" lon="6.44392">
        <ele>1242.84</ele>
        <time>2018-09-22T11:17:43Z</time>
      </trkpt>
      <trkpt lat="45.96799" lon="6.44415">
        <ele>1245.88</ele>
        <time>2018-09-22T11:17:57Z</time>
      </trkpt>
      <trkpt lat="45.9682" lon="6.44437">
        <ele>1248.86</ele>
        <time>2018-09-22T11:18:11Z</time>
      </trkpt>
      <trkpt lat="45.96823" lon="6.44438">
        <ele>1249.41</ele>
        <time>2018-09-22T11:18:13Z</time>
      </trkpt>
      <trkpt lat="45.96824" lon="6.4444">
        <ele>1249.5</ele>
        <time>2018-09-22T11:18:14Z</time>
      </trkpt>
      <trkpt lat="45.96825" lon="6.44441">
        <ele>1249.52</ele>
        <time>2018-09-22T11:18:15Z</time>
      </trkpt>
      <trkpt lat="45.96826" lon="6.44442">
        <ele>1249.49</ele>
        <time>2018-09-22T11:18:16Z</time>
      </trkpt>
      <trkpt lat="45.96827" lon="6.44443">
        <ele>1249.46</ele>
        <time>2018-09-22T11:18:17Z</time>
      </trkpt>
      <trkpt lat="45.96848" lon="6.44455">
        <ele>1252.41</ele>
        <time>2018-09-22T11:18:32Z</time>
      </trkpt>
      <trkpt lat="45.9685" lon="6.44456">
        <ele>1252.76</ele>
        <time>2018-09-22T11:18:34Z</time>
      </trkpt>
      <trkpt lat="45.96863" lon="6.44485">
        <ele>1255.3</ele>
        <time>2018-09-22T11:18:49Z</time>
      </trkpt>
      <trkpt lat="45.96875" lon="6.44504">
        <ele>1258.32</ele>
        <time>2018-09-22T11:19:01Z</time>
      </trkpt>
      <trkpt lat="45.96898" lon="6.4452">
        <ele>1261.32</ele>
        <time>2018-09-22T11:19:16Z</time>
      </trkpt>
      <trkpt lat="45.96916" lon="6.44539">
        <ele>1264.64</ele>
        <time>2018-09-22T11:19:31Z</time>
      </trkpt>
      <trkpt lat="45.96933" lon="6.44563">
        <ele>1267.99</ele>
        <time>2018-09-22T11:19:47Z</time>
      </trkpt>
      <trkpt lat="45.96947" lon="6.44586">
        <ele>1269.37</ele>
        <time>2018-09-22T11:20:05Z</time>
      </trkpt>
      <trkpt lat="45.96946" lon="6.44586">
        <ele>1268.89</ele>
        <time>2018-09-22T11:20:38Z</time>
      </trkpt>
      <trkpt lat="45.96957" lon="6.44602">
        <ele>1269.86</ele>
        <time>2018-09-22T11:21:05Z</time>
      </trkpt>
      <trkpt lat="45.96986" lon="6.44642">
        <ele>1271.81</ele>
        <time>2018-09-22T11:21:24Z</time>
      </trkpt>
      <trkpt lat="45.97014" lon="6.44669">
        <ele>1273.5</ele>
        <time>2018-09-22T11:21:40Z</time>
      </trkpt>
      <trkpt lat="45.97045" lon="6.44689">
        <ele>1275.73</ele>
        <time>2018-09-22T11:21:58Z</time>
      </trkpt>
      <trkpt lat="45.97077" lon="6.44707">
        <ele>1279.2</ele>
        <time>2018-09-22T11:22:16Z</time>
      </trkpt>
      <trkpt lat="45.97109" lon="6.44722">
        <ele>1282.44</ele>
        <time>2018-09-22T11:22:34Z</time>
      </trkpt>
      <trkpt lat="45.97129" lon="6.44736">
        <ele>1286.27</ele>
        <time>2018-09-22T11:22:46Z</time>
      </trkpt>
      <trkpt lat="45.97131" lon="6.44737">
        <ele>1285.65</ele>
        <time>2018-09-22T11:22:47Z</time>
      </trkpt>
      <trkpt lat="45.97138" lon="6.44745">
        <ele>1287.53</ele>
        <time>2018-09-22T11:22:52Z</time>
      </trkpt>
      <trkpt lat="45.97143" lon="6.44754">
        <ele>1287.45</ele>
        <time>2018-09-22T11:23:03Z</time>
      </trkpt>
      <trkpt lat="45.97143" lon="6.44753">
        <ele>1288.15</ele>
        <time>2018-09-22T11:24:03Z</time>
      </trkpt>
      <trkpt lat="45.97144" lon="6.44753">
        <ele>1288.31</ele>
        <time>2018-09-22T11:24:04Z</time>
      </trkpt>
      <trkpt lat="45.97145" lon="6.44754">
        <ele>1288.62</ele>
        <time>2018-09-22T11:24:05Z</time>
      </trkpt>
      <trkpt lat="45.97147" lon="6.44756">
        <ele>1288.9</ele>
        <time>2018-09-22T11:24:06Z</time>
      </trkpt>
      <trkpt lat="45.97171" lon="6.44784">
        <ele>1291.15</ele>
        <time>2018-09-22T11:24:21Z</time>
      </trkpt>
      <trkpt lat="45.97185" lon="6.44801">
        <ele>1290.64</ele>
        <time>2018-09-22T11:24:26Z</time>
      </trkpt>
      <trkpt lat="45.97188" lon="6.44806">
        <ele>1290.44</ele>
        <time>2018-09-22T11:24:27Z</time>
      </trkpt>
      <trkpt lat="45.97205" lon="6.4483">
        <ele>1289.57</ele>
        <time>2018-09-22T11:24:32Z</time>
      </trkpt>
      <trkpt lat="45.97207" lon="6.44835">
        <ele>1289.46</ele>
        <time>2018-09-22T11:24:33Z</time>
      </trkpt>
      <trkpt lat="45.97209" lon="6.4484">
        <ele>1288.9</ele>
        <time>2018-09-22T11:24:34Z</time>
      </trkpt>
      <trkpt lat="45.97216" lon="6.44865">
        <ele>1288.85</ele>
        <time>2018-09-22T11:24:41Z</time>
      </trkpt>
      <trkpt lat="45.97218" lon="6.44867">
        <ele>1289.04</ele>
        <time>2018-09-22T11:24:42Z</time>
      </trkpt>
      <trkpt lat="45.97219" lon="6.44871">
        <ele>1288.71</ele>
        <time>2018-09-22T11:24:43Z</time>
      </trkpt>
      <trkpt lat="45.9722" lon="6.44875">
        <ele>1288.88</ele>
        <time>2018-09-22T11:24:44Z</time>
      </trkpt>
      <trkpt lat="45.97221" lon="6.44879">
        <ele>1288.65</ele>
        <time>2018-09-22T11:24:45Z</time>
      </trkpt>
      <trkpt lat="45.97232" lon="6.44912">
        <ele>1286.54</ele>
        <time>2018-09-22T11:24:51Z</time>
      </trkpt>
      <trkpt lat="45.97233" lon="6.44918">
        <ele>1286.24</ele>
        <time>2018-09-22T11:24:52Z</time>
      </trkpt>
      <trkpt lat="45.97238" lon="6.44936">
        <ele>1284.99</ele>
        <time>2018-09-22T11:24:55Z</time>
      </trkpt>
      <trkpt lat="45.97254" lon="6.44973">
        <ele>1281.9</ele>
        <time>2018-09-22T11:25:00Z</time>
      </trkpt>
      <trkpt lat="45.97279" lon="6.45018">
        <ele>1279.58</ele>
        <time>2018-09-22T11:25:05Z</time>
      </trkpt>
      <trkpt lat="45.97284" lon="6.45026">
        <ele>1278.95</ele>
        <time>2018-09-22T11:25:06Z</time>
      </trkpt>
      <trkpt lat="45.97287" lon="6.45036">
        <ele>1278.84</ele>
        <time>2018-09-22T11:25:07Z</time>
      </trkpt>
      <trkpt lat="45.9729" lon="6.45045">
        <ele>1278.8</ele>
        <time>2018-09-22T11:25:08Z</time>
      </trkpt>
      <trkpt lat="45.97293" lon="6.45055">
        <ele>1278.48</ele>
        <time>2018-09-22T11:25:09Z</time>
      </trkpt>
      <trkpt lat="45.97294" lon="6.45065">
        <ele>1278.44</ele>
        <time>2018-09-22T11:25:10Z</time>
      </trkpt>
      <trkpt lat="45.97296" lon="6.45074">
        <ele>1278.24</ele>
        <time>2018-09-22T11:25:11Z</time>
      </trkpt>
      <trkpt lat="45.973" lon="6.45124">
        <ele>1277.91</ele>
        <time>2018-09-22T11:25:20Z</time>
      </trkpt>
      <trkpt lat="45.97298" lon="6.45124">
        <ele>1277.99</ele>
        <time>2018-09-22T11:25:33Z</time>
      </trkpt>
      <trkpt lat="45.97297" lon="6.45123">
        <ele>1277.96</ele>
        <time>2018-09-22T11:25:34Z</time>
      </trkpt>
      <trkpt lat="45.97296" lon="6.45121">
        <ele>1277.96</ele>
        <time>2018-09-22T11:25:35Z</time>
      </trkpt>
      <trkpt lat="45.97295" lon="6.45118">
        <ele>1277.75</ele>
        <time>2018-09-22T11:25:36Z</time>
      </trkpt>
      <trkpt lat="45.97295" lon="6.45115">
        <ele>1277.51</ele>
        <time>2018-09-22T11:25:37Z</time>
      </trkpt>
      <trkpt lat="45.97294" lon="6.45111">
        <ele>1277.55</ele>
        <time>2018-09-22T11:25:38Z</time>
      </trkpt>
      <trkpt lat="45.97292" lon="6.45107">
        <ele>1277.78</ele>
        <time>2018-09-22T11:25:39Z</time>
      </trkpt>
      <trkpt lat="45.9729" lon="6.45103">
        <ele>1276.97</ele>
        <time>2018-09-22T11:25:40Z</time>
      </trkpt>
      <trkpt lat="45.97288" lon="6.45098">
        <ele>1276.9</ele>
        <time>2018-09-22T11:25:41Z</time>
      </trkpt>
      <trkpt lat="45.97285" lon="6.45093">
        <ele>1277.02</ele>
        <time>2018-09-22T11:25:42Z</time>
      </trkpt>
      <trkpt lat="45.97282" lon="6.45088">
        <ele>1276.66</ele>
        <time>2018-09-22T11:25:43Z</time>
      </trkpt>
      <trkpt lat="45.97279" lon="6.45083">
        <ele>1276.67</ele>
        <time>2018-09-22T11:25:44Z</time>
      </trkpt>
    </trkseg>
  </trk>
</gpx>